<?xml version="1.0" encoding="UTF-8"?><gpx xmlns="http://www.topografix.com/GPX/1/1" xmlns:xsi="http://www.w3.org/2001/XMLSchema-instance" creator="Geolives" version="1.1" xsi:schemaLocation="http://www.topografix.com/GPX/1/1 http://www.topografix.com/GPX/1/1/gpx.xsd">
<metadata>
<name><![CDATA[SityTrail - 20260911 Bonnemare]]></name>
<desc/>
</metadata>
<trk>
<name><![CDATA[SityTrail - 20260911 Bonnemare]]></name>
<desc/>
<trkseg>
<trkpt lat="49.331586" lon="1.3347213">
<ele>138.0</ele>
<time>2026-08-11T12:01:56.380Z</time>
</trkpt>
<trkpt lat="49.3315934" lon="1.3347293">
<ele>138.0</ele>
<time>2026-08-11T12:02:57.368Z</time>
</trkpt>
<trkpt lat="49.3316014" lon="1.3347063">
<ele>138.0</ele>
<time>2026-08-11T12:03:02.386Z</time>
</trkpt>
<trkpt lat="49.3316072" lon="1.3346592">
<ele>138.0</ele>
<time>2026-08-11T12:03:06.378Z</time>
</trkpt>
<trkpt lat="49.3316196" lon="1.3345751">
<ele>137.0</ele>
<time>2026-08-11T12:03:11.382Z</time>
</trkpt>
<trkpt lat="49.3316501" lon="1.3345041">
<ele>137.0</ele>
<time>2026-08-11T12:03:16.367Z</time>
</trkpt>
<trkpt lat="49.3316924" lon="1.334468">
<ele>137.0</ele>
<time>2026-08-11T12:03:20.373Z</time>
</trkpt>
<trkpt lat="49.3317566" lon="1.3344048">
<ele>137.0</ele>
<time>2026-08-11T12:03:25.369Z</time>
</trkpt>
<trkpt lat="49.3318074" lon="1.3344164">
<ele>137.0</ele>
<time>2026-08-11T12:03:29.736Z</time>
</trkpt>
<trkpt lat="49.3318623" lon="1.3344367">
<ele>137.0</ele>
<time>2026-08-11T12:03:33.818Z</time>
</trkpt>
<trkpt lat="49.3318848" lon="1.3344634">
<ele>137.0</ele>
<time>2026-08-11T12:03:37.890Z</time>
</trkpt>
<trkpt lat="49.3319173" lon="1.3344876">
<ele>137.0</ele>
<time>2026-08-11T12:03:42.221Z</time>
</trkpt>
<trkpt lat="49.3319652" lon="1.3344923">
<ele>137.0</ele>
<time>2026-08-11T12:03:46.373Z</time>
</trkpt>
<trkpt lat="49.3320141" lon="1.3345348">
<ele>137.0</ele>
<time>2026-08-11T12:03:50.802Z</time>
</trkpt>
<trkpt lat="49.3320584" lon="1.3345835">
<ele>136.0</ele>
<time>2026-08-11T12:03:54.844Z</time>
</trkpt>
<trkpt lat="49.3321025" lon="1.3346306">
<ele>135.0</ele>
<time>2026-08-11T12:03:58.857Z</time>
</trkpt>
<trkpt lat="49.3321418" lon="1.3346954">
<ele>135.0</ele>
<time>2026-08-11T12:04:03.038Z</time>
</trkpt>
<trkpt lat="49.3321792" lon="1.3347665">
<ele>135.0</ele>
<time>2026-08-11T12:04:07.299Z</time>
</trkpt>
<trkpt lat="49.3322273" lon="1.3347983">
<ele>135.0</ele>
<time>2026-08-11T12:04:11.877Z</time>
</trkpt>
<trkpt lat="49.3322886" lon="1.3347865">
<ele>135.0</ele>
<time>2026-08-11T12:04:16.380Z</time>
</trkpt>
<trkpt lat="49.3323359" lon="1.3347561">
<ele>135.0</ele>
<time>2026-08-11T12:04:20.776Z</time>
</trkpt>
<trkpt lat="49.332372" lon="1.3347634">
<ele>133.0</ele>
<time>2026-08-11T12:04:25.216Z</time>
</trkpt>
<trkpt lat="49.3323805" lon="1.3347219">
<ele>133.0</ele>
<time>2026-08-11T12:04:58.944Z</time>
</trkpt>
<trkpt lat="49.3324238" lon="1.3347377">
<ele>133.0</ele>
<time>2026-08-11T12:05:03.386Z</time>
</trkpt>
<trkpt lat="49.3324706" lon="1.3347422">
<ele>133.0</ele>
<time>2026-08-11T12:05:07.723Z</time>
</trkpt>
<trkpt lat="49.332516" lon="1.3347635">
<ele>133.0</ele>
<time>2026-08-11T12:05:12.024Z</time>
</trkpt>
<trkpt lat="49.3325585" lon="1.3348166">
<ele>133.0</ele>
<time>2026-08-11T12:05:16.116Z</time>
</trkpt>
<trkpt lat="49.3325926" lon="1.3348901">
<ele>133.0</ele>
<time>2026-08-11T12:05:20.376Z</time>
</trkpt>
<trkpt lat="49.3326476" lon="1.3349402">
<ele>134.0</ele>
<time>2026-08-11T12:05:24.995Z</time>
</trkpt>
<trkpt lat="49.3327001" lon="1.3349972">
<ele>134.0</ele>
<time>2026-08-11T12:05:29.370Z</time>
</trkpt>
<trkpt lat="49.3327419" lon="1.3350554">
<ele>134.0</ele>
<time>2026-08-11T12:05:33.457Z</time>
</trkpt>
<trkpt lat="49.3327929" lon="1.3351038">
<ele>134.0</ele>
<time>2026-08-11T12:05:37.956Z</time>
</trkpt>
<trkpt lat="49.332849" lon="1.3351222">
<ele>134.0</ele>
<time>2026-08-11T12:05:42.058Z</time>
</trkpt>
<trkpt lat="49.3328978" lon="1.3351536">
<ele>133.0</ele>
<time>2026-08-11T12:05:46.537Z</time>
</trkpt>
<trkpt lat="49.3329277" lon="1.3351808">
<ele>133.0</ele>
<time>2026-08-11T12:05:50.976Z</time>
</trkpt>
<trkpt lat="49.3329658" lon="1.3351413">
<ele>133.0</ele>
<time>2026-08-11T12:05:55.257Z</time>
</trkpt>
<trkpt lat="49.3330003" lon="1.3350192">
<ele>133.0</ele>
<time>2026-08-11T12:05:59.299Z</time>
</trkpt>
<trkpt lat="49.3329906" lon="1.3348837">
<ele>133.0</ele>
<time>2026-08-11T12:06:03.719Z</time>
</trkpt>
<trkpt lat="49.3329647" lon="1.3348038">
<ele>133.0</ele>
<time>2026-08-11T12:06:07.880Z</time>
</trkpt>
<trkpt lat="49.3329607" lon="1.3347497">
<ele>133.0</ele>
<time>2026-08-11T12:06:12.368Z</time>
</trkpt>
<trkpt lat="49.3329601" lon="1.3346701">
<ele>133.0</ele>
<time>2026-08-11T12:06:16.422Z</time>
</trkpt>
<trkpt lat="49.3330017" lon="1.3345868">
<ele>133.0</ele>
<time>2026-08-11T12:06:20.981Z</time>
</trkpt>
<trkpt lat="49.3330807" lon="1.3345555">
<ele>132.0</ele>
<time>2026-08-11T12:06:25.361Z</time>
</trkpt>
<trkpt lat="49.3331564" lon="1.3345581">
<ele>132.0</ele>
<time>2026-08-11T12:06:29.721Z</time>
</trkpt>
<trkpt lat="49.3332171" lon="1.3345564">
<ele>132.0</ele>
<time>2026-08-11T12:06:34.121Z</time>
</trkpt>
<trkpt lat="49.3332682" lon="1.3345194">
<ele>132.0</ele>
<time>2026-08-11T12:06:38.620Z</time>
</trkpt>
<trkpt lat="49.3333267" lon="1.3344926">
<ele>132.0</ele>
<time>2026-08-11T12:06:43.080Z</time>
</trkpt>
<trkpt lat="49.3333725" lon="1.334465">
<ele>132.0</ele>
<time>2026-08-11T12:06:47.371Z</time>
</trkpt>
<trkpt lat="49.3334088" lon="1.334415">
<ele>132.0</ele>
<time>2026-08-11T12:06:51.379Z</time>
</trkpt>
<trkpt lat="49.3334462" lon="1.334376">
<ele>132.0</ele>
<time>2026-08-11T12:06:55.382Z</time>
</trkpt>
<trkpt lat="49.3334844" lon="1.3343585">
<ele>132.0</ele>
<time>2026-08-11T12:06:59.498Z</time>
</trkpt>
<trkpt lat="49.3341351" lon="1.3336452">
<ele>128.0</ele>
<time>2026-08-11T12:08:02.380Z</time>
</trkpt>
<trkpt lat="49.3341701" lon="1.3335852">
<ele>128.0</ele>
<time>2026-08-11T12:08:07.365Z</time>
</trkpt>
<trkpt lat="49.3341916" lon="1.333545">
<ele>128.0</ele>
<time>2026-08-11T12:08:11.822Z</time>
</trkpt>
<trkpt lat="49.3342269" lon="1.333553">
<ele>128.0</ele>
<time>2026-08-11T12:08:15.854Z</time>
</trkpt>
<trkpt lat="49.3342687" lon="1.3335344">
<ele>128.0</ele>
<time>2026-08-11T12:08:20.056Z</time>
</trkpt>
<trkpt lat="49.3343111" lon="1.3335115">
<ele>128.0</ele>
<time>2026-08-11T12:08:24.278Z</time>
</trkpt>
<trkpt lat="49.3343636" lon="1.3335087">
<ele>128.0</ele>
<time>2026-08-11T12:08:29.254Z</time>
</trkpt>
<trkpt lat="49.3344077" lon="1.3335072">
<ele>128.0</ele>
<time>2026-08-11T12:08:33.396Z</time>
</trkpt>
<trkpt lat="49.3344882" lon="1.3334552">
<ele>128.0</ele>
<time>2026-08-11T12:08:42.370Z</time>
</trkpt>
<trkpt lat="49.3344856" lon="1.3334313">
<ele>128.0</ele>
<time>2026-08-11T12:08:46.373Z</time>
</trkpt>
<trkpt lat="49.3344946" lon="1.3334221">
<ele>128.0</ele>
<time>2026-08-11T12:08:50.759Z</time>
</trkpt>
<trkpt lat="49.3345118" lon="1.3334161">
<ele>128.0</ele>
<time>2026-08-11T12:08:55.814Z</time>
</trkpt>
<trkpt lat="49.3345378" lon="1.3334088">
<ele>128.0</ele>
<time>2026-08-11T12:08:59.857Z</time>
</trkpt>
<trkpt lat="49.3346106" lon="1.3333906">
<ele>128.0</ele>
<time>2026-08-11T12:09:04.384Z</time>
</trkpt>
<trkpt lat="49.3346607" lon="1.3333636">
<ele>128.0</ele>
<time>2026-08-11T12:09:08.419Z</time>
</trkpt>
<trkpt lat="49.3347186" lon="1.3333349">
<ele>128.0</ele>
<time>2026-08-11T12:09:12.382Z</time>
</trkpt>
<trkpt lat="49.3347938" lon="1.3333022">
<ele>128.0</ele>
<time>2026-08-11T12:09:17.020Z</time>
</trkpt>
<trkpt lat="49.3348511" lon="1.3332726">
<ele>128.0</ele>
<time>2026-08-11T12:09:21.381Z</time>
</trkpt>
<trkpt lat="49.3349114" lon="1.3332435">
<ele>127.0</ele>
<time>2026-08-11T12:09:25.502Z</time>
</trkpt>
<trkpt lat="49.3349701" lon="1.3332093">
<ele>127.0</ele>
<time>2026-08-11T12:09:29.634Z</time>
</trkpt>
<trkpt lat="49.3350257" lon="1.3331877">
<ele>127.0</ele>
<time>2026-08-11T12:09:34.223Z</time>
</trkpt>
<trkpt lat="49.3350836" lon="1.3331777">
<ele>127.0</ele>
<time>2026-08-11T12:09:38.822Z</time>
</trkpt>
<trkpt lat="49.3351276" lon="1.3331679">
<ele>127.0</ele>
<time>2026-08-11T12:09:42.864Z</time>
</trkpt>
<trkpt lat="49.3351733" lon="1.333163">
<ele>126.0</ele>
<time>2026-08-11T12:09:46.936Z</time>
</trkpt>
<trkpt lat="49.3352105" lon="1.3331321">
<ele>126.0</ele>
<time>2026-08-11T12:09:51.018Z</time>
</trkpt>
<trkpt lat="49.3352591" lon="1.333112">
<ele>126.0</ele>
<time>2026-08-11T12:09:55.180Z</time>
</trkpt>
<trkpt lat="49.3353174" lon="1.3330757">
<ele>126.0</ele>
<time>2026-08-11T12:09:59.384Z</time>
</trkpt>
<trkpt lat="49.3353866" lon="1.3330192">
<ele>126.0</ele>
<time>2026-08-11T12:10:04.258Z</time>
</trkpt>
<trkpt lat="49.3354567" lon="1.3329948">
<ele>126.0</ele>
<time>2026-08-11T12:10:08.896Z</time>
</trkpt>
<trkpt lat="49.3354966" lon="1.3329811">
<ele>126.0</ele>
<time>2026-08-11T12:10:13.058Z</time>
</trkpt>
<trkpt lat="49.3355329" lon="1.3329621">
<ele>126.0</ele>
<time>2026-08-11T12:10:15.799Z</time>
</trkpt>
<trkpt lat="49.3356073" lon="1.3329187">
<ele>126.0</ele>
<time>2026-08-11T12:10:21.520Z</time>
</trkpt>
<trkpt lat="49.3356675" lon="1.3328843">
<ele>126.0</ele>
<time>2026-08-11T12:10:26.278Z</time>
</trkpt>
<trkpt lat="49.335715" lon="1.3328741">
<ele>125.0</ele>
<time>2026-08-11T12:10:30.340Z</time>
</trkpt>
<trkpt lat="49.335763" lon="1.3328556">
<ele>125.0</ele>
<time>2026-08-11T12:10:34.363Z</time>
</trkpt>
<trkpt lat="49.3357991" lon="1.3328192">
<ele>125.0</ele>
<time>2026-08-11T12:10:38.703Z</time>
</trkpt>
<trkpt lat="49.3358811" lon="1.3328448">
<ele>125.0</ele>
<time>2026-08-11T12:10:43.262Z</time>
</trkpt>
<trkpt lat="49.3359417" lon="1.3328289">
<ele>125.0</ele>
<time>2026-08-11T12:10:47.662Z</time>
</trkpt>
<trkpt lat="49.3359999" lon="1.332809">
<ele>125.0</ele>
<time>2026-08-11T12:10:52.320Z</time>
</trkpt>
<trkpt lat="49.3360551" lon="1.332788">
<ele>125.0</ele>
<time>2026-08-11T12:10:56.681Z</time>
</trkpt>
<trkpt lat="49.3361099" lon="1.3327717">
<ele>125.0</ele>
<time>2026-08-11T12:11:01.240Z</time>
</trkpt>
<trkpt lat="49.3361653" lon="1.3328002">
<ele>125.0</ele>
<time>2026-08-11T12:11:05.739Z</time>
</trkpt>
<trkpt lat="49.3361988" lon="1.3328849">
<ele>125.0</ele>
<time>2026-08-11T12:11:10.179Z</time>
</trkpt>
<trkpt lat="49.3362125" lon="1.3329879">
<ele>126.0</ele>
<time>2026-08-11T12:11:14.374Z</time>
</trkpt>
<trkpt lat="49.3362146" lon="1.333088">
<ele>126.0</ele>
<time>2026-08-11T12:11:19.038Z</time>
</trkpt>
<trkpt lat="49.33622" lon="1.3331785">
<ele>126.0</ele>
<time>2026-08-11T12:11:23.130Z</time>
</trkpt>
<trkpt lat="49.3362219" lon="1.3332739">
<ele>126.0</ele>
<time>2026-08-11T12:11:27.322Z</time>
</trkpt>
<trkpt lat="49.3362291" lon="1.3333696">
<ele>126.0</ele>
<time>2026-08-11T12:11:31.861Z</time>
</trkpt>
<trkpt lat="49.3362413" lon="1.3334507">
<ele>126.0</ele>
<time>2026-08-11T12:11:36.141Z</time>
</trkpt>
<trkpt lat="49.336259" lon="1.3335283">
<ele>125.0</ele>
<time>2026-08-11T12:11:40.641Z</time>
</trkpt>
<trkpt lat="49.3362743" lon="1.333607">
<ele>125.0</ele>
<time>2026-08-11T12:11:45.160Z</time>
</trkpt>
<trkpt lat="49.3362804" lon="1.3336824">
<ele>125.0</ele>
<time>2026-08-11T12:11:49.202Z</time>
</trkpt>
<trkpt lat="49.3362919" lon="1.3337643">
<ele>124.0</ele>
<time>2026-08-11T12:11:53.370Z</time>
</trkpt>
<trkpt lat="49.3363033" lon="1.3338592">
<ele>124.0</ele>
<time>2026-08-11T12:11:57.922Z</time>
</trkpt>
<trkpt lat="49.3363134" lon="1.3339506">
<ele>124.0</ele>
<time>2026-08-11T12:12:02.376Z</time>
</trkpt>
<trkpt lat="49.3363188" lon="1.3340443">
<ele>122.0</ele>
<time>2026-08-11T12:12:06.980Z</time>
</trkpt>
<trkpt lat="49.3363219" lon="1.3341423">
<ele>122.0</ele>
<time>2026-08-11T12:12:11.360Z</time>
</trkpt>
<trkpt lat="49.3363075" lon="1.3342354">
<ele>122.0</ele>
<time>2026-08-11T12:12:15.820Z</time>
</trkpt>
<trkpt lat="49.3362832" lon="1.334319">
<ele>121.0</ele>
<time>2026-08-11T12:12:20.365Z</time>
</trkpt>
<trkpt lat="49.3362565" lon="1.3343826">
<ele>121.0</ele>
<time>2026-08-11T12:12:24.759Z</time>
</trkpt>
<trkpt lat="49.3362159" lon="1.3344377">
<ele>124.0</ele>
<time>2026-08-11T12:12:29.375Z</time>
</trkpt>
<trkpt lat="49.3361733" lon="1.3344961">
<ele>124.0</ele>
<time>2026-08-11T12:12:34.224Z</time>
</trkpt>
<trkpt lat="49.3361341" lon="1.3345471">
<ele>124.0</ele>
<time>2026-08-11T12:12:38.256Z</time>
</trkpt>
<trkpt lat="49.3360908" lon="1.3346049">
<ele>124.0</ele>
<time>2026-08-11T12:12:42.745Z</time>
</trkpt>
<trkpt lat="49.336035" lon="1.3346666">
<ele>124.0</ele>
<time>2026-08-11T12:12:47.235Z</time>
</trkpt>
<trkpt lat="49.3359983" lon="1.3347085">
<ele>124.0</ele>
<time>2026-08-11T12:12:51.764Z</time>
</trkpt>
<trkpt lat="49.3359688" lon="1.3347861">
<ele>125.0</ele>
<time>2026-08-11T12:12:56.283Z</time>
</trkpt>
<trkpt lat="49.3359985" lon="1.3348805">
<ele>124.0</ele>
<time>2026-08-11T12:13:00.722Z</time>
</trkpt>
<trkpt lat="49.3360417" lon="1.3349528">
<ele>124.0</ele>
<time>2026-08-11T12:13:05.202Z</time>
</trkpt>
<trkpt lat="49.3360874" lon="1.3350089">
<ele>124.0</ele>
<time>2026-08-11T12:13:09.681Z</time>
</trkpt>
<trkpt lat="49.3361247" lon="1.33506">
<ele>124.0</ele>
<time>2026-08-11T12:13:13.644Z</time>
</trkpt>
<trkpt lat="49.3361503" lon="1.3351227">
<ele>124.0</ele>
<time>2026-08-11T12:13:17.696Z</time>
</trkpt>
<trkpt lat="49.33619" lon="1.3351847">
<ele>123.0</ele>
<time>2026-08-11T12:13:22.314Z</time>
</trkpt>
<trkpt lat="49.3362226" lon="1.3352448">
<ele>123.0</ele>
<time>2026-08-11T12:13:26.337Z</time>
</trkpt>
<trkpt lat="49.3362546" lon="1.3353191">
<ele>121.0</ele>
<time>2026-08-11T12:13:30.995Z</time>
</trkpt>
<trkpt lat="49.3362808" lon="1.3353794">
<ele>121.0</ele>
<time>2026-08-11T12:13:34.998Z</time>
</trkpt>
<trkpt lat="49.3363028" lon="1.3354439">
<ele>120.0</ele>
<time>2026-08-11T12:13:39.040Z</time>
</trkpt>
<trkpt lat="49.3363216" lon="1.3355155">
<ele>120.0</ele>
<time>2026-08-11T12:13:43.062Z</time>
</trkpt>
<trkpt lat="49.3363499" lon="1.3355931">
<ele>120.0</ele>
<time>2026-08-11T12:13:47.661Z</time>
</trkpt>
<trkpt lat="49.3363799" lon="1.3356532">
<ele>120.0</ele>
<time>2026-08-11T12:13:51.643Z</time>
</trkpt>
<trkpt lat="49.3364178" lon="1.3357117">
<ele>119.0</ele>
<time>2026-08-11T12:13:56.321Z</time>
</trkpt>
<trkpt lat="49.3364577" lon="1.335775">
<ele>119.0</ele>
<time>2026-08-11T12:14:00.344Z</time>
</trkpt>
<trkpt lat="49.336491" lon="1.3358426">
<ele>119.0</ele>
<time>2026-08-11T12:14:04.903Z</time>
</trkpt>
<trkpt lat="49.3365112" lon="1.3359071">
<ele>119.0</ele>
<time>2026-08-11T12:14:09.368Z</time>
</trkpt>
<trkpt lat="49.3365044" lon="1.3359798">
<ele>118.0</ele>
<time>2026-08-11T12:14:13.901Z</time>
</trkpt>
<trkpt lat="49.3364738" lon="1.3360525">
<ele>118.0</ele>
<time>2026-08-11T12:14:18.366Z</time>
</trkpt>
<trkpt lat="49.3364498" lon="1.3361357">
<ele>118.0</ele>
<time>2026-08-11T12:14:22.939Z</time>
</trkpt>
<trkpt lat="49.3364349" lon="1.3362212">
<ele>118.0</ele>
<time>2026-08-11T12:14:27.374Z</time>
</trkpt>
<trkpt lat="49.3364197" lon="1.3363141">
<ele>116.0</ele>
<time>2026-08-11T12:14:32.096Z</time>
</trkpt>
<trkpt lat="49.3364075" lon="1.3363951">
<ele>116.0</ele>
<time>2026-08-11T12:14:36.158Z</time>
</trkpt>
<trkpt lat="49.3363875" lon="1.3364772">
<ele>116.0</ele>
<time>2026-08-11T12:14:40.737Z</time>
</trkpt>
<trkpt lat="49.3363721" lon="1.3365577">
<ele>114.0</ele>
<time>2026-08-11T12:14:45.368Z</time>
</trkpt>
<trkpt lat="49.3363624" lon="1.3366345">
<ele>114.0</ele>
<time>2026-08-11T12:14:49.835Z</time>
</trkpt>
<trkpt lat="49.3363576" lon="1.3367223">
<ele>114.0</ele>
<time>2026-08-11T12:14:54.371Z</time>
</trkpt>
<trkpt lat="49.336361" lon="1.3367974">
<ele>114.0</ele>
<time>2026-08-11T12:14:58.371Z</time>
</trkpt>
<trkpt lat="49.336348" lon="1.3368663">
<ele>114.0</ele>
<time>2026-08-11T12:15:02.498Z</time>
</trkpt>
<trkpt lat="49.3363248" lon="1.3369244">
<ele>114.0</ele>
<time>2026-08-11T12:15:06.580Z</time>
</trkpt>
<trkpt lat="49.3363099" lon="1.3370025">
<ele>114.0</ele>
<time>2026-08-11T12:15:11.198Z</time>
</trkpt>
<trkpt lat="49.3362949" lon="1.3370814">
<ele>114.0</ele>
<time>2026-08-11T12:15:15.693Z</time>
</trkpt>
<trkpt lat="49.3363053" lon="1.3371597">
<ele>113.0</ele>
<time>2026-08-11T12:15:19.740Z</time>
</trkpt>
<trkpt lat="49.3363225" lon="1.3372281">
<ele>113.0</ele>
<time>2026-08-11T12:15:23.762Z</time>
</trkpt>
<trkpt lat="49.336374" lon="1.3372867">
<ele>113.0</ele>
<time>2026-08-11T12:15:28.341Z</time>
</trkpt>
<trkpt lat="49.3364283" lon="1.3373184">
<ele>113.0</ele>
<time>2026-08-11T12:15:32.879Z</time>
</trkpt>
<trkpt lat="49.336489" lon="1.337338">
<ele>113.0</ele>
<time>2026-08-11T12:15:37.376Z</time>
</trkpt>
<trkpt lat="49.3365453" lon="1.3373783">
<ele>110.0</ele>
<time>2026-08-11T12:15:42.037Z</time>
</trkpt>
<trkpt lat="49.336597" lon="1.3374365">
<ele>110.0</ele>
<time>2026-08-11T12:15:46.655Z</time>
</trkpt>
<trkpt lat="49.3366278" lon="1.3374884">
<ele>110.0</ele>
<time>2026-08-11T12:15:50.677Z</time>
</trkpt>
<trkpt lat="49.3366608" lon="1.3375231">
<ele>110.0</ele>
<time>2026-08-11T12:15:54.819Z</time>
</trkpt>
<trkpt lat="49.3366867" lon="1.3375661">
<ele>110.0</ele>
<time>2026-08-11T12:15:58.901Z</time>
</trkpt>
<trkpt lat="49.3367137" lon="1.337619">
<ele>110.0</ele>
<time>2026-08-11T12:16:03.142Z</time>
</trkpt>
<trkpt lat="49.3367214" lon="1.3376874">
<ele>112.0</ele>
<time>2026-08-11T12:16:07.372Z</time>
</trkpt>
<trkpt lat="49.3367365" lon="1.3377631">
<ele>112.0</ele>
<time>2026-08-11T12:16:11.842Z</time>
</trkpt>
<trkpt lat="49.3367466" lon="1.3378348">
<ele>112.0</ele>
<time>2026-08-11T12:16:16.044Z</time>
</trkpt>
<trkpt lat="49.3367445" lon="1.3379177">
<ele>114.0</ele>
<time>2026-08-11T12:16:20.373Z</time>
</trkpt>
<trkpt lat="49.3367341" lon="1.3380109">
<ele>114.0</ele>
<time>2026-08-11T12:16:24.863Z</time>
</trkpt>
<trkpt lat="49.3367152" lon="1.3381018">
<ele>114.0</ele>
<time>2026-08-11T12:16:29.223Z</time>
</trkpt>
<trkpt lat="49.3366976" lon="1.3381923">
<ele>114.0</ele>
<time>2026-08-11T12:16:33.381Z</time>
</trkpt>
<trkpt lat="49.3366601" lon="1.3383734">
<ele>116.0</ele>
<time>2026-08-11T12:17:16.367Z</time>
</trkpt>
<trkpt lat="49.3366895" lon="1.3383854">
<ele>116.0</ele>
<time>2026-08-11T12:17:20.601Z</time>
</trkpt>
<trkpt lat="49.3367292" lon="1.3384617">
<ele>116.0</ele>
<time>2026-08-11T12:17:24.643Z</time>
</trkpt>
<trkpt lat="49.3367584" lon="1.3385278">
<ele>117.0</ele>
<time>2026-08-11T12:17:28.676Z</time>
</trkpt>
<trkpt lat="49.3367875" lon="1.3385879">
<ele>117.0</ele>
<time>2026-08-11T12:17:32.718Z</time>
</trkpt>
<trkpt lat="49.3368292" lon="1.3386425">
<ele>111.0</ele>
<time>2026-08-11T12:17:36.720Z</time>
</trkpt>
<trkpt lat="49.3368672" lon="1.3386837">
<ele>111.0</ele>
<time>2026-08-11T12:17:40.842Z</time>
</trkpt>
<trkpt lat="49.3369112" lon="1.3387365">
<ele>111.0</ele>
<time>2026-08-11T12:17:45.341Z</time>
</trkpt>
<trkpt lat="49.3369507" lon="1.3387791">
<ele>111.0</ele>
<time>2026-08-11T12:17:49.363Z</time>
</trkpt>
<trkpt lat="49.3370004" lon="1.338832">
<ele>111.0</ele>
<time>2026-08-11T12:17:54.375Z</time>
</trkpt>
<trkpt lat="49.3370431" lon="1.3388979">
<ele>111.0</ele>
<time>2026-08-11T12:17:58.367Z</time>
</trkpt>
<trkpt lat="49.337093" lon="1.3390015">
<ele>107.0</ele>
<time>2026-08-11T12:18:02.860Z</time>
</trkpt>
<trkpt lat="49.3371294" lon="1.3390859">
<ele>108.0</ele>
<time>2026-08-11T12:18:07.369Z</time>
</trkpt>
<trkpt lat="49.337162" lon="1.3391468">
<ele>108.0</ele>
<time>2026-08-11T12:18:11.373Z</time>
</trkpt>
<trkpt lat="49.3371949" lon="1.3392074">
<ele>108.0</ele>
<time>2026-08-11T12:18:15.523Z</time>
</trkpt>
<trkpt lat="49.3372317" lon="1.3392758">
<ele>108.0</ele>
<time>2026-08-11T12:18:20.082Z</time>
</trkpt>
<trkpt lat="49.3372624" lon="1.3393515">
<ele>108.0</ele>
<time>2026-08-11T12:18:24.373Z</time>
</trkpt>
<trkpt lat="49.337295" lon="1.3394319">
<ele>108.0</ele>
<time>2026-08-11T12:18:28.603Z</time>
</trkpt>
<trkpt lat="49.3373355" lon="1.3394936">
<ele>108.0</ele>
<time>2026-08-11T12:18:33.162Z</time>
</trkpt>
<trkpt lat="49.3373816" lon="1.3395633">
<ele>105.0</ele>
<time>2026-08-11T12:18:37.700Z</time>
</trkpt>
<trkpt lat="49.3374264" lon="1.3396138">
<ele>104.0</ele>
<time>2026-08-11T12:18:42.299Z</time>
</trkpt>
<trkpt lat="49.3374818" lon="1.3396277">
<ele>104.0</ele>
<time>2026-08-11T12:18:46.758Z</time>
</trkpt>
<trkpt lat="49.3375292" lon="1.3396237">
<ele>104.0</ele>
<time>2026-08-11T12:18:50.800Z</time>
</trkpt>
<trkpt lat="49.3375705" lon="1.3396244">
<ele>104.0</ele>
<time>2026-08-11T12:18:54.882Z</time>
</trkpt>
<trkpt lat="49.3376095" lon="1.3396574">
<ele>104.0</ele>
<time>2026-08-11T12:18:58.944Z</time>
</trkpt>
<trkpt lat="49.3375984" lon="1.3396847">
<ele>104.0</ele>
<time>2026-08-11T12:19:21.022Z</time>
</trkpt>
<trkpt lat="49.3376487" lon="1.3397402">
<ele>102.0</ele>
<time>2026-08-11T12:19:25.064Z</time>
</trkpt>
<trkpt lat="49.3376931" lon="1.3398073">
<ele>102.0</ele>
<time>2026-08-11T12:19:29.116Z</time>
</trkpt>
<trkpt lat="49.3377327" lon="1.3398817">
<ele>100.0</ele>
<time>2026-08-11T12:19:33.138Z</time>
</trkpt>
<trkpt lat="49.3377684" lon="1.3399477">
<ele>100.0</ele>
<time>2026-08-11T12:19:37.220Z</time>
</trkpt>
<trkpt lat="49.3377995" lon="1.3400167">
<ele>100.0</ele>
<time>2026-08-11T12:19:41.342Z</time>
</trkpt>
<trkpt lat="49.3378404" lon="1.3400911">
<ele>100.0</ele>
<time>2026-08-11T12:19:45.801Z</time>
</trkpt>
<trkpt lat="49.3378753" lon="1.3401629">
<ele>99.0</ele>
<time>2026-08-11T12:19:50.340Z</time>
</trkpt>
<trkpt lat="49.3379059" lon="1.3402248">
<ele>99.0</ele>
<time>2026-08-11T12:19:54.374Z</time>
</trkpt>
<trkpt lat="49.3379454" lon="1.3402865">
<ele>98.0</ele>
<time>2026-08-11T12:19:59.040Z</time>
</trkpt>
<trkpt lat="49.3379793" lon="1.3403534">
<ele>98.0</ele>
<time>2026-08-11T12:20:03.082Z</time>
</trkpt>
<trkpt lat="49.3380065" lon="1.3404183">
<ele>98.0</ele>
<time>2026-08-11T12:20:07.104Z</time>
</trkpt>
<trkpt lat="49.338048" lon="1.3404795">
<ele>98.0</ele>
<time>2026-08-11T12:20:11.369Z</time>
</trkpt>
<trkpt lat="49.3380919" lon="1.3405171">
<ele>98.0</ele>
<time>2026-08-11T12:20:15.576Z</time>
</trkpt>
<trkpt lat="49.3381402" lon="1.3405437">
<ele>98.0</ele>
<time>2026-08-11T12:20:19.677Z</time>
</trkpt>
<trkpt lat="49.3381803" lon="1.3405908">
<ele>98.0</ele>
<time>2026-08-11T12:20:24.156Z</time>
</trkpt>
<trkpt lat="49.3382217" lon="1.3406274">
<ele>96.0</ele>
<time>2026-08-11T12:20:28.715Z</time>
</trkpt>
<trkpt lat="49.3382567" lon="1.3406984">
<ele>94.0</ele>
<time>2026-08-11T12:20:33.263Z</time>
</trkpt>
<trkpt lat="49.3382877" lon="1.340774">
<ele>94.0</ele>
<time>2026-08-11T12:20:37.782Z</time>
</trkpt>
<trkpt lat="49.3383261" lon="1.3408507">
<ele>94.0</ele>
<time>2026-08-11T12:20:42.361Z</time>
</trkpt>
<trkpt lat="49.3383514" lon="1.3409353">
<ele>94.0</ele>
<time>2026-08-11T12:20:46.800Z</time>
</trkpt>
<trkpt lat="49.3383812" lon="1.3410248">
<ele>91.0</ele>
<time>2026-08-11T12:20:51.339Z</time>
</trkpt>
<trkpt lat="49.3384156" lon="1.3411031">
<ele>91.0</ele>
<time>2026-08-11T12:20:55.917Z</time>
</trkpt>
<trkpt lat="49.338459" lon="1.3411535">
<ele>91.0</ele>
<time>2026-08-11T12:21:00.372Z</time>
</trkpt>
<trkpt lat="49.338515" lon="1.3411882">
<ele>89.0</ele>
<time>2026-08-11T12:21:05.014Z</time>
</trkpt>
<trkpt lat="49.338553" lon="1.3412305">
<ele>89.0</ele>
<time>2026-08-11T12:21:09.017Z</time>
</trkpt>
<trkpt lat="49.3385789" lon="1.3413116">
<ele>87.0</ele>
<time>2026-08-11T12:21:13.019Z</time>
</trkpt>
<trkpt lat="49.3386028" lon="1.3414099">
<ele>87.0</ele>
<time>2026-08-11T12:21:17.518Z</time>
</trkpt>
<trkpt lat="49.3386238" lon="1.3414815">
<ele>87.0</ele>
<time>2026-08-11T12:21:21.580Z</time>
</trkpt>
<trkpt lat="49.3386463" lon="1.3415606">
<ele>85.0</ele>
<time>2026-08-11T12:21:26.119Z</time>
</trkpt>
<trkpt lat="49.3386623" lon="1.3416344">
<ele>85.0</ele>
<time>2026-08-11T12:21:30.141Z</time>
</trkpt>
<trkpt lat="49.338677" lon="1.3417166">
<ele>85.0</ele>
<time>2026-08-11T12:21:34.660Z</time>
</trkpt>
<trkpt lat="49.3387037" lon="1.3417871">
<ele>85.0</ele>
<time>2026-08-11T12:21:39.139Z</time>
</trkpt>
<trkpt lat="49.3387269" lon="1.3418439">
<ele>83.0</ele>
<time>2026-08-11T12:21:43.141Z</time>
</trkpt>
<trkpt lat="49.3387423" lon="1.341926">
<ele>83.0</ele>
<time>2026-08-11T12:21:47.600Z</time>
</trkpt>
<trkpt lat="49.3387651" lon="1.3420139">
<ele>82.0</ele>
<time>2026-08-11T12:21:52.119Z</time>
</trkpt>
<trkpt lat="49.3387822" lon="1.3421024">
<ele>81.0</ele>
<time>2026-08-11T12:21:56.598Z</time>
</trkpt>
<trkpt lat="49.3387883" lon="1.3421822">
<ele>81.0</ele>
<time>2026-08-11T12:22:01.117Z</time>
</trkpt>
<trkpt lat="49.3387967" lon="1.3422449">
<ele>81.0</ele>
<time>2026-08-11T12:22:05.695Z</time>
</trkpt>
<trkpt lat="49.3388141" lon="1.342302">
<ele>81.0</ele>
<time>2026-08-11T12:22:10.174Z</time>
</trkpt>
<trkpt lat="49.3388287" lon="1.3423672">
<ele>80.0</ele>
<time>2026-08-11T12:22:14.763Z</time>
</trkpt>
<trkpt lat="49.3388461" lon="1.3424412">
<ele>80.0</ele>
<time>2026-08-11T12:22:19.282Z</time>
</trkpt>
<trkpt lat="49.3388649" lon="1.3425163">
<ele>80.0</ele>
<time>2026-08-11T12:22:23.840Z</time>
</trkpt>
<trkpt lat="49.3388942" lon="1.3425874">
<ele>80.0</ele>
<time>2026-08-11T12:22:28.373Z</time>
</trkpt>
<trkpt lat="49.3389109" lon="1.3426524">
<ele>80.0</ele>
<time>2026-08-11T12:22:32.368Z</time>
</trkpt>
<trkpt lat="49.3389274" lon="1.3427172">
<ele>80.0</ele>
<time>2026-08-11T12:22:36.423Z</time>
</trkpt>
<trkpt lat="49.3389347" lon="1.3427963">
<ele>80.0</ele>
<time>2026-08-11T12:22:41.002Z</time>
</trkpt>
<trkpt lat="49.3389481" lon="1.3428426">
<ele>80.0</ele>
<time>2026-08-11T12:22:45.373Z</time>
</trkpt>
<trkpt lat="49.3389603" lon="1.3428849">
<ele>80.0</ele>
<time>2026-08-11T12:22:49.960Z</time>
</trkpt>
<trkpt lat="49.338923" lon="1.3429392">
<ele>79.0</ele>
<time>2026-08-11T12:23:27.083Z</time>
</trkpt>
<trkpt lat="49.3389172" lon="1.3429515">
<ele>79.0</ele>
<time>2026-08-11T12:23:31.523Z</time>
</trkpt>
<trkpt lat="49.3389276" lon="1.3430146">
<ele>79.0</ele>
<time>2026-08-11T12:23:35.744Z</time>
</trkpt>
<trkpt lat="49.3389145" lon="1.3430355">
<ele>79.0</ele>
<time>2026-08-11T12:23:40.363Z</time>
</trkpt>
<trkpt lat="49.3388628" lon="1.343077">
<ele>79.0</ele>
<time>2026-08-11T12:24:00.367Z</time>
</trkpt>
<trkpt lat="49.3388456" lon="1.3431222">
<ele>79.0</ele>
<time>2026-08-11T12:24:47.975Z</time>
</trkpt>
<trkpt lat="49.3388499" lon="1.3432265">
<ele>78.0</ele>
<time>2026-08-11T12:24:52.315Z</time>
</trkpt>
<trkpt lat="49.3388668" lon="1.3432223">
<ele>78.0</ele>
<time>2026-08-11T12:24:56.369Z</time>
</trkpt>
<trkpt lat="49.3388712" lon="1.3432293">
<ele>78.0</ele>
<time>2026-08-11T12:25:00.637Z</time>
</trkpt>
<trkpt lat="49.3388756" lon="1.3433005">
<ele>78.0</ele>
<time>2026-08-11T12:25:04.838Z</time>
</trkpt>
<trkpt lat="49.3388618" lon="1.3433579">
<ele>78.0</ele>
<time>2026-08-11T12:25:09.039Z</time>
</trkpt>
<trkpt lat="49.3388392" lon="1.3434126">
<ele>78.0</ele>
<time>2026-08-11T12:25:13.081Z</time>
</trkpt>
<trkpt lat="49.3388289" lon="1.3434777">
<ele>79.0</ele>
<time>2026-08-11T12:25:17.560Z</time>
</trkpt>
<trkpt lat="49.3388406" lon="1.3435344">
<ele>79.0</ele>
<time>2026-08-11T12:25:21.662Z</time>
</trkpt>
<trkpt lat="49.3388525" lon="1.3436004">
<ele>79.0</ele>
<time>2026-08-11T12:25:26.260Z</time>
</trkpt>
<trkpt lat="49.338849" lon="1.3436862">
<ele>79.0</ele>
<time>2026-08-11T12:25:30.680Z</time>
</trkpt>
<trkpt lat="49.338847" lon="1.3437469">
<ele>79.0</ele>
<time>2026-08-11T12:25:34.940Z</time>
</trkpt>
<trkpt lat="49.3388513" lon="1.3437855">
<ele>80.0</ele>
<time>2026-08-11T12:25:39.201Z</time>
</trkpt>
<trkpt lat="49.338872" lon="1.3438273">
<ele>80.0</ele>
<time>2026-08-11T12:25:43.362Z</time>
</trkpt>
<trkpt lat="49.3388953" lon="1.3438689">
<ele>80.0</ele>
<time>2026-08-11T12:25:47.368Z</time>
</trkpt>
<trkpt lat="49.3389221" lon="1.3439088">
<ele>80.0</ele>
<time>2026-08-11T12:25:51.596Z</time>
</trkpt>
<trkpt lat="49.338942" lon="1.343974">
<ele>80.0</ele>
<time>2026-08-11T12:25:56.015Z</time>
</trkpt>
<trkpt lat="49.3389545" lon="1.3440312">
<ele>80.0</ele>
<time>2026-08-11T12:26:00.355Z</time>
</trkpt>
<trkpt lat="49.3389632" lon="1.3441043">
<ele>80.0</ele>
<time>2026-08-11T12:26:04.361Z</time>
</trkpt>
<trkpt lat="49.3389643" lon="1.3441771">
<ele>80.0</ele>
<time>2026-08-11T12:26:08.379Z</time>
</trkpt>
<trkpt lat="49.3389574" lon="1.3442484">
<ele>80.0</ele>
<time>2026-08-11T12:26:13.373Z</time>
</trkpt>
<trkpt lat="49.338956" lon="1.3442064">
<ele>80.0</ele>
<time>2026-08-11T12:26:18.359Z</time>
</trkpt>
<trkpt lat="49.3389647" lon="1.3441933">
<ele>80.0</ele>
<time>2026-08-11T12:26:23.178Z</time>
</trkpt>
<trkpt lat="49.3389722" lon="1.3442114">
<ele>80.0</ele>
<time>2026-08-11T12:26:27.370Z</time>
</trkpt>
<trkpt lat="49.3389949" lon="1.3442943">
<ele>80.0</ele>
<time>2026-08-11T12:26:32.076Z</time>
</trkpt>
<trkpt lat="49.339004" lon="1.3443581">
<ele>80.0</ele>
<time>2026-08-11T12:26:36.257Z</time>
</trkpt>
<trkpt lat="49.3390322" lon="1.3444944">
<ele>76.0</ele>
<time>2026-08-11T12:27:21.373Z</time>
</trkpt>
<trkpt lat="49.3389906" lon="1.3445456">
<ele>80.0</ele>
<time>2026-08-11T12:27:26.360Z</time>
</trkpt>
<trkpt lat="49.3389724" lon="1.3445611">
<ele>80.0</ele>
<time>2026-08-11T12:27:31.361Z</time>
</trkpt>
<trkpt lat="49.3389469" lon="1.3445925">
<ele>81.0</ele>
<time>2026-08-11T12:27:35.361Z</time>
</trkpt>
<trkpt lat="49.3389241" lon="1.344597">
<ele>81.0</ele>
<time>2026-08-11T12:27:40.357Z</time>
</trkpt>
<trkpt lat="49.3388845" lon="1.3446531">
<ele>81.0</ele>
<time>2026-08-11T12:27:49.369Z</time>
</trkpt>
<trkpt lat="49.3388882" lon="1.3446803">
<ele>81.0</ele>
<time>2026-08-11T12:27:53.373Z</time>
</trkpt>
<trkpt lat="49.3388876" lon="1.3447059">
<ele>81.0</ele>
<time>2026-08-11T12:27:58.366Z</time>
</trkpt>
<trkpt lat="49.3388823" lon="1.3447397">
<ele>81.0</ele>
<time>2026-08-11T12:28:04.367Z</time>
</trkpt>
<trkpt lat="49.3388712" lon="1.3447622">
<ele>81.0</ele>
<time>2026-08-11T12:28:09.278Z</time>
</trkpt>
<trkpt lat="49.3388431" lon="1.3448121">
<ele>81.0</ele>
<time>2026-08-11T12:28:14.373Z</time>
</trkpt>
<trkpt lat="49.3388246" lon="1.3448449">
<ele>81.0</ele>
<time>2026-08-11T12:28:18.803Z</time>
</trkpt>
<trkpt lat="49.3388247" lon="1.3449095">
<ele>82.0</ele>
<time>2026-08-11T12:28:23.366Z</time>
</trkpt>
<trkpt lat="49.3388124" lon="1.3449738">
<ele>82.0</ele>
<time>2026-08-11T12:28:27.920Z</time>
</trkpt>
<trkpt lat="49.3387772" lon="1.3450357">
<ele>82.0</ele>
<time>2026-08-11T12:28:32.340Z</time>
</trkpt>
<trkpt lat="49.3387324" lon="1.3450886">
<ele>84.0</ele>
<time>2026-08-11T12:28:36.481Z</time>
</trkpt>
<trkpt lat="49.3386879" lon="1.3451265">
<ele>84.0</ele>
<time>2026-08-11T12:28:41.363Z</time>
</trkpt>
<trkpt lat="49.338682" lon="1.3452235">
<ele>84.0</ele>
<time>2026-08-11T12:28:45.599Z</time>
</trkpt>
<trkpt lat="49.3386846" lon="1.3453126">
<ele>84.0</ele>
<time>2026-08-11T12:28:49.978Z</time>
</trkpt>
<trkpt lat="49.3386476" lon="1.3453744">
<ele>84.0</ele>
<time>2026-08-11T12:28:54.358Z</time>
</trkpt>
<trkpt lat="49.3386075" lon="1.3454276">
<ele>83.0</ele>
<time>2026-08-11T12:28:58.897Z</time>
</trkpt>
<trkpt lat="49.3385852" lon="1.3454855">
<ele>83.0</ele>
<time>2026-08-11T12:29:03.217Z</time>
</trkpt>
<trkpt lat="49.3385631" lon="1.3455458">
<ele>83.0</ele>
<time>2026-08-11T12:29:07.736Z</time>
</trkpt>
<trkpt lat="49.3385524" lon="1.3456112">
<ele>83.0</ele>
<time>2026-08-11T12:29:12.096Z</time>
</trkpt>
<trkpt lat="49.3385401" lon="1.3456778">
<ele>83.0</ele>
<time>2026-08-11T12:29:16.675Z</time>
</trkpt>
<trkpt lat="49.3385188" lon="1.3457502">
<ele>82.0</ele>
<time>2026-08-11T12:29:21.075Z</time>
</trkpt>
<trkpt lat="49.3384991" lon="1.3458229">
<ele>82.0</ele>
<time>2026-08-11T12:29:25.375Z</time>
</trkpt>
<trkpt lat="49.3384799" lon="1.3459067">
<ele>82.0</ele>
<time>2026-08-11T12:29:29.795Z</time>
</trkpt>
<trkpt lat="49.3384537" lon="1.3459827">
<ele>82.0</ele>
<time>2026-08-11T12:29:34.224Z</time>
</trkpt>
<trkpt lat="49.3384354" lon="1.3460574">
<ele>82.0</ele>
<time>2026-08-11T12:29:38.455Z</time>
</trkpt>
<trkpt lat="49.3384138" lon="1.3461318">
<ele>82.0</ele>
<time>2026-08-11T12:29:42.795Z</time>
</trkpt>
<trkpt lat="49.3383934" lon="1.3461945">
<ele>82.0</ele>
<time>2026-08-11T12:29:47.016Z</time>
</trkpt>
<trkpt lat="49.3383689" lon="1.3462622">
<ele>80.0</ele>
<time>2026-08-11T12:29:51.367Z</time>
</trkpt>
<trkpt lat="49.3383317" lon="1.3463163">
<ele>80.0</ele>
<time>2026-08-11T12:29:55.776Z</time>
</trkpt>
<trkpt lat="49.3382992" lon="1.3463774">
<ele>80.0</ele>
<time>2026-08-11T12:30:00.076Z</time>
</trkpt>
<trkpt lat="49.3382623" lon="1.3464243">
<ele>80.0</ele>
<time>2026-08-11T12:30:04.277Z</time>
</trkpt>
<trkpt lat="49.3382293" lon="1.3464813">
<ele>80.0</ele>
<time>2026-08-11T12:30:08.716Z</time>
</trkpt>
<trkpt lat="49.3382015" lon="1.3465283">
<ele>77.0</ele>
<time>2026-08-11T12:30:12.937Z</time>
</trkpt>
<trkpt lat="49.3381601" lon="1.3465637">
<ele>83.0</ele>
<time>2026-08-11T12:30:17.369Z</time>
</trkpt>
<trkpt lat="49.3381228" lon="1.3465944">
<ele>83.0</ele>
<time>2026-08-11T12:30:21.657Z</time>
</trkpt>
<trkpt lat="49.3380791" lon="1.34663">
<ele>83.0</ele>
<time>2026-08-11T12:30:26.037Z</time>
</trkpt>
<trkpt lat="49.3380448" lon="1.3466816">
<ele>83.0</ele>
<time>2026-08-11T12:30:30.218Z</time>
</trkpt>
<trkpt lat="49.3380137" lon="1.3467405">
<ele>83.0</ele>
<time>2026-08-11T12:30:34.361Z</time>
</trkpt>
<trkpt lat="49.3379818" lon="1.3467991">
<ele>83.0</ele>
<time>2026-08-11T12:30:38.819Z</time>
</trkpt>
<trkpt lat="49.3379552" lon="1.3468624">
<ele>81.0</ele>
<time>2026-08-11T12:30:43.179Z</time>
</trkpt>
<trkpt lat="49.3379267" lon="1.3469187">
<ele>81.0</ele>
<time>2026-08-11T12:30:47.359Z</time>
</trkpt>
<trkpt lat="49.3378965" lon="1.3469871">
<ele>85.0</ele>
<time>2026-08-11T12:30:51.720Z</time>
</trkpt>
<trkpt lat="49.3378657" lon="1.3470625">
<ele>85.0</ele>
<time>2026-08-11T12:30:55.961Z</time>
</trkpt>
<trkpt lat="49.3378388" lon="1.3471358">
<ele>83.0</ele>
<time>2026-08-11T12:31:00.361Z</time>
</trkpt>
<trkpt lat="49.3378084" lon="1.347196">
<ele>83.0</ele>
<time>2026-08-11T12:31:04.721Z</time>
</trkpt>
<trkpt lat="49.3377779" lon="1.3472759">
<ele>83.0</ele>
<time>2026-08-11T12:31:09.240Z</time>
</trkpt>
<trkpt lat="49.3377518" lon="1.3473397">
<ele>83.0</ele>
<time>2026-08-11T12:31:13.500Z</time>
</trkpt>
<trkpt lat="49.3377116" lon="1.347397">
<ele>82.0</ele>
<time>2026-08-11T12:31:17.999Z</time>
</trkpt>
<trkpt lat="49.3376717" lon="1.3474487">
<ele>82.0</ele>
<time>2026-08-11T12:31:22.371Z</time>
</trkpt>
<trkpt lat="49.337634" lon="1.3475211">
<ele>86.0</ele>
<time>2026-08-11T12:31:26.878Z</time>
</trkpt>
<trkpt lat="49.3376036" lon="1.3475909">
<ele>86.0</ele>
<time>2026-08-11T12:31:31.238Z</time>
</trkpt>
<trkpt lat="49.337583" lon="1.3476627">
<ele>85.0</ele>
<time>2026-08-11T12:31:35.657Z</time>
</trkpt>
<trkpt lat="49.3375682" lon="1.3477281">
<ele>85.0</ele>
<time>2026-08-11T12:31:39.878Z</time>
</trkpt>
<trkpt lat="49.3375585" lon="1.3477987">
<ele>85.0</ele>
<time>2026-08-11T12:31:44.159Z</time>
</trkpt>
<trkpt lat="49.3375555" lon="1.3478861">
<ele>85.0</ele>
<time>2026-08-11T12:31:48.363Z</time>
</trkpt>
<trkpt lat="49.3375496" lon="1.3479518">
<ele>83.0</ele>
<time>2026-08-11T12:31:52.700Z</time>
</trkpt>
<trkpt lat="49.3375443" lon="1.3480116">
<ele>83.0</ele>
<time>2026-08-11T12:31:56.941Z</time>
</trkpt>
<trkpt lat="49.3375387" lon="1.34808">
<ele>83.0</ele>
<time>2026-08-11T12:32:01.181Z</time>
</trkpt>
<trkpt lat="49.337531" lon="1.3481572">
<ele>83.0</ele>
<time>2026-08-11T12:32:05.283Z</time>
</trkpt>
<trkpt lat="49.3375305" lon="1.3482378">
<ele>81.0</ele>
<time>2026-08-11T12:32:09.544Z</time>
</trkpt>
<trkpt lat="49.3375227" lon="1.3483237">
<ele>81.0</ele>
<time>2026-08-11T12:32:14.363Z</time>
</trkpt>
<trkpt lat="49.3375129" lon="1.3483941">
<ele>81.0</ele>
<time>2026-08-11T12:32:18.740Z</time>
</trkpt>
<trkpt lat="49.3375064" lon="1.3484738">
<ele>80.0</ele>
<time>2026-08-11T12:32:23.140Z</time>
</trkpt>
<trkpt lat="49.3375013" lon="1.3485614">
<ele>80.0</ele>
<time>2026-08-11T12:32:27.341Z</time>
</trkpt>
<trkpt lat="49.3374947" lon="1.3486413">
<ele>80.0</ele>
<time>2026-08-11T12:32:31.820Z</time>
</trkpt>
<trkpt lat="49.3374913" lon="1.3487223">
<ele>80.0</ele>
<time>2026-08-11T12:32:35.981Z</time>
</trkpt>
<trkpt lat="49.3374861" lon="1.3488015">
<ele>80.0</ele>
<time>2026-08-11T12:32:40.366Z</time>
</trkpt>
<trkpt lat="49.3374825" lon="1.3488687">
<ele>80.0</ele>
<time>2026-08-11T12:32:44.365Z</time>
</trkpt>
<trkpt lat="49.3374817" lon="1.3489375">
<ele>80.0</ele>
<time>2026-08-11T12:32:48.594Z</time>
</trkpt>
<trkpt lat="49.3374835" lon="1.3490088">
<ele>80.0</ele>
<time>2026-08-11T12:32:52.954Z</time>
</trkpt>
<trkpt lat="49.3374802" lon="1.3490735">
<ele>80.0</ele>
<time>2026-08-11T12:32:57.255Z</time>
</trkpt>
<trkpt lat="49.3374765" lon="1.3491335">
<ele>80.0</ele>
<time>2026-08-11T12:33:01.654Z</time>
</trkpt>
<trkpt lat="49.3374749" lon="1.3492083">
<ele>80.0</ele>
<time>2026-08-11T12:33:05.935Z</time>
</trkpt>
<trkpt lat="49.3374651" lon="1.3492801">
<ele>80.0</ele>
<time>2026-08-11T12:33:10.255Z</time>
</trkpt>
<trkpt lat="49.3374587" lon="1.3493475">
<ele>81.0</ele>
<time>2026-08-11T12:33:14.516Z</time>
</trkpt>
<trkpt lat="49.3374514" lon="1.3494141">
<ele>81.0</ele>
<time>2026-08-11T12:33:18.935Z</time>
</trkpt>
<trkpt lat="49.3374462" lon="1.349482">
<ele>81.0</ele>
<time>2026-08-11T12:33:23.216Z</time>
</trkpt>
<trkpt lat="49.3374247" lon="1.3495518">
<ele>81.0</ele>
<time>2026-08-11T12:33:27.655Z</time>
</trkpt>
<trkpt lat="49.3374106" lon="1.3496271">
<ele>83.0</ele>
<time>2026-08-11T12:33:31.916Z</time>
</trkpt>
<trkpt lat="49.3373939" lon="1.3497085">
<ele>83.0</ele>
<time>2026-08-11T12:33:36.315Z</time>
</trkpt>
<trkpt lat="49.3373847" lon="1.3497775">
<ele>83.0</ele>
<time>2026-08-11T12:33:40.576Z</time>
</trkpt>
<trkpt lat="49.3373752" lon="1.34985">
<ele>83.0</ele>
<time>2026-08-11T12:33:44.936Z</time>
</trkpt>
<trkpt lat="49.3373501" lon="1.3499209">
<ele>84.0</ele>
<time>2026-08-11T12:33:49.316Z</time>
</trkpt>
<trkpt lat="49.3373353" lon="1.349993">
<ele>84.0</ele>
<time>2026-08-11T12:33:53.815Z</time>
</trkpt>
<trkpt lat="49.3373271" lon="1.3500683">
<ele>84.0</ele>
<time>2026-08-11T12:33:58.075Z</time>
</trkpt>
<trkpt lat="49.3373161" lon="1.3501454">
<ele>86.0</ele>
<time>2026-08-11T12:34:02.360Z</time>
</trkpt>
<trkpt lat="49.3373052" lon="1.350224">
<ele>86.0</ele>
<time>2026-08-11T12:34:06.874Z</time>
</trkpt>
<trkpt lat="49.3372882" lon="1.3502944">
<ele>86.0</ele>
<time>2026-08-11T12:34:11.344Z</time>
</trkpt>
<trkpt lat="49.3372688" lon="1.3503669">
<ele>86.0</ele>
<time>2026-08-11T12:34:15.763Z</time>
</trkpt>
<trkpt lat="49.3372706" lon="1.3504199">
<ele>87.0</ele>
<time>2026-08-11T12:34:20.367Z</time>
</trkpt>
<trkpt lat="49.3372664" lon="1.3504856">
<ele>87.0</ele>
<time>2026-08-11T12:34:24.821Z</time>
</trkpt>
<trkpt lat="49.3372673" lon="1.3505685">
<ele>87.0</ele>
<time>2026-08-11T12:34:29.370Z</time>
</trkpt>
<trkpt lat="49.3372814" lon="1.3506408">
<ele>87.0</ele>
<time>2026-08-11T12:34:33.938Z</time>
</trkpt>
<trkpt lat="49.337301" lon="1.3507113">
<ele>89.0</ele>
<time>2026-08-11T12:34:49.366Z</time>
</trkpt>
<trkpt lat="49.3373037" lon="1.35071">
<ele>89.0</ele>
<time>2026-08-11T12:34:53.370Z</time>
</trkpt>
<trkpt lat="49.337312" lon="1.3507482">
<ele>89.0</ele>
<time>2026-08-11T12:34:57.744Z</time>
</trkpt>
<trkpt lat="49.3373308" lon="1.3508124">
<ele>89.0</ele>
<time>2026-08-11T12:35:02.183Z</time>
</trkpt>
<trkpt lat="49.3373593" lon="1.3508328">
<ele>89.0</ele>
<time>2026-08-11T12:35:06.801Z</time>
</trkpt>
<trkpt lat="49.3374087" lon="1.3508206">
<ele>93.0</ele>
<time>2026-08-11T12:35:11.363Z</time>
</trkpt>
<trkpt lat="49.3374541" lon="1.3508174">
<ele>93.0</ele>
<time>2026-08-11T12:35:16.137Z</time>
</trkpt>
<trkpt lat="49.3374988" lon="1.350833">
<ele>93.0</ele>
<time>2026-08-11T12:35:20.358Z</time>
</trkpt>
<trkpt lat="49.3375404" lon="1.3508597">
<ele>93.0</ele>
<time>2026-08-11T12:35:25.095Z</time>
</trkpt>
<trkpt lat="49.3375732" lon="1.3508784">
<ele>93.0</ele>
<time>2026-08-11T12:35:29.763Z</time>
</trkpt>
<trkpt lat="49.3375956" lon="1.3508986">
<ele>93.0</ele>
<time>2026-08-11T12:35:34.368Z</time>
</trkpt>
<trkpt lat="49.3376123" lon="1.3509543">
<ele>93.0</ele>
<time>2026-08-11T12:35:39.019Z</time>
</trkpt>
<trkpt lat="49.3376481" lon="1.35099">
<ele>94.0</ele>
<time>2026-08-11T12:35:43.061Z</time>
</trkpt>
<trkpt lat="49.3376585" lon="1.3509798">
<ele>94.0</ele>
<time>2026-08-11T12:35:47.183Z</time>
</trkpt>
<trkpt lat="49.3376935" lon="1.3510306">
<ele>94.0</ele>
<time>2026-08-11T12:35:51.364Z</time>
</trkpt>
<trkpt lat="49.3377364" lon="1.3510614">
<ele>94.0</ele>
<time>2026-08-11T12:35:56.022Z</time>
</trkpt>
<trkpt lat="49.3377791" lon="1.3510825">
<ele>94.0</ele>
<time>2026-08-11T12:36:00.363Z</time>
</trkpt>
<trkpt lat="49.3378233" lon="1.3511104">
<ele>94.0</ele>
<time>2026-08-11T12:36:04.901Z</time>
</trkpt>
<trkpt lat="49.337866" lon="1.3511294">
<ele>94.0</ele>
<time>2026-08-11T12:36:09.261Z</time>
</trkpt>
<trkpt lat="49.3379103" lon="1.3511259">
<ele>94.0</ele>
<time>2026-08-11T12:36:13.371Z</time>
</trkpt>
<trkpt lat="49.337956" lon="1.3511133">
<ele>94.0</ele>
<time>2026-08-11T12:36:18.060Z</time>
</trkpt>
<trkpt lat="49.3379966" lon="1.3511133">
<ele>94.0</ele>
<time>2026-08-11T12:36:22.102Z</time>
</trkpt>
<trkpt lat="49.3380211" lon="1.3511287">
<ele>94.0</ele>
<time>2026-08-11T12:36:26.358Z</time>
</trkpt>
<trkpt lat="49.338048" lon="1.3511151">
<ele>94.0</ele>
<time>2026-08-11T12:36:30.922Z</time>
</trkpt>
<trkpt lat="49.3380894" lon="1.3511697">
<ele>94.0</ele>
<time>2026-08-11T12:36:35.367Z</time>
</trkpt>
<trkpt lat="49.3381335" lon="1.3511907">
<ele>94.0</ele>
<time>2026-08-11T12:36:39.761Z</time>
</trkpt>
<trkpt lat="49.3381658" lon="1.3512175">
<ele>94.0</ele>
<time>2026-08-11T12:36:44.319Z</time>
</trkpt>
<trkpt lat="49.3381987" lon="1.3512123">
<ele>97.0</ele>
<time>2026-08-11T12:36:48.580Z</time>
</trkpt>
<trkpt lat="49.3382296" lon="1.3512597">
<ele>101.0</ele>
<time>2026-08-11T12:36:53.059Z</time>
</trkpt>
<trkpt lat="49.3382587" lon="1.3512989">
<ele>101.0</ele>
<time>2026-08-11T12:36:57.365Z</time>
</trkpt>
<trkpt lat="49.338293" lon="1.3513213">
<ele>101.0</ele>
<time>2026-08-11T12:37:01.978Z</time>
</trkpt>
<trkpt lat="49.3383247" lon="1.3513215">
<ele>101.0</ele>
<time>2026-08-11T12:37:06.362Z</time>
</trkpt>
<trkpt lat="49.3383617" lon="1.3513052">
<ele>101.0</ele>
<time>2026-08-11T12:37:10.936Z</time>
</trkpt>
<trkpt lat="49.3383964" lon="1.3513036">
<ele>101.0</ele>
<time>2026-08-11T12:37:15.336Z</time>
</trkpt>
<trkpt lat="49.3384346" lon="1.3512908">
<ele>101.0</ele>
<time>2026-08-11T12:37:19.755Z</time>
</trkpt>
<trkpt lat="49.3384703" lon="1.351297">
<ele>101.0</ele>
<time>2026-08-11T12:37:24.254Z</time>
</trkpt>
<trkpt lat="49.3385139" lon="1.3512934">
<ele>105.0</ele>
<time>2026-08-11T12:37:28.843Z</time>
</trkpt>
<trkpt lat="49.3385573" lon="1.3512836">
<ele>105.0</ele>
<time>2026-08-11T12:37:33.365Z</time>
</trkpt>
<trkpt lat="49.3385968" lon="1.3512735">
<ele>105.0</ele>
<time>2026-08-11T12:37:37.861Z</time>
</trkpt>
<trkpt lat="49.3386345" lon="1.351277">
<ele>105.0</ele>
<time>2026-08-11T12:37:42.357Z</time>
</trkpt>
<trkpt lat="49.3386754" lon="1.3513076">
<ele>105.0</ele>
<time>2026-08-11T12:37:46.978Z</time>
</trkpt>
<trkpt lat="49.3387041" lon="1.3513345">
<ele>105.0</ele>
<time>2026-08-11T12:37:51.367Z</time>
</trkpt>
<trkpt lat="49.3387411" lon="1.3513357">
<ele>105.0</ele>
<time>2026-08-11T12:37:55.916Z</time>
</trkpt>
<trkpt lat="49.3387807" lon="1.351328">
<ele>107.0</ele>
<time>2026-08-11T12:38:00.358Z</time>
</trkpt>
<trkpt lat="49.3388227" lon="1.3513269">
<ele>107.0</ele>
<time>2026-08-11T12:38:05.024Z</time>
</trkpt>
<trkpt lat="49.3388498" lon="1.3513282">
<ele>107.0</ele>
<time>2026-08-11T12:38:09.056Z</time>
</trkpt>
<trkpt lat="49.3388744" lon="1.3513415">
<ele>107.0</ele>
<time>2026-08-11T12:38:13.744Z</time>
</trkpt>
<trkpt lat="49.3388932" lon="1.3513879">
<ele>107.0</ele>
<time>2026-08-11T12:38:18.342Z</time>
</trkpt>
<trkpt lat="49.3389113" lon="1.3514274">
<ele>107.0</ele>
<time>2026-08-11T12:38:22.742Z</time>
</trkpt>
<trkpt lat="49.3389448" lon="1.3514306">
<ele>107.0</ele>
<time>2026-08-11T12:38:27.300Z</time>
</trkpt>
<trkpt lat="49.3389732" lon="1.3514226">
<ele>107.0</ele>
<time>2026-08-11T12:38:31.366Z</time>
</trkpt>
<trkpt lat="49.3390095" lon="1.3514302">
<ele>107.0</ele>
<time>2026-08-11T12:38:36.259Z</time>
</trkpt>
<trkpt lat="49.3390374" lon="1.3514595">
<ele>111.0</ele>
<time>2026-08-11T12:38:40.936Z</time>
</trkpt>
<trkpt lat="49.3390596" lon="1.3515039">
<ele>111.0</ele>
<time>2026-08-11T12:38:45.369Z</time>
</trkpt>
<trkpt lat="49.3390945" lon="1.3515424">
<ele>113.0</ele>
<time>2026-08-11T12:38:50.103Z</time>
</trkpt>
<trkpt lat="49.3391303" lon="1.3515861">
<ele>113.0</ele>
<time>2026-08-11T12:38:54.801Z</time>
</trkpt>
<trkpt lat="49.3391657" lon="1.3516335">
<ele>113.0</ele>
<time>2026-08-11T12:38:59.300Z</time>
</trkpt>
<trkpt lat="49.3391952" lon="1.3516795">
<ele>113.0</ele>
<time>2026-08-11T12:39:03.938Z</time>
</trkpt>
<trkpt lat="49.3392242" lon="1.351716">
<ele>113.0</ele>
<time>2026-08-11T12:39:08.363Z</time>
</trkpt>
<trkpt lat="49.3392558" lon="1.3517432">
<ele>113.0</ele>
<time>2026-08-11T12:39:12.936Z</time>
</trkpt>
<trkpt lat="49.3392853" lon="1.3517634">
<ele>113.0</ele>
<time>2026-08-11T12:39:17.369Z</time>
</trkpt>
<trkpt lat="49.3393126" lon="1.351793">
<ele>116.0</ele>
<time>2026-08-11T12:39:22.262Z</time>
</trkpt>
<trkpt lat="49.3393412" lon="1.351805">
<ele>116.0</ele>
<time>2026-08-11T12:40:57.358Z</time>
</trkpt>
<trkpt lat="49.3393789" lon="1.3518179">
<ele>118.0</ele>
<time>2026-08-11T12:41:01.795Z</time>
</trkpt>
<trkpt lat="49.3394215" lon="1.3518456">
<ele>118.0</ele>
<time>2026-08-11T12:41:05.838Z</time>
</trkpt>
<trkpt lat="49.3394615" lon="1.351868">
<ele>118.0</ele>
<time>2026-08-11T12:41:09.860Z</time>
</trkpt>
<trkpt lat="49.3394957" lon="1.3518701">
<ele>118.0</ele>
<time>2026-08-11T12:41:14.021Z</time>
</trkpt>
<trkpt lat="49.3395351" lon="1.3518809">
<ele>118.0</ele>
<time>2026-08-11T12:41:18.360Z</time>
</trkpt>
<trkpt lat="49.339582" lon="1.3518942">
<ele>118.0</ele>
<time>2026-08-11T12:41:23.337Z</time>
</trkpt>
<trkpt lat="49.3396227" lon="1.3518971">
<ele>121.0</ele>
<time>2026-08-11T12:41:28.035Z</time>
</trkpt>
<trkpt lat="49.3396595" lon="1.3518938">
<ele>121.0</ele>
<time>2026-08-11T12:41:32.354Z</time>
</trkpt>
<trkpt lat="49.3396905" lon="1.3518832">
<ele>121.0</ele>
<time>2026-08-11T12:41:37.363Z</time>
</trkpt>
<trkpt lat="49.3397304" lon="1.3518617">
<ele>121.0</ele>
<time>2026-08-11T12:41:41.978Z</time>
</trkpt>
<trkpt lat="49.3397678" lon="1.3518287">
<ele>121.0</ele>
<time>2026-08-11T12:41:46.365Z</time>
</trkpt>
<trkpt lat="49.3398066" lon="1.3517958">
<ele>121.0</ele>
<time>2026-08-11T12:41:50.937Z</time>
</trkpt>
<trkpt lat="49.339841" lon="1.3517565">
<ele>121.0</ele>
<time>2026-08-11T12:41:55.382Z</time>
</trkpt>
<trkpt lat="49.3398799" lon="1.3517253">
<ele>126.0</ele>
<time>2026-08-11T12:41:59.954Z</time>
</trkpt>
<trkpt lat="49.3399071" lon="1.3516828">
<ele>126.0</ele>
<time>2026-08-11T12:42:04.354Z</time>
</trkpt>
<trkpt lat="49.3399397" lon="1.3516371">
<ele>126.0</ele>
<time>2026-08-11T12:42:08.883Z</time>
</trkpt>
<trkpt lat="49.3400136" lon="1.3517006">
<ele>126.0</ele>
<time>2026-08-11T12:42:57.359Z</time>
</trkpt>
<trkpt lat="49.3399916" lon="1.3517525">
<ele>126.0</ele>
<time>2026-08-11T12:43:01.877Z</time>
</trkpt>
<trkpt lat="49.3399589" lon="1.3517972">
<ele>126.0</ele>
<time>2026-08-11T12:43:06.118Z</time>
</trkpt>
<trkpt lat="49.3399305" lon="1.3518472">
<ele>126.0</ele>
<time>2026-08-11T12:43:10.378Z</time>
</trkpt>
<trkpt lat="49.3399065" lon="1.3518863">
<ele>126.0</ele>
<time>2026-08-11T12:43:14.778Z</time>
</trkpt>
<trkpt lat="49.3398772" lon="1.3519216">
<ele>126.0</ele>
<time>2026-08-11T12:43:19.019Z</time>
</trkpt>
<trkpt lat="49.3398411" lon="1.3519623">
<ele>121.0</ele>
<time>2026-08-11T12:43:23.359Z</time>
</trkpt>
<trkpt lat="49.339816" lon="1.3520147">
<ele>121.0</ele>
<time>2026-08-11T12:43:27.364Z</time>
</trkpt>
<trkpt lat="49.3397886" lon="1.3520464">
<ele>121.0</ele>
<time>2026-08-11T12:43:31.602Z</time>
</trkpt>
<trkpt lat="49.33976" lon="1.3520944">
<ele>124.0</ele>
<time>2026-08-11T12:43:35.763Z</time>
</trkpt>
<trkpt lat="49.3397217" lon="1.3521384">
<ele>124.0</ele>
<time>2026-08-11T12:43:40.355Z</time>
</trkpt>
<trkpt lat="49.3396763" lon="1.3521841">
<ele>124.0</ele>
<time>2026-08-11T12:43:44.920Z</time>
</trkpt>
<trkpt lat="49.3396426" lon="1.3522332">
<ele>124.0</ele>
<time>2026-08-11T12:43:49.220Z</time>
</trkpt>
<trkpt lat="49.3396195" lon="1.3522772">
<ele>124.0</ele>
<time>2026-08-11T12:43:53.369Z</time>
</trkpt>
<trkpt lat="49.3395873" lon="1.3523045">
<ele>124.0</ele>
<time>2026-08-11T12:43:57.682Z</time>
</trkpt>
<trkpt lat="49.3395475" lon="1.352333">
<ele>122.0</ele>
<time>2026-08-11T12:44:01.942Z</time>
</trkpt>
<trkpt lat="49.3395201" lon="1.3523687">
<ele>125.0</ele>
<time>2026-08-11T12:44:06.163Z</time>
</trkpt>
<trkpt lat="49.3394956" lon="1.3524195">
<ele>125.0</ele>
<time>2026-08-11T12:44:10.176Z</time>
</trkpt>
<trkpt lat="49.3394773" lon="1.3524837">
<ele>125.0</ele>
<time>2026-08-11T12:44:14.317Z</time>
</trkpt>
<trkpt lat="49.3394662" lon="1.3525492">
<ele>125.0</ele>
<time>2026-08-11T12:44:18.369Z</time>
</trkpt>
<trkpt lat="49.3394566" lon="1.3526149">
<ele>125.0</ele>
<time>2026-08-11T12:44:22.369Z</time>
</trkpt>
<trkpt lat="49.3394369" lon="1.352695">
<ele>129.0</ele>
<time>2026-08-11T12:44:27.198Z</time>
</trkpt>
<trkpt lat="49.3394039" lon="1.3527401">
<ele>129.0</ele>
<time>2026-08-11T12:44:31.240Z</time>
</trkpt>
<trkpt lat="49.3393613" lon="1.3527689">
<ele>129.0</ele>
<time>2026-08-11T12:44:35.342Z</time>
</trkpt>
<trkpt lat="49.3393105" lon="1.3527884">
<ele>129.0</ele>
<time>2026-08-11T12:44:40.178Z</time>
</trkpt>
<trkpt lat="49.3392735" lon="1.3527942">
<ele>129.0</ele>
<time>2026-08-11T12:44:44.280Z</time>
</trkpt>
<trkpt lat="49.3392396" lon="1.3528067">
<ele>129.0</ele>
<time>2026-08-11T12:44:48.759Z</time>
</trkpt>
<trkpt lat="49.3391984" lon="1.352829">
<ele>129.0</ele>
<time>2026-08-11T12:44:52.821Z</time>
</trkpt>
<trkpt lat="49.3391457" lon="1.3528351">
<ele>129.0</ele>
<time>2026-08-11T12:44:57.359Z</time>
</trkpt>
<trkpt lat="49.339097" lon="1.3528312">
<ele>129.0</ele>
<time>2026-08-11T12:45:01.368Z</time>
</trkpt>
<trkpt lat="49.3390389" lon="1.3528523">
<ele>129.0</ele>
<time>2026-08-11T12:45:05.920Z</time>
</trkpt>
<trkpt lat="49.3389957" lon="1.3529078">
<ele>128.0</ele>
<time>2026-08-11T12:45:10.364Z</time>
</trkpt>
<trkpt lat="49.3389582" lon="1.3529555">
<ele>131.0</ele>
<time>2026-08-11T12:45:14.541Z</time>
</trkpt>
<trkpt lat="49.3389372" lon="1.3530265">
<ele>131.0</ele>
<time>2026-08-11T12:45:18.841Z</time>
</trkpt>
<trkpt lat="49.3389086" lon="1.3530907">
<ele>131.0</ele>
<time>2026-08-11T12:45:23.340Z</time>
</trkpt>
<trkpt lat="49.3388744" lon="1.3531451">
<ele>131.0</ele>
<time>2026-08-11T12:45:27.898Z</time>
</trkpt>
<trkpt lat="49.3388493" lon="1.3531836">
<ele>131.0</ele>
<time>2026-08-11T12:45:32.040Z</time>
</trkpt>
<trkpt lat="49.3388659" lon="1.3531823">
<ele>131.0</ele>
<time>2026-08-11T12:45:41.355Z</time>
</trkpt>
<trkpt lat="49.3388739" lon="1.3531855">
<ele>131.0</ele>
<time>2026-08-11T12:45:46.369Z</time>
</trkpt>
<trkpt lat="49.3388637" lon="1.353219">
<ele>134.0</ele>
<time>2026-08-11T12:45:50.361Z</time>
</trkpt>
<trkpt lat="49.3388389" lon="1.353304">
<ele>134.0</ele>
<time>2026-08-11T12:45:54.664Z</time>
</trkpt>
<trkpt lat="49.3388398" lon="1.3533801">
<ele>134.0</ele>
<time>2026-08-11T12:45:59.222Z</time>
</trkpt>
<trkpt lat="49.3388565" lon="1.3534619">
<ele>134.0</ele>
<time>2026-08-11T12:46:04.039Z</time>
</trkpt>
<trkpt lat="49.3388812" lon="1.3535199">
<ele>136.0</ele>
<time>2026-08-11T12:46:08.121Z</time>
</trkpt>
<trkpt lat="49.3389218" lon="1.3535187">
<ele>136.0</ele>
<time>2026-08-11T12:46:12.356Z</time>
</trkpt>
<trkpt lat="49.3389546" lon="1.3535723">
<ele>136.0</ele>
<time>2026-08-11T12:46:16.940Z</time>
</trkpt>
<trkpt lat="49.3389808" lon="1.3536162">
<ele>136.0</ele>
<time>2026-08-11T12:46:21.365Z</time>
</trkpt>
<trkpt lat="49.3390096" lon="1.3536462">
<ele>136.0</ele>
<time>2026-08-11T12:46:25.641Z</time>
</trkpt>
<trkpt lat="49.3390438" lon="1.3536731">
<ele>138.0</ele>
<time>2026-08-11T12:46:30.140Z</time>
</trkpt>
<trkpt lat="49.3390816" lon="1.3537379">
<ele>138.0</ele>
<time>2026-08-11T12:46:34.857Z</time>
</trkpt>
<trkpt lat="49.3391077" lon="1.3537978">
<ele>138.0</ele>
<time>2026-08-11T12:46:39.363Z</time>
</trkpt>
<trkpt lat="49.3391382" lon="1.3538053">
<ele>138.0</ele>
<time>2026-08-11T12:46:43.362Z</time>
</trkpt>
<trkpt lat="49.3391792" lon="1.3538243">
<ele>138.0</ele>
<time>2026-08-11T12:46:47.898Z</time>
</trkpt>
<trkpt lat="49.3392194" lon="1.3538598">
<ele>138.0</ele>
<time>2026-08-11T12:46:52.258Z</time>
</trkpt>
<trkpt lat="49.3392593" lon="1.353895">
<ele>138.0</ele>
<time>2026-08-11T12:46:56.777Z</time>
</trkpt>
<trkpt lat="49.3392965" lon="1.3539406">
<ele>138.0</ele>
<time>2026-08-11T12:47:01.197Z</time>
</trkpt>
<trkpt lat="49.3393472" lon="1.3539755">
<ele>137.0</ele>
<time>2026-08-11T12:47:05.795Z</time>
</trkpt>
<trkpt lat="49.3393908" lon="1.3540137">
<ele>137.0</ele>
<time>2026-08-11T12:47:10.235Z</time>
</trkpt>
<trkpt lat="49.3394291" lon="1.3540482">
<ele>137.0</ele>
<time>2026-08-11T12:47:14.694Z</time>
</trkpt>
<trkpt lat="49.3394688" lon="1.3540778">
<ele>137.0</ele>
<time>2026-08-11T12:47:18.995Z</time>
</trkpt>
<trkpt lat="49.3395088" lon="1.3540886">
<ele>137.0</ele>
<time>2026-08-11T12:47:23.358Z</time>
</trkpt>
<trkpt lat="49.3395566" lon="1.3541072">
<ele>137.0</ele>
<time>2026-08-11T12:47:27.834Z</time>
</trkpt>
<trkpt lat="49.3396056" lon="1.3541244">
<ele>138.0</ele>
<time>2026-08-11T12:47:32.361Z</time>
</trkpt>
<trkpt lat="49.3396533" lon="1.3541563">
<ele>138.0</ele>
<time>2026-08-11T12:47:36.356Z</time>
</trkpt>
<trkpt lat="49.3397017" lon="1.3542018">
<ele>138.0</ele>
<time>2026-08-11T12:47:41.064Z</time>
</trkpt>
<trkpt lat="49.3397458" lon="1.3542345">
<ele>138.0</ele>
<time>2026-08-11T12:47:45.622Z</time>
</trkpt>
<trkpt lat="49.3397903" lon="1.3542432">
<ele>138.0</ele>
<time>2026-08-11T12:47:50.082Z</time>
</trkpt>
<trkpt lat="49.3398294" lon="1.3542831">
<ele>138.0</ele>
<time>2026-08-11T12:47:54.367Z</time>
</trkpt>
<trkpt lat="49.3398563" lon="1.3543181">
<ele>137.0</ele>
<time>2026-08-11T12:47:58.363Z</time>
</trkpt>
<trkpt lat="49.3398863" lon="1.3543556">
<ele>138.0</ele>
<time>2026-08-11T12:48:02.924Z</time>
</trkpt>
<trkpt lat="49.339915" lon="1.3544104">
<ele>138.0</ele>
<time>2026-08-11T12:48:07.365Z</time>
</trkpt>
<trkpt lat="49.3399501" lon="1.354477">
<ele>138.0</ele>
<time>2026-08-11T12:48:11.962Z</time>
</trkpt>
<trkpt lat="49.339975" lon="1.3545387">
<ele>138.0</ele>
<time>2026-08-11T12:48:15.984Z</time>
</trkpt>
<trkpt lat="49.3399952" lon="1.3545986">
<ele>137.0</ele>
<time>2026-08-11T12:48:19.997Z</time>
</trkpt>
<trkpt lat="49.3400172" lon="1.3546755">
<ele>137.0</ele>
<time>2026-08-11T12:48:24.360Z</time>
</trkpt>
<trkpt lat="49.340033" lon="1.3547588">
<ele>137.0</ele>
<time>2026-08-11T12:48:28.363Z</time>
</trkpt>
<trkpt lat="49.3400527" lon="1.3548227">
<ele>137.0</ele>
<time>2026-08-11T12:48:32.366Z</time>
</trkpt>
<trkpt lat="49.340069" lon="1.3548665">
<ele>136.0</ele>
<time>2026-08-11T12:48:36.861Z</time>
</trkpt>
<trkpt lat="49.3401158" lon="1.3548872">
<ele>136.0</ele>
<time>2026-08-11T12:48:40.903Z</time>
</trkpt>
<trkpt lat="49.3401539" lon="1.3549151">
<ele>137.0</ele>
<time>2026-08-11T12:48:45.365Z</time>
</trkpt>
<trkpt lat="49.3401902" lon="1.3549623">
<ele>137.0</ele>
<time>2026-08-11T12:48:49.802Z</time>
</trkpt>
<trkpt lat="49.3402114" lon="1.3550268">
<ele>137.0</ele>
<time>2026-08-11T12:48:54.301Z</time>
</trkpt>
<trkpt lat="49.3402169" lon="1.3551035">
<ele>137.0</ele>
<time>2026-08-11T12:48:58.721Z</time>
</trkpt>
<trkpt lat="49.3402194" lon="1.3551804">
<ele>137.0</ele>
<time>2026-08-11T12:49:03.002Z</time>
</trkpt>
<trkpt lat="49.340209" lon="1.355275">
<ele>137.0</ele>
<time>2026-08-11T12:49:07.342Z</time>
</trkpt>
<trkpt lat="49.3401965" lon="1.3553443">
<ele>137.0</ele>
<time>2026-08-11T12:49:11.762Z</time>
</trkpt>
<trkpt lat="49.3401865" lon="1.3554148">
<ele>137.0</ele>
<time>2026-08-11T12:49:16.003Z</time>
</trkpt>
<trkpt lat="49.3401659" lon="1.3554852">
<ele>137.0</ele>
<time>2026-08-11T12:49:20.055Z</time>
</trkpt>
<trkpt lat="49.3401429" lon="1.3555557">
<ele>137.0</ele>
<time>2026-08-11T12:49:24.783Z</time>
</trkpt>
<trkpt lat="49.3401416" lon="1.3556185">
<ele>137.0</ele>
<time>2026-08-11T12:49:28.835Z</time>
</trkpt>
<trkpt lat="49.3401468" lon="1.3556938">
<ele>137.0</ele>
<time>2026-08-11T12:49:33.216Z</time>
</trkpt>
<trkpt lat="49.3401554" lon="1.3557744">
<ele>137.0</ele>
<time>2026-08-11T12:49:37.735Z</time>
</trkpt>
<trkpt lat="49.3401541" lon="1.3558566">
<ele>137.0</ele>
<time>2026-08-11T12:49:42.284Z</time>
</trkpt>
<trkpt lat="49.3401619" lon="1.3559264">
<ele>137.0</ele>
<time>2026-08-11T12:49:46.359Z</time>
</trkpt>
<trkpt lat="49.3401972" lon="1.3559642">
<ele>137.0</ele>
<time>2026-08-11T12:49:50.558Z</time>
</trkpt>
<trkpt lat="49.3402274" lon="1.3560209">
<ele>138.0</ele>
<time>2026-08-11T12:49:54.819Z</time>
</trkpt>
<trkpt lat="49.3402587" lon="1.3560614">
<ele>138.0</ele>
<time>2026-08-11T12:49:59.298Z</time>
</trkpt>
<trkpt lat="49.340278" lon="1.356118">
<ele>138.0</ele>
<time>2026-08-11T12:50:03.579Z</time>
</trkpt>
<trkpt lat="49.3403" lon="1.3561975">
<ele>138.0</ele>
<time>2026-08-11T12:50:08.079Z</time>
</trkpt>
<trkpt lat="49.340319" lon="1.3563165">
<ele>139.0</ele>
<time>2026-08-11T12:50:12.358Z</time>
</trkpt>
<trkpt lat="49.3403178" lon="1.3564298">
<ele>139.0</ele>
<time>2026-08-11T12:50:16.859Z</time>
</trkpt>
<trkpt lat="49.3403396" lon="1.3564856">
<ele>139.0</ele>
<time>2026-08-11T12:50:20.842Z</time>
</trkpt>
<trkpt lat="49.3403564" lon="1.3565375">
<ele>140.0</ele>
<time>2026-08-11T12:50:24.984Z</time>
</trkpt>
<trkpt lat="49.3403703" lon="1.356596">
<ele>140.0</ele>
<time>2026-08-11T12:50:29.742Z</time>
</trkpt>
<trkpt lat="49.3404002" lon="1.3566601">
<ele>140.0</ele>
<time>2026-08-11T12:50:34.142Z</time>
</trkpt>
<trkpt lat="49.340432" lon="1.3567067">
<ele>137.0</ele>
<time>2026-08-11T12:50:38.175Z</time>
</trkpt>
<trkpt lat="49.3405219" lon="1.3567443">
<ele>137.0</ele>
<time>2026-08-11T12:52:37.583Z</time>
</trkpt>
<trkpt lat="49.3405418" lon="1.3568264">
<ele>138.0</ele>
<time>2026-08-11T12:52:42.261Z</time>
</trkpt>
<trkpt lat="49.3405646" lon="1.3568831">
<ele>138.0</ele>
<time>2026-08-11T12:52:46.283Z</time>
</trkpt>
<trkpt lat="49.3405835" lon="1.3569453">
<ele>138.0</ele>
<time>2026-08-11T12:52:50.316Z</time>
</trkpt>
<trkpt lat="49.3406047" lon="1.3570062">
<ele>138.0</ele>
<time>2026-08-11T12:52:54.696Z</time>
</trkpt>
<trkpt lat="49.340623" lon="1.3570787">
<ele>138.0</ele>
<time>2026-08-11T12:52:59.126Z</time>
</trkpt>
<trkpt lat="49.3406412" lon="1.3571622">
<ele>139.0</ele>
<time>2026-08-11T12:53:03.575Z</time>
</trkpt>
<trkpt lat="49.3406635" lon="1.3572302">
<ele>139.0</ele>
<time>2026-08-11T12:53:07.995Z</time>
</trkpt>
<trkpt lat="49.3406968" lon="1.3572839">
<ele>138.0</ele>
<time>2026-08-11T12:53:12.371Z</time>
</trkpt>
<trkpt lat="49.3407205" lon="1.3573411">
<ele>138.0</ele>
<time>2026-08-11T12:53:16.895Z</time>
</trkpt>
<trkpt lat="49.340747" lon="1.3573775">
<ele>138.0</ele>
<time>2026-08-11T12:53:21.357Z</time>
</trkpt>
<trkpt lat="49.3407629" lon="1.3574417">
<ele>138.0</ele>
<time>2026-08-11T12:53:26.122Z</time>
</trkpt>
<trkpt lat="49.3407666" lon="1.3575205">
<ele>138.0</ele>
<time>2026-08-11T12:53:30.360Z</time>
</trkpt>
<trkpt lat="49.340809" lon="1.3576003">
<ele>138.0</ele>
<time>2026-08-11T12:53:43.359Z</time>
</trkpt>
<trkpt lat="49.3408162" lon="1.3575769">
<ele>138.0</ele>
<time>2026-08-11T12:53:47.368Z</time>
</trkpt>
<trkpt lat="49.3408234" lon="1.3575685">
<ele>138.0</ele>
<time>2026-08-11T12:53:52.601Z</time>
</trkpt>
<trkpt lat="49.3408282" lon="1.3576394">
<ele>139.0</ele>
<time>2026-08-11T12:53:57.259Z</time>
</trkpt>
<trkpt lat="49.3408412" lon="1.3577045">
<ele>139.0</ele>
<time>2026-08-11T12:54:01.699Z</time>
</trkpt>
<trkpt lat="49.340861" lon="1.3577718">
<ele>139.0</ele>
<time>2026-08-11T12:54:06.119Z</time>
</trkpt>
<trkpt lat="49.3408679" lon="1.3578305">
<ele>139.0</ele>
<time>2026-08-11T12:54:10.353Z</time>
</trkpt>
<trkpt lat="49.3408708" lon="1.3578923">
<ele>139.0</ele>
<time>2026-08-11T12:54:14.939Z</time>
</trkpt>
<trkpt lat="49.3408699" lon="1.3579371">
<ele>139.0</ele>
<time>2026-08-11T12:54:19.061Z</time>
</trkpt>
<trkpt lat="49.3408682" lon="1.3579269">
<ele>139.0</ele>
<time>2026-08-11T12:54:23.357Z</time>
</trkpt>
<trkpt lat="49.3408662" lon="1.3579223">
<ele>139.0</ele>
<time>2026-08-11T12:54:28.278Z</time>
</trkpt>
<trkpt lat="49.3408213" lon="1.3579355">
<ele>139.0</ele>
<time>2026-08-11T12:54:32.777Z</time>
</trkpt>
<trkpt lat="49.3407757" lon="1.3579036">
<ele>139.0</ele>
<time>2026-08-11T12:54:37.038Z</time>
</trkpt>
<trkpt lat="49.3407667" lon="1.3579125">
<ele>139.0</ele>
<time>2026-08-11T12:55:26.014Z</time>
</trkpt>
<trkpt lat="49.3407746" lon="1.357956">
<ele>139.0</ele>
<time>2026-08-11T12:55:30.369Z</time>
</trkpt>
<trkpt lat="49.340796" lon="1.3580266">
<ele>139.0</ele>
<time>2026-08-11T12:55:34.774Z</time>
</trkpt>
<trkpt lat="49.3408012" lon="1.3580941">
<ele>139.0</ele>
<time>2026-08-11T12:55:38.916Z</time>
</trkpt>
<trkpt lat="49.3408028" lon="1.3581587">
<ele>139.0</ele>
<time>2026-08-11T12:55:43.038Z</time>
</trkpt>
<trkpt lat="49.3407994" lon="1.3582205">
<ele>138.0</ele>
<time>2026-08-11T12:55:47.120Z</time>
</trkpt>
<trkpt lat="49.340797" lon="1.3582872">
<ele>138.0</ele>
<time>2026-08-11T12:55:51.322Z</time>
</trkpt>
<trkpt lat="49.3407746" lon="1.35836">
<ele>138.0</ele>
<time>2026-08-11T12:55:55.980Z</time>
</trkpt>
<trkpt lat="49.3407541" lon="1.3584183">
<ele>138.0</ele>
<time>2026-08-11T12:56:00.141Z</time>
</trkpt>
<trkpt lat="49.340721" lon="1.3584794">
<ele>136.0</ele>
<time>2026-08-11T12:56:04.343Z</time>
</trkpt>
<trkpt lat="49.3406591" lon="1.3585277">
<ele>140.0</ele>
<time>2026-08-11T12:56:08.902Z</time>
</trkpt>
<trkpt lat="49.3406321" lon="1.3585887">
<ele>140.0</ele>
<time>2026-08-11T12:56:13.580Z</time>
</trkpt>
<trkpt lat="49.3405826" lon="1.3586374">
<ele>140.0</ele>
<time>2026-08-11T12:56:17.702Z</time>
</trkpt>
<trkpt lat="49.3405457" lon="1.3586847">
<ele>140.0</ele>
<time>2026-08-11T12:56:21.824Z</time>
</trkpt>
<trkpt lat="49.3405249" lon="1.358755">
<ele>137.0</ele>
<time>2026-08-11T12:56:25.936Z</time>
</trkpt>
<trkpt lat="49.3404983" lon="1.3588261">
<ele>137.0</ele>
<time>2026-08-11T12:56:29.938Z</time>
</trkpt>
<trkpt lat="49.3404781" lon="1.3588896">
<ele>137.0</ele>
<time>2026-08-11T12:56:34.199Z</time>
</trkpt>
<trkpt lat="49.3404584" lon="1.3589487">
<ele>137.0</ele>
<time>2026-08-11T12:56:38.361Z</time>
</trkpt>
<trkpt lat="49.3404321" lon="1.3590173">
<ele>137.0</ele>
<time>2026-08-11T12:56:42.662Z</time>
</trkpt>
<trkpt lat="49.3404099" lon="1.3590794">
<ele>136.0</ele>
<time>2026-08-11T12:56:46.724Z</time>
</trkpt>
<trkpt lat="49.3403842" lon="1.3591459">
<ele>136.0</ele>
<time>2026-08-11T12:56:51.034Z</time>
</trkpt>
<trkpt lat="49.340365" lon="1.359202">
<ele>136.0</ele>
<time>2026-08-11T12:56:55.097Z</time>
</trkpt>
<trkpt lat="49.3403506" lon="1.359256">
<ele>136.0</ele>
<time>2026-08-11T12:56:59.362Z</time>
</trkpt>
<trkpt lat="49.3403369" lon="1.359305">
<ele>136.0</ele>
<time>2026-08-11T12:57:03.599Z</time>
</trkpt>
<trkpt lat="49.3403057" lon="1.3593814">
<ele>133.0</ele>
<time>2026-08-11T12:57:07.840Z</time>
</trkpt>
<trkpt lat="49.3402686" lon="1.3594643">
<ele>133.0</ele>
<time>2026-08-11T12:57:11.981Z</time>
</trkpt>
<trkpt lat="49.3402315" lon="1.3595424">
<ele>133.0</ele>
<time>2026-08-11T12:57:16.282Z</time>
</trkpt>
<trkpt lat="49.3401972" lon="1.3596137">
<ele>132.0</ele>
<time>2026-08-11T12:57:20.294Z</time>
</trkpt>
<trkpt lat="49.3401747" lon="1.3596716">
<ele>132.0</ele>
<time>2026-08-11T12:57:24.369Z</time>
</trkpt>
<trkpt lat="49.3401442" lon="1.3597363">
<ele>132.0</ele>
<time>2026-08-11T12:57:28.558Z</time>
</trkpt>
<trkpt lat="49.3401196" lon="1.3597996">
<ele>134.0</ele>
<time>2026-08-11T12:57:32.839Z</time>
</trkpt>
<trkpt lat="49.3400968" lon="1.3598609">
<ele>134.0</ele>
<time>2026-08-11T12:57:36.921Z</time>
</trkpt>
<trkpt lat="49.340077" lon="1.3599326">
<ele>134.0</ele>
<time>2026-08-11T12:57:41.122Z</time>
</trkpt>
<trkpt lat="49.3400471" lon="1.3600167">
<ele>134.0</ele>
<time>2026-08-11T12:57:45.800Z</time>
</trkpt>
<trkpt lat="49.3400134" lon="1.3600803">
<ele>134.0</ele>
<time>2026-08-11T12:57:50.371Z</time>
</trkpt>
<trkpt lat="49.3399831" lon="1.3601278">
<ele>134.0</ele>
<time>2026-08-11T12:57:54.461Z</time>
</trkpt>
<trkpt lat="49.339963" lon="1.3601795">
<ele>133.0</ele>
<time>2026-08-11T12:57:58.582Z</time>
</trkpt>
<trkpt lat="49.3399376" lon="1.3602299">
<ele>133.0</ele>
<time>2026-08-11T12:58:02.615Z</time>
</trkpt>
<trkpt lat="49.3399109" lon="1.3602952">
<ele>133.0</ele>
<time>2026-08-11T12:58:06.816Z</time>
</trkpt>
<trkpt lat="49.3398856" lon="1.3603584">
<ele>133.0</ele>
<time>2026-08-11T12:58:11.360Z</time>
</trkpt>
<trkpt lat="49.339862" lon="1.3604269">
<ele>133.0</ele>
<time>2026-08-11T12:58:15.437Z</time>
</trkpt>
<trkpt lat="49.3398311" lon="1.360507">
<ele>135.0</ele>
<time>2026-08-11T12:58:20.075Z</time>
</trkpt>
<trkpt lat="49.3398056" lon="1.3605799">
<ele>135.0</ele>
<time>2026-08-11T12:58:24.316Z</time>
</trkpt>
<trkpt lat="49.3397874" lon="1.3606367">
<ele>135.0</ele>
<time>2026-08-11T12:58:28.458Z</time>
</trkpt>
<trkpt lat="49.3397686" lon="1.3606991">
<ele>134.0</ele>
<time>2026-08-11T12:58:32.679Z</time>
</trkpt>
<trkpt lat="49.3397492" lon="1.3607615">
<ele>134.0</ele>
<time>2026-08-11T12:58:36.721Z</time>
</trkpt>
<trkpt lat="49.3397222" lon="1.360825">
<ele>134.0</ele>
<time>2026-08-11T12:58:40.863Z</time>
</trkpt>
<trkpt lat="49.3396963" lon="1.3608941">
<ele>134.0</ele>
<time>2026-08-11T12:58:44.975Z</time>
</trkpt>
<trkpt lat="49.3396789" lon="1.3609557">
<ele>134.0</ele>
<time>2026-08-11T12:58:49.116Z</time>
</trkpt>
<trkpt lat="49.3396614" lon="1.3610227">
<ele>134.0</ele>
<time>2026-08-11T12:58:53.179Z</time>
</trkpt>
<trkpt lat="49.3396324" lon="1.3610934">
<ele>134.0</ele>
<time>2026-08-11T12:58:57.356Z</time>
</trkpt>
<trkpt lat="49.3396014" lon="1.3611662">
<ele>134.0</ele>
<time>2026-08-11T12:59:01.661Z</time>
</trkpt>
<trkpt lat="49.3395745" lon="1.3612236">
<ele>135.0</ele>
<time>2026-08-11T12:59:05.901Z</time>
</trkpt>
<trkpt lat="49.3395567" lon="1.3612926">
<ele>134.0</ele>
<time>2026-08-11T12:59:10.354Z</time>
</trkpt>
<trkpt lat="49.3395314" lon="1.3613607">
<ele>134.0</ele>
<time>2026-08-11T12:59:14.701Z</time>
</trkpt>
<trkpt lat="49.3395123" lon="1.3614261">
<ele>134.0</ele>
<time>2026-08-11T12:59:18.922Z</time>
</trkpt>
<trkpt lat="49.3394927" lon="1.3614962">
<ele>134.0</ele>
<time>2026-08-11T12:59:22.955Z</time>
</trkpt>
<trkpt lat="49.3394614" lon="1.3615699">
<ele>134.0</ele>
<time>2026-08-11T12:59:27.176Z</time>
</trkpt>
<trkpt lat="49.3394276" lon="1.3616464">
<ele>134.0</ele>
<time>2026-08-11T12:59:31.238Z</time>
</trkpt>
<trkpt lat="49.3394136" lon="1.3617012">
<ele>134.0</ele>
<time>2026-08-11T12:59:35.361Z</time>
</trkpt>
<trkpt lat="49.3393936" lon="1.3617742">
<ele>134.0</ele>
<time>2026-08-11T12:59:39.581Z</time>
</trkpt>
<trkpt lat="49.3393762" lon="1.3618352">
<ele>134.0</ele>
<time>2026-08-11T12:59:43.782Z</time>
</trkpt>
<trkpt lat="49.3393577" lon="1.3618976">
<ele>134.0</ele>
<time>2026-08-11T12:59:47.844Z</time>
</trkpt>
<trkpt lat="49.3393235" lon="1.3619652">
<ele>134.0</ele>
<time>2026-08-11T12:59:52.075Z</time>
</trkpt>
<trkpt lat="49.3392924" lon="1.3620315">
<ele>136.0</ele>
<time>2026-08-11T12:59:56.157Z</time>
</trkpt>
<trkpt lat="49.3392574" lon="1.3620953">
<ele>135.0</ele>
<time>2026-08-11T13:00:00.357Z</time>
</trkpt>
<trkpt lat="49.3392236" lon="1.3621436">
<ele>135.0</ele>
<time>2026-08-11T13:00:04.560Z</time>
</trkpt>
<trkpt lat="49.3391847" lon="1.3621952">
<ele>135.0</ele>
<time>2026-08-11T13:00:08.820Z</time>
</trkpt>
<trkpt lat="49.3391501" lon="1.3622286">
<ele>135.0</ele>
<time>2026-08-11T13:00:12.982Z</time>
</trkpt>
<trkpt lat="49.3391114" lon="1.3622688">
<ele>135.0</ele>
<time>2026-08-11T13:00:17.302Z</time>
</trkpt>
<trkpt lat="49.3390718" lon="1.3622895">
<ele>135.0</ele>
<time>2026-08-11T13:00:21.702Z</time>
</trkpt>
<trkpt lat="49.3390379" lon="1.3623483">
<ele>135.0</ele>
<time>2026-08-11T13:00:26.003Z</time>
</trkpt>
<trkpt lat="49.3390091" lon="1.3623862">
<ele>136.0</ele>
<time>2026-08-11T13:00:30.349Z</time>
</trkpt>
<trkpt lat="49.3390131" lon="1.3623869">
<ele>136.0</ele>
<time>2026-08-11T13:00:39.360Z</time>
</trkpt>
<trkpt lat="49.3390135" lon="1.3623824">
<ele>136.0</ele>
<time>2026-08-11T13:00:44.357Z</time>
</trkpt>
<trkpt lat="49.3389904" lon="1.3623969">
<ele>136.0</ele>
<time>2026-08-11T13:00:48.358Z</time>
</trkpt>
<trkpt lat="49.3389396" lon="1.3624398">
<ele>136.0</ele>
<time>2026-08-11T13:00:52.839Z</time>
</trkpt>
<trkpt lat="49.3388965" lon="1.3624661">
<ele>136.0</ele>
<time>2026-08-11T13:00:56.981Z</time>
</trkpt>
<trkpt lat="49.338856" lon="1.3624974">
<ele>136.0</ele>
<time>2026-08-11T13:01:00.963Z</time>
</trkpt>
<trkpt lat="49.3388155" lon="1.3625227">
<ele>136.0</ele>
<time>2026-08-11T13:01:05.244Z</time>
</trkpt>
<trkpt lat="49.3387765" lon="1.3625263">
<ele>136.0</ele>
<time>2026-08-11T13:01:09.356Z</time>
</trkpt>
<trkpt lat="49.3387375" lon="1.3625231">
<ele>137.0</ele>
<time>2026-08-11T13:01:13.366Z</time>
</trkpt>
<trkpt lat="49.3386457" lon="1.362587">
<ele>137.0</ele>
<time>2026-08-11T13:01:31.353Z</time>
</trkpt>
<trkpt lat="49.3386403" lon="1.3625974">
<ele>137.0</ele>
<time>2026-08-11T13:01:35.676Z</time>
</trkpt>
<trkpt lat="49.3385926" lon="1.362631">
<ele>137.0</ele>
<time>2026-08-11T13:01:39.758Z</time>
</trkpt>
<trkpt lat="49.3385384" lon="1.3626555">
<ele>137.0</ele>
<time>2026-08-11T13:01:43.840Z</time>
</trkpt>
<trkpt lat="49.3384987" lon="1.362685">
<ele>137.0</ele>
<time>2026-08-11T13:01:47.942Z</time>
</trkpt>
<trkpt lat="49.3384494" lon="1.3626854">
<ele>137.0</ele>
<time>2026-08-11T13:01:52.203Z</time>
</trkpt>
<trkpt lat="49.3384049" lon="1.3627118">
<ele>137.0</ele>
<time>2026-08-11T13:01:56.235Z</time>
</trkpt>
<trkpt lat="49.3383572" lon="1.3627455">
<ele>137.0</ele>
<time>2026-08-11T13:02:00.360Z</time>
</trkpt>
<trkpt lat="49.3383041" lon="1.3627731">
<ele>137.0</ele>
<time>2026-08-11T13:02:05.144Z</time>
</trkpt>
<trkpt lat="49.3382599" lon="1.3628141">
<ele>137.0</ele>
<time>2026-08-11T13:02:09.584Z</time>
</trkpt>
<trkpt lat="49.3382073" lon="1.3628406">
<ele>137.0</ele>
<time>2026-08-11T13:02:14.202Z</time>
</trkpt>
<trkpt lat="49.3381568" lon="1.3628434">
<ele>135.0</ele>
<time>2026-08-11T13:02:18.761Z</time>
</trkpt>
<trkpt lat="49.3380985" lon="1.3628722">
<ele>135.0</ele>
<time>2026-08-11T13:02:23.359Z</time>
</trkpt>
<trkpt lat="49.3380561" lon="1.3629228">
<ele>136.0</ele>
<time>2026-08-11T13:02:27.521Z</time>
</trkpt>
<trkpt lat="49.3380072" lon="1.3629505">
<ele>136.0</ele>
<time>2026-08-11T13:02:31.662Z</time>
</trkpt>
<trkpt lat="49.3379478" lon="1.362952">
<ele>136.0</ele>
<time>2026-08-11T13:02:35.784Z</time>
</trkpt>
<trkpt lat="49.3378948" lon="1.3629628">
<ele>135.0</ele>
<time>2026-08-11T13:02:39.856Z</time>
</trkpt>
<trkpt lat="49.3378529" lon="1.3629898">
<ele>135.0</ele>
<time>2026-08-11T13:02:43.958Z</time>
</trkpt>
<trkpt lat="49.3378077" lon="1.3630161">
<ele>135.0</ele>
<time>2026-08-11T13:02:48.080Z</time>
</trkpt>
<trkpt lat="49.3377563" lon="1.3630254">
<ele>135.0</ele>
<time>2026-08-11T13:02:52.261Z</time>
</trkpt>
<trkpt lat="49.3376922" lon="1.363019">
<ele>135.0</ele>
<time>2026-08-11T13:02:56.362Z</time>
</trkpt>
<trkpt lat="49.3376498" lon="1.3630493">
<ele>135.0</ele>
<time>2026-08-11T13:03:00.524Z</time>
</trkpt>
<trkpt lat="49.3376131" lon="1.3630778">
<ele>133.0</ele>
<time>2026-08-11T13:03:04.775Z</time>
</trkpt>
<trkpt lat="49.3375808" lon="1.3630965">
<ele>133.0</ele>
<time>2026-08-11T13:03:08.877Z</time>
</trkpt>
<trkpt lat="49.3375464" lon="1.3631273">
<ele>133.0</ele>
<time>2026-08-11T13:03:12.939Z</time>
</trkpt>
<trkpt lat="49.3375064" lon="1.363162">
<ele>133.0</ele>
<time>2026-08-11T13:03:17.120Z</time>
</trkpt>
<trkpt lat="49.3374544" lon="1.3631725">
<ele>133.0</ele>
<time>2026-08-11T13:03:21.281Z</time>
</trkpt>
<trkpt lat="49.3374131" lon="1.3631895">
<ele>133.0</ele>
<time>2026-08-11T13:03:25.359Z</time>
</trkpt>
<trkpt lat="49.3373721" lon="1.3632384">
<ele>134.0</ele>
<time>2026-08-11T13:03:29.535Z</time>
</trkpt>
<trkpt lat="49.3373325" lon="1.3632825">
<ele>135.0</ele>
<time>2026-08-11T13:03:33.716Z</time>
</trkpt>
<trkpt lat="49.3372962" lon="1.3633336">
<ele>135.0</ele>
<time>2026-08-11T13:03:37.957Z</time>
</trkpt>
<trkpt lat="49.3372525" lon="1.3633791">
<ele>135.0</ele>
<time>2026-08-11T13:03:42.039Z</time>
</trkpt>
<trkpt lat="49.337206" lon="1.3633962">
<ele>135.0</ele>
<time>2026-08-11T13:03:46.280Z</time>
</trkpt>
<trkpt lat="49.3371606" lon="1.3633986">
<ele>135.0</ele>
<time>2026-08-11T13:03:50.342Z</time>
</trkpt>
<trkpt lat="49.3371119" lon="1.3634003">
<ele>135.0</ele>
<time>2026-08-11T13:03:54.543Z</time>
</trkpt>
<trkpt lat="49.3370642" lon="1.3634276">
<ele>134.0</ele>
<time>2026-08-11T13:03:58.575Z</time>
</trkpt>
<trkpt lat="49.3370024" lon="1.3634577">
<ele>134.0</ele>
<time>2026-08-11T13:04:02.757Z</time>
</trkpt>
<trkpt lat="49.3369496" lon="1.3634854">
<ele>136.0</ele>
<time>2026-08-11T13:04:06.799Z</time>
</trkpt>
<trkpt lat="49.3368986" lon="1.3635029">
<ele>136.0</ele>
<time>2026-08-11T13:04:11Z</time>
</trkpt>
<trkpt lat="49.3368391" lon="1.3635081">
<ele>136.0</ele>
<time>2026-08-11T13:04:15.062Z</time>
</trkpt>
<trkpt lat="49.3367837" lon="1.3635139">
<ele>136.0</ele>
<time>2026-08-11T13:04:19.243Z</time>
</trkpt>
<trkpt lat="49.3367235" lon="1.3635548">
<ele>136.0</ele>
<time>2026-08-11T13:04:23.802Z</time>
</trkpt>
<trkpt lat="49.3366727" lon="1.3635918">
<ele>136.0</ele>
<time>2026-08-11T13:04:27.824Z</time>
</trkpt>
<trkpt lat="49.3366147" lon="1.363621">
<ele>136.0</ele>
<time>2026-08-11T13:04:31.896Z</time>
</trkpt>
<trkpt lat="49.3365648" lon="1.3636365">
<ele>136.0</ele>
<time>2026-08-11T13:04:35.918Z</time>
</trkpt>
<trkpt lat="49.3365125" lon="1.3636468">
<ele>135.0</ele>
<time>2026-08-11T13:04:40.139Z</time>
</trkpt>
<trkpt lat="49.3364649" lon="1.3636606">
<ele>135.0</ele>
<time>2026-08-11T13:04:44.202Z</time>
</trkpt>
<trkpt lat="49.3364195" lon="1.3636804">
<ele>135.0</ele>
<time>2026-08-11T13:04:48.343Z</time>
</trkpt>
<trkpt lat="49.3363632" lon="1.3636875">
<ele>135.0</ele>
<time>2026-08-11T13:04:53.041Z</time>
</trkpt>
<trkpt lat="49.3363116" lon="1.3637117">
<ele>135.0</ele>
<time>2026-08-11T13:04:57.023Z</time>
</trkpt>
<trkpt lat="49.3362517" lon="1.3637539">
<ele>137.0</ele>
<time>2026-08-11T13:05:01.661Z</time>
</trkpt>
<trkpt lat="49.3361931" lon="1.3637898">
<ele>136.0</ele>
<time>2026-08-11T13:05:05.803Z</time>
</trkpt>
<trkpt lat="49.3361392" lon="1.3637849">
<ele>136.0</ele>
<time>2026-08-11T13:05:09.875Z</time>
</trkpt>
<trkpt lat="49.3360897" lon="1.3638035">
<ele>136.0</ele>
<time>2026-08-11T13:05:14.016Z</time>
</trkpt>
<trkpt lat="49.3360475" lon="1.3638382">
<ele>136.0</ele>
<time>2026-08-11T13:05:18.218Z</time>
</trkpt>
<trkpt lat="49.3360161" lon="1.363881">
<ele>136.0</ele>
<time>2026-08-11T13:05:22.349Z</time>
</trkpt>
<trkpt lat="49.3359718" lon="1.363914">
<ele>132.0</ele>
<time>2026-08-11T13:05:26.560Z</time>
</trkpt>
<trkpt lat="49.3359347" lon="1.3639115">
<ele>132.0</ele>
<time>2026-08-11T13:05:30.622Z</time>
</trkpt>
<trkpt lat="49.3358988" lon="1.3639207">
<ele>132.0</ele>
<time>2026-08-11T13:05:34.843Z</time>
</trkpt>
<trkpt lat="49.3358578" lon="1.3639459">
<ele>132.0</ele>
<time>2026-08-11T13:05:39.014Z</time>
</trkpt>
<trkpt lat="49.335817" lon="1.3639611">
<ele>132.0</ele>
<time>2026-08-11T13:05:43.196Z</time>
</trkpt>
<trkpt lat="49.3357702" lon="1.3639785">
<ele>132.0</ele>
<time>2026-08-11T13:05:47.317Z</time>
</trkpt>
<trkpt lat="49.3357262" lon="1.3640079">
<ele>132.0</ele>
<time>2026-08-11T13:05:51.360Z</time>
</trkpt>
<trkpt lat="49.3356876" lon="1.3639865">
<ele>129.0</ele>
<time>2026-08-11T13:05:55.501Z</time>
</trkpt>
<trkpt lat="49.3356344" lon="1.3639894">
<ele>129.0</ele>
<time>2026-08-11T13:05:59.662Z</time>
</trkpt>
<trkpt lat="49.3356167" lon="1.3640308">
<ele>131.0</ele>
<time>2026-08-11T13:06:04.359Z</time>
</trkpt>
<trkpt lat="49.3356067" lon="1.364075">
<ele>131.0</ele>
<time>2026-08-11T13:06:08.839Z</time>
</trkpt>
<trkpt lat="49.3355444" lon="1.3640959">
<ele>131.0</ele>
<time>2026-08-11T13:06:12.921Z</time>
</trkpt>
<trkpt lat="49.3354909" lon="1.3641217">
<ele>131.0</ele>
<time>2026-08-11T13:06:16.963Z</time>
</trkpt>
<trkpt lat="49.3354472" lon="1.364128">
<ele>131.0</ele>
<time>2026-08-11T13:06:20.976Z</time>
</trkpt>
<trkpt lat="49.335415" lon="1.3641995">
<ele>129.0</ele>
<time>2026-08-11T13:06:25.157Z</time>
</trkpt>
<trkpt lat="49.3353933" lon="1.3642807">
<ele>129.0</ele>
<time>2026-08-11T13:06:29.299Z</time>
</trkpt>
<trkpt lat="49.335353" lon="1.3643124">
<ele>131.0</ele>
<time>2026-08-11T13:06:33.361Z</time>
</trkpt>
<trkpt lat="49.3353147" lon="1.3643513">
<ele>131.0</ele>
<time>2026-08-11T13:06:37.562Z</time>
</trkpt>
<trkpt lat="49.3352802" lon="1.3643961">
<ele>131.0</ele>
<time>2026-08-11T13:06:41.822Z</time>
</trkpt>
<trkpt lat="49.3352424" lon="1.3644611">
<ele>131.0</ele>
<time>2026-08-11T13:06:46.341Z</time>
</trkpt>
<trkpt lat="49.3352298" lon="1.3645246">
<ele>131.0</ele>
<time>2026-08-11T13:06:51.238Z</time>
</trkpt>
<trkpt lat="49.3351571" lon="1.3645486">
<ele>131.0</ele>
<time>2026-08-11T13:06:55.368Z</time>
</trkpt>
<trkpt lat="49.3351022" lon="1.3645697">
<ele>128.0</ele>
<time>2026-08-11T13:06:59.521Z</time>
</trkpt>
<trkpt lat="49.3350515" lon="1.3646048">
<ele>130.0</ele>
<time>2026-08-11T13:07:03.583Z</time>
</trkpt>
<trkpt lat="49.3349935" lon="1.3646567">
<ele>130.0</ele>
<time>2026-08-11T13:07:08.261Z</time>
</trkpt>
<trkpt lat="49.334945" lon="1.3646978">
<ele>130.0</ele>
<time>2026-08-11T13:07:12.323Z</time>
</trkpt>
<trkpt lat="49.3348999" lon="1.3647281">
<ele>130.0</ele>
<time>2026-08-11T13:07:16.366Z</time>
</trkpt>
<trkpt lat="49.3348534" lon="1.3647523">
<ele>125.0</ele>
<time>2026-08-11T13:07:20.496Z</time>
</trkpt>
<trkpt lat="49.334816" lon="1.3647907">
<ele>125.0</ele>
<time>2026-08-11T13:07:24.638Z</time>
</trkpt>
<trkpt lat="49.3347826" lon="1.3648362">
<ele>125.0</ele>
<time>2026-08-11T13:07:28.720Z</time>
</trkpt>
<trkpt lat="49.3347427" lon="1.3648828">
<ele>127.0</ele>
<time>2026-08-11T13:07:32.901Z</time>
</trkpt>
<trkpt lat="49.3347005" lon="1.3649333">
<ele>127.0</ele>
<time>2026-08-11T13:07:37.003Z</time>
</trkpt>
<trkpt lat="49.3346474" lon="1.3649799">
<ele>127.0</ele>
<time>2026-08-11T13:07:41.055Z</time>
</trkpt>
<trkpt lat="49.3345961" lon="1.3650244">
<ele>127.0</ele>
<time>2026-08-11T13:07:45.157Z</time>
</trkpt>
<trkpt lat="49.3345439" lon="1.36508">
<ele>121.0</ele>
<time>2026-08-11T13:07:49.238Z</time>
</trkpt>
<trkpt lat="49.3345007" lon="1.3651316">
<ele>121.0</ele>
<time>2026-08-11T13:07:53.320Z</time>
</trkpt>
<trkpt lat="49.3344707" lon="1.3651495">
<ele>122.0</ele>
<time>2026-08-11T13:07:57.347Z</time>
</trkpt>
<trkpt lat="49.3344408" lon="1.3651961">
<ele>122.0</ele>
<time>2026-08-11T13:08:01.350Z</time>
</trkpt>
<trkpt lat="49.3344048" lon="1.3652585">
<ele>122.0</ele>
<time>2026-08-11T13:08:05.636Z</time>
</trkpt>
<trkpt lat="49.334362" lon="1.3653211">
<ele>122.0</ele>
<time>2026-08-11T13:08:09.797Z</time>
</trkpt>
<trkpt lat="49.3343154" lon="1.3653684">
<ele>122.0</ele>
<time>2026-08-11T13:08:13.899Z</time>
</trkpt>
<trkpt lat="49.3342731" lon="1.3654185">
<ele>118.0</ele>
<time>2026-08-11T13:08:17.981Z</time>
</trkpt>
<trkpt lat="49.3342278" lon="1.3654809">
<ele>118.0</ele>
<time>2026-08-11T13:08:22.082Z</time>
</trkpt>
<trkpt lat="49.3341914" lon="1.3655279">
<ele>118.0</ele>
<time>2026-08-11T13:08:26.135Z</time>
</trkpt>
<trkpt lat="49.3341353" lon="1.3655824">
<ele>118.0</ele>
<time>2026-08-11T13:08:30.359Z</time>
</trkpt>
<trkpt lat="49.3340944" lon="1.3656165">
<ele>118.0</ele>
<time>2026-08-11T13:08:34.437Z</time>
</trkpt>
<trkpt lat="49.3340539" lon="1.3656429">
<ele>118.0</ele>
<time>2026-08-11T13:08:38.678Z</time>
</trkpt>
<trkpt lat="49.3340263" lon="1.365682">
<ele>113.0</ele>
<time>2026-08-11T13:08:42.800Z</time>
</trkpt>
<trkpt lat="49.334005" lon="1.3657437">
<ele>115.0</ele>
<time>2026-08-11T13:08:46.902Z</time>
</trkpt>
<trkpt lat="49.3339746" lon="1.3658323">
<ele>115.0</ele>
<time>2026-08-11T13:08:50.924Z</time>
</trkpt>
<trkpt lat="49.3339291" lon="1.3659324">
<ele>115.0</ele>
<time>2026-08-11T13:08:55.355Z</time>
</trkpt>
<trkpt lat="49.3338955" lon="1.3659902">
<ele>118.0</ele>
<time>2026-08-11T13:08:59.495Z</time>
</trkpt>
<trkpt lat="49.3338746" lon="1.3660286">
<ele>118.0</ele>
<time>2026-08-11T13:09:03.636Z</time>
</trkpt>
<trkpt lat="49.3338506" lon="1.3660761">
<ele>118.0</ele>
<time>2026-08-11T13:09:07.778Z</time>
</trkpt>
<trkpt lat="49.3338374" lon="1.366136">
<ele>118.0</ele>
<time>2026-08-11T13:09:11.879Z</time>
</trkpt>
<trkpt lat="49.3338113" lon="1.3662129">
<ele>118.0</ele>
<time>2026-08-11T13:09:16.001Z</time>
</trkpt>
<trkpt lat="49.3337761" lon="1.3662962">
<ele>121.0</ele>
<time>2026-08-11T13:09:20.639Z</time>
</trkpt>
<trkpt lat="49.3337387" lon="1.3663515">
<ele>119.0</ele>
<time>2026-08-11T13:09:25.198Z</time>
</trkpt>
<trkpt lat="49.3336989" lon="1.3663764">
<ele>119.0</ele>
<time>2026-08-11T13:09:29.240Z</time>
</trkpt>
<trkpt lat="49.3336548" lon="1.3663991">
<ele>119.0</ele>
<time>2026-08-11T13:09:33.302Z</time>
</trkpt>
<trkpt lat="49.3336049" lon="1.3664404">
<ele>119.0</ele>
<time>2026-08-11T13:09:37.900Z</time>
</trkpt>
<trkpt lat="49.3335551" lon="1.3664502">
<ele>119.0</ele>
<time>2026-08-11T13:09:41.942Z</time>
</trkpt>
<trkpt lat="49.3335126" lon="1.366426">
<ele>119.0</ele>
<time>2026-08-11T13:09:46.104Z</time>
</trkpt>
<trkpt lat="49.3334752" lon="1.3664399">
<ele>119.0</ele>
<time>2026-08-11T13:09:50.215Z</time>
</trkpt>
<trkpt lat="49.3334312" lon="1.3664624">
<ele>117.0</ele>
<time>2026-08-11T13:09:54.317Z</time>
</trkpt>
<trkpt lat="49.3333854" lon="1.3664698">
<ele>117.0</ele>
<time>2026-08-11T13:09:58.356Z</time>
</trkpt>
<trkpt lat="49.3333387" lon="1.3664643">
<ele>117.0</ele>
<time>2026-08-11T13:10:02.357Z</time>
</trkpt>
<trkpt lat="49.3332823" lon="1.3664454">
<ele>117.0</ele>
<time>2026-08-11T13:10:06.543Z</time>
</trkpt>
<trkpt lat="49.3332268" lon="1.3664463">
<ele>117.0</ele>
<time>2026-08-11T13:10:11.022Z</time>
</trkpt>
<trkpt lat="49.333185" lon="1.3664562">
<ele>115.0</ele>
<time>2026-08-11T13:10:15.104Z</time>
</trkpt>
<trkpt lat="49.3331388" lon="1.3664635">
<ele>115.0</ele>
<time>2026-08-11T13:10:19.136Z</time>
</trkpt>
<trkpt lat="49.333087" lon="1.3664453">
<ele>115.0</ele>
<time>2026-08-11T13:10:23.198Z</time>
</trkpt>
<trkpt lat="49.3330236" lon="1.366411">
<ele>115.0</ele>
<time>2026-08-11T13:10:27.280Z</time>
</trkpt>
<trkpt lat="49.3329768" lon="1.3663841">
<ele>115.0</ele>
<time>2026-08-11T13:10:31.353Z</time>
</trkpt>
<trkpt lat="49.3329245" lon="1.3663843">
<ele>115.0</ele>
<time>2026-08-11T13:10:35.901Z</time>
</trkpt>
<trkpt lat="49.3328896" lon="1.3664221">
<ele>113.0</ele>
<time>2026-08-11T13:10:39.923Z</time>
</trkpt>
<trkpt lat="49.3328394" lon="1.3664847">
<ele>113.0</ele>
<time>2026-08-11T13:10:44.346Z</time>
</trkpt>
<trkpt lat="49.3328223" lon="1.36658">
<ele>113.0</ele>
<time>2026-08-11T13:10:48.355Z</time>
</trkpt>
<trkpt lat="49.332799" lon="1.3666558">
<ele>113.0</ele>
<time>2026-08-11T13:10:52.437Z</time>
</trkpt>
<trkpt lat="49.3327585" lon="1.3667047">
<ele>113.0</ele>
<time>2026-08-11T13:10:56.996Z</time>
</trkpt>
<trkpt lat="49.332708" lon="1.3667347">
<ele>113.0</ele>
<time>2026-08-11T13:11:01.349Z</time>
</trkpt>
<trkpt lat="49.3326663" lon="1.3667769">
<ele>113.0</ele>
<time>2026-08-11T13:11:05.984Z</time>
</trkpt>
<trkpt lat="49.3326226" lon="1.3668167">
<ele>111.0</ele>
<time>2026-08-11T13:11:10.354Z</time>
</trkpt>
<trkpt lat="49.3325848" lon="1.36686">
<ele>111.0</ele>
<time>2026-08-11T13:11:14.362Z</time>
</trkpt>
<trkpt lat="49.3325539" lon="1.3669114">
<ele>111.0</ele>
<time>2026-08-11T13:11:18.478Z</time>
</trkpt>
<trkpt lat="49.3325026" lon="1.3669475">
<ele>111.0</ele>
<time>2026-08-11T13:11:22.957Z</time>
</trkpt>
<trkpt lat="49.3324312" lon="1.3669071">
<ele>111.0</ele>
<time>2026-08-11T13:11:27.353Z</time>
</trkpt>
<trkpt lat="49.3324278" lon="1.3669083">
<ele>111.0</ele>
<time>2026-08-11T13:11:32.303Z</time>
</trkpt>
<trkpt lat="49.332388" lon="1.366902">
<ele>111.0</ele>
<time>2026-08-11T13:11:36.504Z</time>
</trkpt>
<trkpt lat="49.3323301" lon="1.3668775">
<ele>113.0</ele>
<time>2026-08-11T13:11:41.023Z</time>
</trkpt>
<trkpt lat="49.3322933" lon="1.3668441">
<ele>113.0</ele>
<time>2026-08-11T13:11:45.055Z</time>
</trkpt>
<trkpt lat="49.3322737" lon="1.3667765">
<ele>112.0</ele>
<time>2026-08-11T13:11:49.137Z</time>
</trkpt>
<trkpt lat="49.3322469" lon="1.3667095">
<ele>112.0</ele>
<time>2026-08-11T13:11:53.219Z</time>
</trkpt>
<trkpt lat="49.3322607" lon="1.3666226">
<ele>112.0</ele>
<time>2026-08-11T13:11:57.758Z</time>
</trkpt>
<trkpt lat="49.3322666" lon="1.3665598">
<ele>112.0</ele>
<time>2026-08-11T13:12:01.820Z</time>
</trkpt>
<trkpt lat="49.3322649" lon="1.3664896">
<ele>112.0</ele>
<time>2026-08-11T13:12:05.941Z</time>
</trkpt>
<trkpt lat="49.332266" lon="1.3664129">
<ele>112.0</ele>
<time>2026-08-11T13:12:10.357Z</time>
</trkpt>
<trkpt lat="49.3322672" lon="1.3663315">
<ele>112.0</ele>
<time>2026-08-11T13:12:14.463Z</time>
</trkpt>
<trkpt lat="49.3322638" lon="1.3662607">
<ele>112.0</ele>
<time>2026-08-11T13:12:19.101Z</time>
</trkpt>
<trkpt lat="49.3322668" lon="1.3662079">
<ele>111.0</ele>
<time>2026-08-11T13:12:23.679Z</time>
</trkpt>
<trkpt lat="49.3322505" lon="1.3661408">
<ele>111.0</ele>
<time>2026-08-11T13:12:27.821Z</time>
</trkpt>
<trkpt lat="49.3322104" lon="1.3660904">
<ele>111.0</ele>
<time>2026-08-11T13:12:32.022Z</time>
</trkpt>
<trkpt lat="49.3321541" lon="1.3660478">
<ele>111.0</ele>
<time>2026-08-11T13:12:36.243Z</time>
</trkpt>
<trkpt lat="49.3321146" lon="1.3660238">
<ele>111.0</ele>
<time>2026-08-11T13:12:40.350Z</time>
</trkpt>
<trkpt lat="49.3320637" lon="1.3660037">
<ele>112.0</ele>
<time>2026-08-11T13:12:45.002Z</time>
</trkpt>
<trkpt lat="49.3320217" lon="1.3659939">
<ele>112.0</ele>
<time>2026-08-11T13:12:49.144Z</time>
</trkpt>
<trkpt lat="49.3319787" lon="1.3659833">
<ele>112.0</ele>
<time>2026-08-11T13:12:53.275Z</time>
</trkpt>
<trkpt lat="49.3319316" lon="1.36597">
<ele>109.0</ele>
<time>2026-08-11T13:12:57.298Z</time>
</trkpt>
<trkpt lat="49.3318721" lon="1.3659467">
<ele>109.0</ele>
<time>2026-08-11T13:13:01.936Z</time>
</trkpt>
<trkpt lat="49.3318288" lon="1.3659199">
<ele>109.0</ele>
<time>2026-08-11T13:13:06.077Z</time>
</trkpt>
<trkpt lat="49.3317782" lon="1.3658778">
<ele>110.0</ele>
<time>2026-08-11T13:13:10.735Z</time>
</trkpt>
<trkpt lat="49.3317145" lon="1.36585">
<ele>110.0</ele>
<time>2026-08-11T13:13:15.353Z</time>
</trkpt>
<trkpt lat="49.3316571" lon="1.3658129">
<ele>110.0</ele>
<time>2026-08-11T13:13:19.350Z</time>
</trkpt>
<trkpt lat="49.3315915" lon="1.365763">
<ele>110.0</ele>
<time>2026-08-11T13:13:23.874Z</time>
</trkpt>
<trkpt lat="49.3315345" lon="1.3657172">
<ele>110.0</ele>
<time>2026-08-11T13:13:27.917Z</time>
</trkpt>
<trkpt lat="49.3314896" lon="1.3656979">
<ele>111.0</ele>
<time>2026-08-11T13:13:32.351Z</time>
</trkpt>
<trkpt lat="49.3314397" lon="1.3656854">
<ele>107.0</ele>
<time>2026-08-11T13:13:36.597Z</time>
</trkpt>
<trkpt lat="49.3313904" lon="1.3656698">
<ele>107.0</ele>
<time>2026-08-11T13:13:41.215Z</time>
</trkpt>
<trkpt lat="49.3313474" lon="1.3656566">
<ele>107.0</ele>
<time>2026-08-11T13:13:45.317Z</time>
</trkpt>
<trkpt lat="49.3313006" lon="1.365662">
<ele>107.0</ele>
<time>2026-08-11T13:13:49.352Z</time>
</trkpt>
<trkpt lat="49.331252" lon="1.3656548">
<ele>107.0</ele>
<time>2026-08-11T13:13:53.354Z</time>
</trkpt>
<trkpt lat="49.3312052" lon="1.3656377">
<ele>108.0</ele>
<time>2026-08-11T13:13:57.542Z</time>
</trkpt>
<trkpt lat="49.3311497" lon="1.3656213">
<ele>108.0</ele>
<time>2026-08-11T13:14:02.061Z</time>
</trkpt>
<trkpt lat="49.3310906" lon="1.3655883">
<ele>108.0</ele>
<time>2026-08-11T13:14:06.620Z</time>
</trkpt>
<trkpt lat="49.3310365" lon="1.3655404">
<ele>108.0</ele>
<time>2026-08-11T13:14:10.622Z</time>
</trkpt>
<trkpt lat="49.3309831" lon="1.3654858">
<ele>108.0</ele>
<time>2026-08-11T13:14:15.181Z</time>
</trkpt>
<trkpt lat="49.3309392" lon="1.3654518">
<ele>112.0</ele>
<time>2026-08-11T13:14:19.183Z</time>
</trkpt>
<trkpt lat="49.3309032" lon="1.3654184">
<ele>112.0</ele>
<time>2026-08-11T13:14:23.176Z</time>
</trkpt>
<trkpt lat="49.3308574" lon="1.3653518">
<ele>107.0</ele>
<time>2026-08-11T13:14:27.714Z</time>
</trkpt>
<trkpt lat="49.3308106" lon="1.3652955">
<ele>107.0</ele>
<time>2026-08-11T13:14:32.283Z</time>
</trkpt>
<trkpt lat="49.3307576" lon="1.3652333">
<ele>107.0</ele>
<time>2026-08-11T13:14:36.802Z</time>
</trkpt>
<trkpt lat="49.3307167" lon="1.3651825">
<ele>107.0</ele>
<time>2026-08-11T13:14:41.354Z</time>
</trkpt>
<trkpt lat="49.3306961" lon="1.3651324">
<ele>104.0</ele>
<time>2026-08-11T13:14:46.345Z</time>
</trkpt>
<trkpt lat="49.3306562" lon="1.3651068">
<ele>103.0</ele>
<time>2026-08-11T13:14:50.478Z</time>
</trkpt>
<trkpt lat="49.3306155" lon="1.3650791">
<ele>103.0</ele>
<time>2026-08-11T13:14:54.857Z</time>
</trkpt>
<trkpt lat="49.3305776" lon="1.3650502">
<ele>103.0</ele>
<time>2026-08-11T13:14:58.860Z</time>
</trkpt>
<trkpt lat="49.3305472" lon="1.3650104">
<ele>103.0</ele>
<time>2026-08-11T13:15:02.981Z</time>
</trkpt>
<trkpt lat="49.3305157" lon="1.3649674">
<ele>103.0</ele>
<time>2026-08-11T13:15:07.103Z</time>
</trkpt>
<trkpt lat="49.3304824" lon="1.3649082">
<ele>103.0</ele>
<time>2026-08-11T13:15:11.215Z</time>
</trkpt>
<trkpt lat="49.3304532" lon="1.3648464">
<ele>101.0</ele>
<time>2026-08-11T13:15:15.355Z</time>
</trkpt>
<trkpt lat="49.3304322" lon="1.3648217">
<ele>101.0</ele>
<time>2026-08-11T13:15:19.736Z</time>
</trkpt>
<trkpt lat="49.3305215" lon="1.364807">
<ele>101.0</ele>
<time>2026-08-11T13:19:55.345Z</time>
</trkpt>
<trkpt lat="49.3305454" lon="1.3648258">
<ele>101.0</ele>
<time>2026-08-11T13:20:00.346Z</time>
</trkpt>
<trkpt lat="49.3305701" lon="1.3648018">
<ele>101.0</ele>
<time>2026-08-11T13:20:05.351Z</time>
</trkpt>
<trkpt lat="49.3305799" lon="1.3647905">
<ele>101.0</ele>
<time>2026-08-11T13:20:27.347Z</time>
</trkpt>
<trkpt lat="49.3306316" lon="1.364789">
<ele>101.0</ele>
<time>2026-08-11T13:20:31.348Z</time>
</trkpt>
<trkpt lat="49.3306826" lon="1.3648226">
<ele>101.0</ele>
<time>2026-08-11T13:20:36.136Z</time>
</trkpt>
<trkpt lat="49.3307373" lon="1.3648344">
<ele>102.0</ele>
<time>2026-08-11T13:20:40.344Z</time>
</trkpt>
<trkpt lat="49.3307857" lon="1.3648509">
<ele>102.0</ele>
<time>2026-08-11T13:20:44.598Z</time>
</trkpt>
<trkpt lat="49.3308259" lon="1.3648697">
<ele>104.0</ele>
<time>2026-08-11T13:20:48.779Z</time>
</trkpt>
<trkpt lat="49.3308676" lon="1.3648854">
<ele>104.0</ele>
<time>2026-08-11T13:20:52.941Z</time>
</trkpt>
<trkpt lat="49.3308973" lon="1.3649117">
<ele>104.0</ele>
<time>2026-08-11T13:20:56.963Z</time>
</trkpt>
<trkpt lat="49.3309323" lon="1.3649454">
<ele>104.0</ele>
<time>2026-08-11T13:21:01.224Z</time>
</trkpt>
<trkpt lat="49.3309763" lon="1.3649975">
<ele>103.0</ele>
<time>2026-08-11T13:21:05.315Z</time>
</trkpt>
<trkpt lat="49.3310264" lon="1.3650188">
<ele>103.0</ele>
<time>2026-08-11T13:21:09.356Z</time>
</trkpt>
<trkpt lat="49.3310822" lon="1.3650393">
<ele>103.0</ele>
<time>2026-08-11T13:21:13.460Z</time>
</trkpt>
<trkpt lat="49.3311334" lon="1.3650824">
<ele>103.0</ele>
<time>2026-08-11T13:21:17.978Z</time>
</trkpt>
<trkpt lat="49.331191" lon="1.3651096">
<ele>103.0</ele>
<time>2026-08-11T13:21:22.100Z</time>
</trkpt>
<trkpt lat="49.3312546" lon="1.3651038">
<ele>102.0</ele>
<time>2026-08-11T13:21:26.162Z</time>
</trkpt>
<trkpt lat="49.3313091" lon="1.3651024">
<ele>102.0</ele>
<time>2026-08-11T13:21:30.344Z</time>
</trkpt>
<trkpt lat="49.3313626" lon="1.3651177">
<ele>102.0</ele>
<time>2026-08-11T13:21:34.353Z</time>
</trkpt>
<trkpt lat="49.3314028" lon="1.3651309">
<ele>102.0</ele>
<time>2026-08-11T13:21:38.352Z</time>
</trkpt>
<trkpt lat="49.3314524" lon="1.3651505">
<ele>104.0</ele>
<time>2026-08-11T13:21:43.116Z</time>
</trkpt>
<trkpt lat="49.3315057" lon="1.36517">
<ele>104.0</ele>
<time>2026-08-11T13:21:47.784Z</time>
</trkpt>
<trkpt lat="49.3315485" lon="1.36519">
<ele>103.0</ele>
<time>2026-08-11T13:21:51.895Z</time>
</trkpt>
<trkpt lat="49.3315989" lon="1.365212">
<ele>103.0</ele>
<time>2026-08-11T13:21:56.358Z</time>
</trkpt>
<trkpt lat="49.3316483" lon="1.3652428">
<ele>103.0</ele>
<time>2026-08-11T13:22:01.042Z</time>
</trkpt>
<trkpt lat="49.3316845" lon="1.3652377">
<ele>103.0</ele>
<time>2026-08-11T13:22:05.243Z</time>
</trkpt>
<trkpt lat="49.3317328" lon="1.3652668">
<ele>103.0</ele>
<time>2026-08-11T13:22:10.060Z</time>
</trkpt>
<trkpt lat="49.3317823" lon="1.3652664">
<ele>103.0</ele>
<time>2026-08-11T13:22:14.063Z</time>
</trkpt>
<trkpt lat="49.3318348" lon="1.3652232">
<ele>103.0</ele>
<time>2026-08-11T13:22:18.602Z</time>
</trkpt>
<trkpt lat="49.331877" lon="1.3651628">
<ele>103.0</ele>
<time>2026-08-11T13:22:23.220Z</time>
</trkpt>
<trkpt lat="49.3319126" lon="1.3651028">
<ele>101.0</ele>
<time>2026-08-11T13:22:27.858Z</time>
</trkpt>
<trkpt lat="49.3319421" lon="1.3650498">
<ele>101.0</ele>
<time>2026-08-11T13:22:32.354Z</time>
</trkpt>
<trkpt lat="49.3319689" lon="1.3649794">
<ele>101.0</ele>
<time>2026-08-11T13:22:36.678Z</time>
</trkpt>
<trkpt lat="49.3320054" lon="1.3648912">
<ele>101.0</ele>
<time>2026-08-11T13:22:41.196Z</time>
</trkpt>
<trkpt lat="49.3320467" lon="1.3648127">
<ele>100.0</ele>
<time>2026-08-11T13:22:45.835Z</time>
</trkpt>
<trkpt lat="49.3320521" lon="1.364741">
<ele>100.0</ele>
<time>2026-08-11T13:22:50.344Z</time>
</trkpt>
<trkpt lat="49.3321107" lon="1.3646909">
<ele>101.0</ele>
<time>2026-08-11T13:22:54.350Z</time>
</trkpt>
<trkpt lat="49.3321416" lon="1.3646303">
<ele>101.0</ele>
<time>2026-08-11T13:22:58.458Z</time>
</trkpt>
<trkpt lat="49.3321784" lon="1.3645634">
<ele>99.0</ele>
<time>2026-08-11T13:23:03.076Z</time>
</trkpt>
<trkpt lat="49.3322067" lon="1.3645017">
<ele>99.0</ele>
<time>2026-08-11T13:23:07.258Z</time>
</trkpt>
<trkpt lat="49.3322312" lon="1.3644361">
<ele>99.0</ele>
<time>2026-08-11T13:23:11.320Z</time>
</trkpt>
<trkpt lat="49.3322895" lon="1.3643942">
<ele>99.0</ele>
<time>2026-08-11T13:23:15.343Z</time>
</trkpt>
<trkpt lat="49.3323413" lon="1.3643455">
<ele>99.0</ele>
<time>2026-08-11T13:23:19.349Z</time>
</trkpt>
<trkpt lat="49.3323416" lon="1.3642873">
<ele>98.0</ele>
<time>2026-08-11T13:23:24.343Z</time>
</trkpt>
<trkpt lat="49.3323072" lon="1.364249">
<ele>98.0</ele>
<time>2026-08-11T13:23:28.348Z</time>
</trkpt>
<trkpt lat="49.3322438" lon="1.3641857">
<ele>98.0</ele>
<time>2026-08-11T13:23:32.564Z</time>
</trkpt>
<trkpt lat="49.3321863" lon="1.3641405">
<ele>98.0</ele>
<time>2026-08-11T13:23:36.536Z</time>
</trkpt>
<trkpt lat="49.3321378" lon="1.3640929">
<ele>98.0</ele>
<time>2026-08-11T13:23:40.857Z</time>
</trkpt>
<trkpt lat="49.332102" lon="1.3640323">
<ele>98.0</ele>
<time>2026-08-11T13:23:45.038Z</time>
</trkpt>
<trkpt lat="49.3320646" lon="1.3639831">
<ele>101.0</ele>
<time>2026-08-11T13:23:49.080Z</time>
</trkpt>
<trkpt lat="49.3320296" lon="1.3639343">
<ele>101.0</ele>
<time>2026-08-11T13:23:53.261Z</time>
</trkpt>
<trkpt lat="49.3319917" lon="1.3638759">
<ele>101.0</ele>
<time>2026-08-11T13:23:57.353Z</time>
</trkpt>
<trkpt lat="49.3319502" lon="1.3638155">
<ele>101.0</ele>
<time>2026-08-11T13:24:02.200Z</time>
</trkpt>
<trkpt lat="49.3319137" lon="1.3637687">
<ele>101.0</ele>
<time>2026-08-11T13:24:06.322Z</time>
</trkpt>
<trkpt lat="49.3318744" lon="1.3637018">
<ele>102.0</ele>
<time>2026-08-11T13:24:10.350Z</time>
</trkpt>
<trkpt lat="49.3318269" lon="1.3636357">
<ele>102.0</ele>
<time>2026-08-11T13:24:15.121Z</time>
</trkpt>
<trkpt lat="49.3317911" lon="1.3636038">
<ele>107.0</ele>
<time>2026-08-11T13:24:19.183Z</time>
</trkpt>
<trkpt lat="49.3317524" lon="1.3635744">
<ele>107.0</ele>
<time>2026-08-11T13:24:23.215Z</time>
</trkpt>
<trkpt lat="49.3317148" lon="1.3635492">
<ele>107.0</ele>
<time>2026-08-11T13:24:27.714Z</time>
</trkpt>
<trkpt lat="49.3316763" lon="1.3635285">
<ele>107.0</ele>
<time>2026-08-11T13:24:32.346Z</time>
</trkpt>
<trkpt lat="49.3316331" lon="1.3634897">
<ele>107.0</ele>
<time>2026-08-11T13:24:36.861Z</time>
</trkpt>
<trkpt lat="49.3315921" lon="1.363456">
<ele>107.0</ele>
<time>2026-08-11T13:24:40.983Z</time>
</trkpt>
<trkpt lat="49.3315686" lon="1.3634073">
<ele>107.0</ele>
<time>2026-08-11T13:24:45.357Z</time>
</trkpt>
<trkpt lat="49.3315538" lon="1.3633556">
<ele>107.0</ele>
<time>2026-08-11T13:24:50.060Z</time>
</trkpt>
<trkpt lat="49.3314982" lon="1.3633272">
<ele>109.0</ele>
<time>2026-08-11T13:24:54.344Z</time>
</trkpt>
<trkpt lat="49.3314439" lon="1.3633564">
<ele>109.0</ele>
<time>2026-08-11T13:24:58.721Z</time>
</trkpt>
<trkpt lat="49.3313933" lon="1.3633064">
<ele>109.0</ele>
<time>2026-08-11T13:25:03.299Z</time>
</trkpt>
<trkpt lat="49.3313457" lon="1.3632842">
<ele>109.0</ele>
<time>2026-08-11T13:25:07.679Z</time>
</trkpt>
<trkpt lat="49.331304" lon="1.3632435">
<ele>109.0</ele>
<time>2026-08-11T13:25:12.198Z</time>
</trkpt>
<trkpt lat="49.3312737" lon="1.3631879">
<ele>107.0</ele>
<time>2026-08-11T13:25:16.618Z</time>
</trkpt>
<trkpt lat="49.3312337" lon="1.3631255">
<ele>108.0</ele>
<time>2026-08-11T13:25:21.275Z</time>
</trkpt>
<trkpt lat="49.3311934" lon="1.3630751">
<ele>108.0</ele>
<time>2026-08-11T13:25:25.864Z</time>
</trkpt>
<trkpt lat="49.3311428" lon="1.3630422">
<ele>108.0</ele>
<time>2026-08-11T13:25:30.323Z</time>
</trkpt>
<trkpt lat="49.3310959" lon="1.3630021">
<ele>108.0</ele>
<time>2026-08-11T13:25:34.922Z</time>
</trkpt>
<trkpt lat="49.3310541" lon="1.3629603">
<ele>108.0</ele>
<time>2026-08-11T13:25:38.924Z</time>
</trkpt>
<trkpt lat="49.3310187" lon="1.3628985">
<ele>108.0</ele>
<time>2026-08-11T13:25:42.956Z</time>
</trkpt>
<trkpt lat="49.3310205" lon="1.3628579">
<ele>108.0</ele>
<time>2026-08-11T13:25:47.343Z</time>
</trkpt>
<trkpt lat="49.3310213" lon="1.3628601">
<ele>108.0</ele>
<time>2026-08-11T13:25:51.597Z</time>
</trkpt>
<trkpt lat="49.3309876" lon="1.3628185">
<ele>108.0</ele>
<time>2026-08-11T13:25:56.175Z</time>
</trkpt>
<trkpt lat="49.3309709" lon="1.3627654">
<ele>112.0</ele>
<time>2026-08-11T13:26:00.674Z</time>
</trkpt>
<trkpt lat="49.3309499" lon="1.3627229">
<ele>112.0</ele>
<time>2026-08-11T13:26:04.716Z</time>
</trkpt>
<trkpt lat="49.3309044" lon="1.3626807">
<ele>112.0</ele>
<time>2026-08-11T13:26:09.351Z</time>
</trkpt>
<trkpt lat="49.33087" lon="1.3627004">
<ele>112.0</ele>
<time>2026-08-11T13:26:13.734Z</time>
</trkpt>
<trkpt lat="49.3308192" lon="1.3626423">
<ele>112.0</ele>
<time>2026-08-11T13:26:18.223Z</time>
</trkpt>
<trkpt lat="49.3307825" lon="1.3625646">
<ele>112.0</ele>
<time>2026-08-11T13:26:22.782Z</time>
</trkpt>
<trkpt lat="49.3307601" lon="1.3625051">
<ele>112.0</ele>
<time>2026-08-11T13:26:26.844Z</time>
</trkpt>
<trkpt lat="49.3307459" lon="1.3624534">
<ele>112.0</ele>
<time>2026-08-11T13:26:30.916Z</time>
</trkpt>
<trkpt lat="49.3307257" lon="1.3624069">
<ele>112.0</ele>
<time>2026-08-11T13:26:34.899Z</time>
</trkpt>
<trkpt lat="49.3307017" lon="1.3623379">
<ele>113.0</ele>
<time>2026-08-11T13:26:39.715Z</time>
</trkpt>
<trkpt lat="49.3306755" lon="1.3622872">
<ele>115.0</ele>
<time>2026-08-11T13:26:43.758Z</time>
</trkpt>
<trkpt lat="49.33066" lon="1.3622538">
<ele>115.0</ele>
<time>2026-08-11T13:26:47.780Z</time>
</trkpt>
<trkpt lat="49.3306342" lon="1.3622018">
<ele>115.0</ele>
<time>2026-08-11T13:26:51.961Z</time>
</trkpt>
<trkpt lat="49.3305973" lon="1.3621565">
<ele>115.0</ele>
<time>2026-08-11T13:26:56.102Z</time>
</trkpt>
<trkpt lat="49.3305798" lon="1.3621199">
<ele>115.0</ele>
<time>2026-08-11T13:27:00.346Z</time>
</trkpt>
<trkpt lat="49.3305527" lon="1.3620755">
<ele>117.0</ele>
<time>2026-08-11T13:27:04.842Z</time>
</trkpt>
<trkpt lat="49.3305333" lon="1.3620179">
<ele>117.0</ele>
<time>2026-08-11T13:27:09.043Z</time>
</trkpt>
<trkpt lat="49.3305165" lon="1.361969">
<ele>117.0</ele>
<time>2026-08-11T13:27:13.352Z</time>
</trkpt>
<trkpt lat="49.3305054" lon="1.3619247">
<ele>117.0</ele>
<time>2026-08-11T13:27:17.359Z</time>
</trkpt>
<trkpt lat="49.3305001" lon="1.3618689">
<ele>117.0</ele>
<time>2026-08-11T13:27:21.835Z</time>
</trkpt>
<trkpt lat="49.3305054" lon="1.3618129">
<ele>117.0</ele>
<time>2026-08-11T13:27:26.175Z</time>
</trkpt>
<trkpt lat="49.3305151" lon="1.3617579">
<ele>120.0</ele>
<time>2026-08-11T13:27:30.277Z</time>
</trkpt>
<trkpt lat="49.3305235" lon="1.361688">
<ele>120.0</ele>
<time>2026-08-11T13:27:34.346Z</time>
</trkpt>
<trkpt lat="49.3305116" lon="1.3616191">
<ele>120.0</ele>
<time>2026-08-11T13:27:38.699Z</time>
</trkpt>
<trkpt lat="49.3304775" lon="1.3615475">
<ele>120.0</ele>
<time>2026-08-11T13:27:42.999Z</time>
</trkpt>
<trkpt lat="49.3304571" lon="1.3614901">
<ele>123.0</ele>
<time>2026-08-11T13:27:47.349Z</time>
</trkpt>
<trkpt lat="49.3304319" lon="1.3613861">
<ele>123.0</ele>
<time>2026-08-11T13:30:09.351Z</time>
</trkpt>
<trkpt lat="49.3304312" lon="1.3613857">
<ele>123.0</ele>
<time>2026-08-11T13:30:20.347Z</time>
</trkpt>
<trkpt lat="49.3304309" lon="1.3613807">
<ele>123.0</ele>
<time>2026-08-11T13:30:30.349Z</time>
</trkpt>
<trkpt lat="49.3304513" lon="1.3613519">
<ele>123.0</ele>
<time>2026-08-11T13:30:34.351Z</time>
</trkpt>
<trkpt lat="49.3304868" lon="1.3612994">
<ele>123.0</ele>
<time>2026-08-11T13:30:39.343Z</time>
</trkpt>
<trkpt lat="49.3305209" lon="1.3612346">
<ele>127.0</ele>
<time>2026-08-11T13:30:44.352Z</time>
</trkpt>
<trkpt lat="49.3305451" lon="1.361175">
<ele>127.0</ele>
<time>2026-08-11T13:30:49.350Z</time>
</trkpt>
<trkpt lat="49.3305591" lon="1.3611317">
<ele>127.0</ele>
<time>2026-08-11T13:30:53.354Z</time>
</trkpt>
<trkpt lat="49.3305842" lon="1.3610684">
<ele>127.0</ele>
<time>2026-08-11T13:30:57.347Z</time>
</trkpt>
<trkpt lat="49.3306337" lon="1.3610261">
<ele>127.0</ele>
<time>2026-08-11T13:31:02.354Z</time>
</trkpt>
<trkpt lat="49.3306637" lon="1.3609707">
<ele>131.0</ele>
<time>2026-08-11T13:31:07.350Z</time>
</trkpt>
<trkpt lat="49.3306977" lon="1.3609186">
<ele>130.0</ele>
<time>2026-08-11T13:31:11.601Z</time>
</trkpt>
<trkpt lat="49.3307181" lon="1.3608839">
<ele>130.0</ele>
<time>2026-08-11T13:31:15.743Z</time>
</trkpt>
<trkpt lat="49.3307415" lon="1.3608376">
<ele>130.0</ele>
<time>2026-08-11T13:31:19.795Z</time>
</trkpt>
<trkpt lat="49.3307799" lon="1.3607713">
<ele>130.0</ele>
<time>2026-08-11T13:31:24.346Z</time>
</trkpt>
<trkpt lat="49.330824" lon="1.3607071">
<ele>130.0</ele>
<time>2026-08-11T13:31:28.347Z</time>
</trkpt>
<trkpt lat="49.33087" lon="1.3606372">
<ele>132.0</ele>
<time>2026-08-11T13:31:33.024Z</time>
</trkpt>
<trkpt lat="49.3309084" lon="1.3605809">
<ele>132.0</ele>
<time>2026-08-11T13:31:37.344Z</time>
</trkpt>
<trkpt lat="49.3309432" lon="1.3605298">
<ele>132.0</ele>
<time>2026-08-11T13:31:41.344Z</time>
</trkpt>
<trkpt lat="49.3309648" lon="1.3604709">
<ele>132.0</ele>
<time>2026-08-11T13:31:45.855Z</time>
</trkpt>
<trkpt lat="49.3309798" lon="1.3604087">
<ele>129.0</ele>
<time>2026-08-11T13:31:50.352Z</time>
</trkpt>
<trkpt lat="49.3309959" lon="1.3603341">
<ele>129.0</ele>
<time>2026-08-11T13:31:54.922Z</time>
</trkpt>
<trkpt lat="49.3309884" lon="1.3602441">
<ele>129.0</ele>
<time>2026-08-11T13:31:59.344Z</time>
</trkpt>
<trkpt lat="49.3310022" lon="1.3601655">
<ele>129.0</ele>
<time>2026-08-11T13:32:03.742Z</time>
</trkpt>
<trkpt lat="49.3310286" lon="1.3600831">
<ele>130.0</ele>
<time>2026-08-11T13:32:08.260Z</time>
</trkpt>
<trkpt lat="49.3310728" lon="1.3600411">
<ele>130.0</ele>
<time>2026-08-11T13:32:12.700Z</time>
</trkpt>
<trkpt lat="49.3311265" lon="1.3599986">
<ele>130.0</ele>
<time>2026-08-11T13:32:17.119Z</time>
</trkpt>
<trkpt lat="49.3311651" lon="1.3599421">
<ele>130.0</ele>
<time>2026-08-11T13:32:21.349Z</time>
</trkpt>
<trkpt lat="49.3312072" lon="1.3598782">
<ele>130.0</ele>
<time>2026-08-11T13:32:25.760Z</time>
</trkpt>
<trkpt lat="49.3312285" lon="1.3597988">
<ele>130.0</ele>
<time>2026-08-11T13:32:30.344Z</time>
</trkpt>
<trkpt lat="49.3312092" lon="1.3597377">
<ele>130.0</ele>
<time>2026-08-11T13:32:34.346Z</time>
</trkpt>
<trkpt lat="49.3311535" lon="1.3596596">
<ele>130.0</ele>
<time>2026-08-11T13:32:38.879Z</time>
</trkpt>
<trkpt lat="49.3310821" lon="1.359604">
<ele>130.0</ele>
<time>2026-08-11T13:32:43.342Z</time>
</trkpt>
<trkpt lat="49.3310222" lon="1.3595563">
<ele>130.0</ele>
<time>2026-08-11T13:32:47.797Z</time>
</trkpt>
<trkpt lat="49.3309751" lon="1.3594876">
<ele>130.0</ele>
<time>2026-08-11T13:32:52.217Z</time>
</trkpt>
<trkpt lat="49.3309288" lon="1.3594283">
<ele>133.0</ele>
<time>2026-08-11T13:32:56.696Z</time>
</trkpt>
<trkpt lat="49.3308801" lon="1.3593857">
<ele>133.0</ele>
<time>2026-08-11T13:33:01.056Z</time>
</trkpt>
<trkpt lat="49.3308245" lon="1.3593566">
<ele>133.0</ele>
<time>2026-08-11T13:33:05.684Z</time>
</trkpt>
<trkpt lat="49.3307761" lon="1.3593183">
<ele>133.0</ele>
<time>2026-08-11T13:33:09.974Z</time>
</trkpt>
<trkpt lat="49.3307277" lon="1.3592795">
<ele>134.0</ele>
<time>2026-08-11T13:33:14.563Z</time>
</trkpt>
<trkpt lat="49.3306836" lon="1.3592355">
<ele>137.0</ele>
<time>2026-08-11T13:33:19.042Z</time>
</trkpt>
<trkpt lat="49.3306385" lon="1.3591779">
<ele>137.0</ele>
<time>2026-08-11T13:33:23.739Z</time>
</trkpt>
<trkpt lat="49.3305981" lon="1.3591225">
<ele>137.0</ele>
<time>2026-08-11T13:33:28.179Z</time>
</trkpt>
<trkpt lat="49.3305598" lon="1.3590457">
<ele>137.0</ele>
<time>2026-08-11T13:33:32.658Z</time>
</trkpt>
<trkpt lat="49.330516" lon="1.3589721">
<ele>138.0</ele>
<time>2026-08-11T13:33:37.176Z</time>
</trkpt>
<trkpt lat="49.3304656" lon="1.3589024">
<ele>138.0</ele>
<time>2026-08-11T13:33:41.636Z</time>
</trkpt>
<trkpt lat="49.3304253" lon="1.3588413">
<ele>138.0</ele>
<time>2026-08-11T13:33:46.115Z</time>
</trkpt>
<trkpt lat="49.3303908" lon="1.3587899">
<ele>140.0</ele>
<time>2026-08-11T13:33:50.137Z</time>
</trkpt>
<trkpt lat="49.3303375" lon="1.3587675">
<ele>140.0</ele>
<time>2026-08-11T13:33:54.353Z</time>
</trkpt>
<trkpt lat="49.330288" lon="1.3587362">
<ele>140.0</ele>
<time>2026-08-11T13:33:58.358Z</time>
</trkpt>
<trkpt lat="49.3302532" lon="1.3586969">
<ele>140.0</ele>
<time>2026-08-11T13:34:02.939Z</time>
</trkpt>
<trkpt lat="49.3302184" lon="1.3586643">
<ele>140.0</ele>
<time>2026-08-11T13:34:07.010Z</time>
</trkpt>
<trkpt lat="49.3301846" lon="1.3586464">
<ele>140.0</ele>
<time>2026-08-11T13:34:11.142Z</time>
</trkpt>
<trkpt lat="49.3301457" lon="1.3586213">
<ele>140.0</ele>
<time>2026-08-11T13:34:15.482Z</time>
</trkpt>
<trkpt lat="49.3301022" lon="1.3586067">
<ele>140.0</ele>
<time>2026-08-11T13:34:20.001Z</time>
</trkpt>
<trkpt lat="49.3300561" lon="1.3585979">
<ele>140.0</ele>
<time>2026-08-11T13:34:24.352Z</time>
</trkpt>
<trkpt lat="49.3300092" lon="1.3585725">
<ele>140.0</ele>
<time>2026-08-11T13:34:28.959Z</time>
</trkpt>
<trkpt lat="49.3299625" lon="1.358548">
<ele>140.0</ele>
<time>2026-08-11T13:34:33.279Z</time>
</trkpt>
<trkpt lat="49.329918" lon="1.3585085">
<ele>140.0</ele>
<time>2026-08-11T13:34:37.699Z</time>
</trkpt>
<trkpt lat="49.3298807" lon="1.3584759">
<ele>140.0</ele>
<time>2026-08-11T13:34:41.959Z</time>
</trkpt>
<trkpt lat="49.329843" lon="1.3584147">
<ele>140.0</ele>
<time>2026-08-11T13:34:46.342Z</time>
</trkpt>
<trkpt lat="49.3298073" lon="1.3583459">
<ele>140.0</ele>
<time>2026-08-11T13:34:50.818Z</time>
</trkpt>
<trkpt lat="49.3297646" lon="1.3582891">
<ele>140.0</ele>
<time>2026-08-11T13:34:55.297Z</time>
</trkpt>
<trkpt lat="49.3297177" lon="1.3582315">
<ele>140.0</ele>
<time>2026-08-11T13:34:59.697Z</time>
</trkpt>
<trkpt lat="49.3296754" lon="1.3581785">
<ele>140.0</ele>
<time>2026-08-11T13:35:04.136Z</time>
</trkpt>
<trkpt lat="49.3296377" lon="1.3581217">
<ele>140.0</ele>
<time>2026-08-11T13:35:08.556Z</time>
</trkpt>
<trkpt lat="49.3295938" lon="1.3580761">
<ele>140.0</ele>
<time>2026-08-11T13:35:13.144Z</time>
</trkpt>
<trkpt lat="49.3295575" lon="1.3580489">
<ele>140.0</ele>
<time>2026-08-11T13:35:17.341Z</time>
</trkpt>
<trkpt lat="49.3295175" lon="1.3580137">
<ele>140.0</ele>
<time>2026-08-11T13:35:22.003Z</time>
</trkpt>
<trkpt lat="49.3294844" lon="1.357969">
<ele>140.0</ele>
<time>2026-08-11T13:35:26.601Z</time>
</trkpt>
<trkpt lat="49.3294377" lon="1.3579396">
<ele>140.0</ele>
<time>2026-08-11T13:35:30.961Z</time>
</trkpt>
<trkpt lat="49.3293964" lon="1.3578962">
<ele>139.0</ele>
<time>2026-08-11T13:35:35.343Z</time>
</trkpt>
<trkpt lat="49.3293501" lon="1.3578613">
<ele>139.0</ele>
<time>2026-08-11T13:35:39.880Z</time>
</trkpt>
<trkpt lat="49.3293087" lon="1.3578233">
<ele>139.0</ele>
<time>2026-08-11T13:35:44.299Z</time>
</trkpt>
<trkpt lat="49.3292729" lon="1.3577439">
<ele>138.0</ele>
<time>2026-08-11T13:35:48.897Z</time>
</trkpt>
<trkpt lat="49.3292455" lon="1.3576743">
<ele>138.0</ele>
<time>2026-08-11T13:35:53.337Z</time>
</trkpt>
<trkpt lat="49.3292191" lon="1.3576075">
<ele>137.0</ele>
<time>2026-08-11T13:35:57.915Z</time>
</trkpt>
<trkpt lat="49.3292236" lon="1.3575469">
<ele>137.0</ele>
<time>2026-08-11T13:36:02.176Z</time>
</trkpt>
<trkpt lat="49.3292629" lon="1.3574785">
<ele>137.0</ele>
<time>2026-08-11T13:36:06.546Z</time>
</trkpt>
<trkpt lat="49.329296" lon="1.3574176">
<ele>137.0</ele>
<time>2026-08-11T13:36:11.094Z</time>
</trkpt>
<trkpt lat="49.3293292" lon="1.3573707">
<ele>139.0</ele>
<time>2026-08-11T13:36:15.345Z</time>
</trkpt>
<trkpt lat="49.329365" lon="1.3573287">
<ele>138.0</ele>
<time>2026-08-11T13:36:19.844Z</time>
</trkpt>
<trkpt lat="49.3294004" lon="1.3572999">
<ele>138.0</ele>
<time>2026-08-11T13:36:24.075Z</time>
</trkpt>
<trkpt lat="49.329434" lon="1.35726">
<ele>138.0</ele>
<time>2026-08-11T13:36:28.216Z</time>
</trkpt>
<trkpt lat="49.3294798" lon="1.3572051">
<ele>138.0</ele>
<time>2026-08-11T13:36:32.715Z</time>
</trkpt>
<trkpt lat="49.3295266" lon="1.3571563">
<ele>138.0</ele>
<time>2026-08-11T13:36:36.897Z</time>
</trkpt>
<trkpt lat="49.3295699" lon="1.3570951">
<ele>138.0</ele>
<time>2026-08-11T13:36:41.349Z</time>
</trkpt>
<trkpt lat="49.3296046" lon="1.3570216">
<ele>138.0</ele>
<time>2026-08-11T13:36:45.577Z</time>
</trkpt>
<trkpt lat="49.3296402" lon="1.3569532">
<ele>138.0</ele>
<time>2026-08-11T13:36:49.976Z</time>
</trkpt>
<trkpt lat="49.3296629" lon="1.3568943">
<ele>138.0</ele>
<time>2026-08-11T13:36:54.138Z</time>
</trkpt>
<trkpt lat="49.3296993" lon="1.3568414">
<ele>138.0</ele>
<time>2026-08-11T13:36:58.517Z</time>
</trkpt>
<trkpt lat="49.329728" lon="1.3567805">
<ele>137.0</ele>
<time>2026-08-11T13:37:02.937Z</time>
</trkpt>
<trkpt lat="49.3297389" lon="1.3567244">
<ele>137.0</ele>
<time>2026-08-11T13:37:07.346Z</time>
</trkpt>
<trkpt lat="49.3297482" lon="1.356659">
<ele>137.0</ele>
<time>2026-08-11T13:37:11.716Z</time>
</trkpt>
<trkpt lat="49.3297602" lon="1.3566051">
<ele>137.0</ele>
<time>2026-08-11T13:37:15.957Z</time>
</trkpt>
<trkpt lat="49.3297947" lon="1.356561">
<ele>137.0</ele>
<time>2026-08-11T13:37:20.277Z</time>
</trkpt>
<trkpt lat="49.3298281" lon="1.356535">
<ele>137.0</ele>
<time>2026-08-11T13:37:24.598Z</time>
</trkpt>
<trkpt lat="49.3298651" lon="1.3564981">
<ele>136.0</ele>
<time>2026-08-11T13:37:28.799Z</time>
</trkpt>
<trkpt lat="49.3299061" lon="1.3564562">
<ele>136.0</ele>
<time>2026-08-11T13:37:33.139Z</time>
</trkpt>
<trkpt lat="49.3299639" lon="1.3564223">
<ele>136.0</ele>
<time>2026-08-11T13:37:37.340Z</time>
</trkpt>
<trkpt lat="49.3300275" lon="1.3563878">
<ele>136.0</ele>
<time>2026-08-11T13:37:41.720Z</time>
</trkpt>
<trkpt lat="49.3300815" lon="1.3563448">
<ele>136.0</ele>
<time>2026-08-11T13:37:46.159Z</time>
</trkpt>
<trkpt lat="49.3301266" lon="1.3563025">
<ele>136.0</ele>
<time>2026-08-11T13:37:50.339Z</time>
</trkpt>
<trkpt lat="49.3301758" lon="1.3562426">
<ele>133.0</ele>
<time>2026-08-11T13:37:54.700Z</time>
</trkpt>
<trkpt lat="49.3302147" lon="1.356188">
<ele>133.0</ele>
<time>2026-08-11T13:37:58.941Z</time>
</trkpt>
<trkpt lat="49.3302447" lon="1.3561241">
<ele>133.0</ele>
<time>2026-08-11T13:38:03.182Z</time>
</trkpt>
<trkpt lat="49.330257" lon="1.3560458">
<ele>133.0</ele>
<time>2026-08-11T13:38:07.351Z</time>
</trkpt>
<trkpt lat="49.3302802" lon="1.3559775">
<ele>133.0</ele>
<time>2026-08-11T13:38:11.544Z</time>
</trkpt>
<trkpt lat="49.3303217" lon="1.3559185">
<ele>132.0</ele>
<time>2026-08-11T13:38:15.924Z</time>
</trkpt>
<trkpt lat="49.3303614" lon="1.3558685">
<ele>132.0</ele>
<time>2026-08-11T13:38:20.115Z</time>
</trkpt>
<trkpt lat="49.3303921" lon="1.3557915">
<ele>132.0</ele>
<time>2026-08-11T13:38:24.350Z</time>
</trkpt>
<trkpt lat="49.33039" lon="1.3557271">
<ele>132.0</ele>
<time>2026-08-11T13:38:28.497Z</time>
</trkpt>
<trkpt lat="49.3303749" lon="1.3556527">
<ele>130.0</ele>
<time>2026-08-11T13:38:32.798Z</time>
</trkpt>
<trkpt lat="49.3303742" lon="1.3555764">
<ele>130.0</ele>
<time>2026-08-11T13:38:36.999Z</time>
</trkpt>
<trkpt lat="49.3304003" lon="1.3555014">
<ele>130.0</ele>
<time>2026-08-11T13:38:41.345Z</time>
</trkpt>
<trkpt lat="49.3304167" lon="1.3554558">
<ele>130.0</ele>
<time>2026-08-11T13:38:45.759Z</time>
</trkpt>
<trkpt lat="49.3303931" lon="1.3554272">
<ele>130.0</ele>
<time>2026-08-11T13:38:50.344Z</time>
</trkpt>
<trkpt lat="49.3303736" lon="1.3554021">
<ele>130.0</ele>
<time>2026-08-11T13:39:29.358Z</time>
</trkpt>
<trkpt lat="49.3304135" lon="1.3554241">
<ele>130.0</ele>
<time>2026-08-11T13:39:34.036Z</time>
</trkpt>
<trkpt lat="49.3304495" lon="1.3554594">
<ele>130.0</ele>
<time>2026-08-11T13:39:38.356Z</time>
</trkpt>
<trkpt lat="49.3304819" lon="1.3555035">
<ele>130.0</ele>
<time>2026-08-11T13:39:42.697Z</time>
</trkpt>
<trkpt lat="49.3305214" lon="1.3555531">
<ele>130.0</ele>
<time>2026-08-11T13:39:47.057Z</time>
</trkpt>
<trkpt lat="49.3305532" lon="1.3555896">
<ele>130.0</ele>
<time>2026-08-11T13:39:51.238Z</time>
</trkpt>
<trkpt lat="49.3306025" lon="1.3556331">
<ele>130.0</ele>
<time>2026-08-11T13:39:55.558Z</time>
</trkpt>
<trkpt lat="49.3306491" lon="1.355668">
<ele>130.0</ele>
<time>2026-08-11T13:39:59.739Z</time>
</trkpt>
<trkpt lat="49.3306902" lon="1.3556975">
<ele>132.0</ele>
<time>2026-08-11T13:40:04.099Z</time>
</trkpt>
<trkpt lat="49.3307243" lon="1.3557249">
<ele>130.0</ele>
<time>2026-08-11T13:40:08.343Z</time>
</trkpt>
<trkpt lat="49.3307444" lon="1.3557709">
<ele>130.0</ele>
<time>2026-08-11T13:40:12.641Z</time>
</trkpt>
<trkpt lat="49.3307585" lon="1.3558402">
<ele>130.0</ele>
<time>2026-08-11T13:40:17.080Z</time>
</trkpt>
<trkpt lat="49.3307859" lon="1.355894">
<ele>130.0</ele>
<time>2026-08-11T13:40:21.341Z</time>
</trkpt>
<trkpt lat="49.3308235" lon="1.3559479">
<ele>130.0</ele>
<time>2026-08-11T13:40:26.018Z</time>
</trkpt>
<trkpt lat="49.3308233" lon="1.3560117">
<ele>132.0</ele>
<time>2026-08-11T13:40:30.537Z</time>
</trkpt>
<trkpt lat="49.3308368" lon="1.3560634">
<ele>132.0</ele>
<time>2026-08-11T13:40:35.195Z</time>
</trkpt>
<trkpt lat="49.3308598" lon="1.3561254">
<ele>132.0</ele>
<time>2026-08-11T13:40:39.724Z</time>
</trkpt>
<trkpt lat="49.3308902" lon="1.3562081">
<ele>132.0</ele>
<time>2026-08-11T13:40:44.342Z</time>
</trkpt>
<trkpt lat="49.3309441" lon="1.35626">
<ele>134.0</ele>
<time>2026-08-11T13:40:48.802Z</time>
</trkpt>
<trkpt lat="49.3309922" lon="1.3562907">
<ele>129.0</ele>
<time>2026-08-11T13:40:53.221Z</time>
</trkpt>
<trkpt lat="49.3310234" lon="1.356303">
<ele>129.0</ele>
<time>2026-08-11T13:40:57.345Z</time>
</trkpt>
<trkpt lat="49.3310362" lon="1.3562937">
<ele>129.0</ele>
<time>2026-08-11T13:41:09.499Z</time>
</trkpt>
<trkpt lat="49.3310023" lon="1.3562718">
<ele>129.0</ele>
<time>2026-08-11T13:41:13.640Z</time>
</trkpt>
<trkpt lat="49.3309554" lon="1.3561932">
<ele>132.0</ele>
<time>2026-08-11T13:41:18.040Z</time>
</trkpt>
<trkpt lat="49.3309166" lon="1.3561185">
<ele>132.0</ele>
<time>2026-08-11T13:41:22.559Z</time>
</trkpt>
<trkpt lat="49.3308814" lon="1.3560491">
<ele>132.0</ele>
<time>2026-08-11T13:41:26.879Z</time>
</trkpt>
<trkpt lat="49.3308554" lon="1.3559826">
<ele>132.0</ele>
<time>2026-08-11T13:41:31.341Z</time>
</trkpt>
<trkpt lat="49.330824" lon="1.3559216">
<ele>130.0</ele>
<time>2026-08-11T13:41:36.115Z</time>
</trkpt>
<trkpt lat="49.3307871" lon="1.355875">
<ele>130.0</ele>
<time>2026-08-11T13:41:40.347Z</time>
</trkpt>
<trkpt lat="49.3307478" lon="1.3558308">
<ele>130.0</ele>
<time>2026-08-11T13:41:44.755Z</time>
</trkpt>
<trkpt lat="49.3307051" lon="1.3557791">
<ele>130.0</ele>
<time>2026-08-11T13:41:49.343Z</time>
</trkpt>
<trkpt lat="49.3306699" lon="1.3557172">
<ele>132.0</ele>
<time>2026-08-11T13:41:53.684Z</time>
</trkpt>
<trkpt lat="49.330636" lon="1.3556667">
<ele>130.0</ele>
<time>2026-08-11T13:41:58.223Z</time>
</trkpt>
<trkpt lat="49.3306008" lon="1.3556304">
<ele>130.0</ele>
<time>2026-08-11T13:42:02.463Z</time>
</trkpt>
<trkpt lat="49.3305567" lon="1.3555988">
<ele>130.0</ele>
<time>2026-08-11T13:42:06.843Z</time>
</trkpt>
<trkpt lat="49.3305113" lon="1.3555709">
<ele>130.0</ele>
<time>2026-08-11T13:42:11.346Z</time>
</trkpt>
<trkpt lat="49.3304925" lon="1.3555078">
<ele>130.0</ele>
<time>2026-08-11T13:42:15.722Z</time>
</trkpt>
<trkpt lat="49.3305181" lon="1.3554729">
<ele>130.0</ele>
<time>2026-08-11T13:42:19.942Z</time>
</trkpt>
<trkpt lat="49.3305646" lon="1.3554835">
<ele>130.0</ele>
<time>2026-08-11T13:42:24.353Z</time>
</trkpt>
<trkpt lat="49.3306113" lon="1.3554849">
<ele>130.0</ele>
<time>2026-08-11T13:42:29.339Z</time>
</trkpt>
<trkpt lat="49.3306395" lon="1.3554454">
<ele>130.0</ele>
<time>2026-08-11T13:42:34.055Z</time>
</trkpt>
<trkpt lat="49.3306504" lon="1.355414">
<ele>128.0</ele>
<time>2026-08-11T13:42:38.342Z</time>
</trkpt>
<trkpt lat="49.3305647" lon="1.3553269">
<ele>128.0</ele>
<time>2026-08-11T13:43:23.342Z</time>
</trkpt>
<trkpt lat="49.3305622" lon="1.3553288">
<ele>128.0</ele>
<time>2026-08-11T13:43:27.495Z</time>
</trkpt>
<trkpt lat="49.3305514" lon="1.3553056">
<ele>128.0</ele>
<time>2026-08-11T13:43:31.915Z</time>
</trkpt>
<trkpt lat="49.3305137" lon="1.3552579">
<ele>128.0</ele>
<time>2026-08-11T13:43:35.996Z</time>
</trkpt>
<trkpt lat="49.3304593" lon="1.3552216">
<ele>128.0</ele>
<time>2026-08-11T13:43:40.341Z</time>
</trkpt>
<trkpt lat="49.3303843" lon="1.3551966">
<ele>130.0</ele>
<time>2026-08-11T13:44:37.998Z</time>
</trkpt>
<trkpt lat="49.3304445" lon="1.3552446">
<ele>128.0</ele>
<time>2026-08-11T13:44:42.345Z</time>
</trkpt>
<trkpt lat="49.3305047" lon="1.3552922">
<ele>128.0</ele>
<time>2026-08-11T13:44:46.877Z</time>
</trkpt>
<trkpt lat="49.3305667" lon="1.3553221">
<ele>128.0</ele>
<time>2026-08-11T13:44:51.342Z</time>
</trkpt>
<trkpt lat="49.3306204" lon="1.355352">
<ele>128.0</ele>
<time>2026-08-11T13:44:55.350Z</time>
</trkpt>
<trkpt lat="49.3306679" lon="1.355394">
<ele>128.0</ele>
<time>2026-08-11T13:44:59.738Z</time>
</trkpt>
<trkpt lat="49.3307164" lon="1.355433">
<ele>127.0</ele>
<time>2026-08-11T13:45:04.217Z</time>
</trkpt>
<trkpt lat="49.3307608" lon="1.3554799">
<ele>127.0</ele>
<time>2026-08-11T13:45:08.299Z</time>
</trkpt>
<trkpt lat="49.330779" lon="1.3554913">
<ele>127.0</ele>
<time>2026-08-11T13:45:12.345Z</time>
</trkpt>
<trkpt lat="49.330728" lon="1.3554923">
<ele>127.0</ele>
<time>2026-08-11T13:45:38.759Z</time>
</trkpt>
<trkpt lat="49.3307832" lon="1.3555135">
<ele>127.0</ele>
<time>2026-08-11T13:45:43.079Z</time>
</trkpt>
<trkpt lat="49.330819" lon="1.3554598">
<ele>127.0</ele>
<time>2026-08-11T13:45:47.344Z</time>
</trkpt>
<trkpt lat="49.3308232" lon="1.355381">
<ele>125.0</ele>
<time>2026-08-11T13:45:51.354Z</time>
</trkpt>
<trkpt lat="49.3308249" lon="1.3552999">
<ele>125.0</ele>
<time>2026-08-11T13:45:56.199Z</time>
</trkpt>
<trkpt lat="49.3308152" lon="1.3552699">
<ele>125.0</ele>
<time>2026-08-11T13:46:17.342Z</time>
</trkpt>
<trkpt lat="49.3308041" lon="1.3552579">
<ele>125.0</ele>
<time>2026-08-11T13:46:21.683Z</time>
</trkpt>
<trkpt lat="49.3307837" lon="1.3552117">
<ele>125.0</ele>
<time>2026-08-11T13:46:25.914Z</time>
</trkpt>
<trkpt lat="49.3307698" lon="1.3551626">
<ele>125.0</ele>
<time>2026-08-11T13:46:30.341Z</time>
</trkpt>
<trkpt lat="49.3307371" lon="1.3551088">
<ele>124.0</ele>
<time>2026-08-11T13:46:34.724Z</time>
</trkpt>
<trkpt lat="49.3307051" lon="1.3550532">
<ele>124.0</ele>
<time>2026-08-11T13:46:38.895Z</time>
</trkpt>
<trkpt lat="49.3308238" lon="1.354866">
<ele>124.0</ele>
<time>2026-08-11T13:46:43.342Z</time>
</trkpt>
<trkpt lat="49.3308268" lon="1.3547744">
<ele>124.0</ele>
<time>2026-08-11T13:46:48.102Z</time>
</trkpt>
<trkpt lat="49.3308164" lon="1.3546936">
<ele>124.0</ele>
<time>2026-08-11T13:46:52.224Z</time>
</trkpt>
<trkpt lat="49.3308144" lon="1.3546339">
<ele>124.0</ele>
<time>2026-08-11T13:46:56.237Z</time>
</trkpt>
<trkpt lat="49.330805" lon="1.3545613">
<ele>123.0</ele>
<time>2026-08-11T13:47:00.336Z</time>
</trkpt>
<trkpt lat="49.3307886" lon="1.3545044">
<ele>123.0</ele>
<time>2026-08-11T13:47:05.195Z</time>
</trkpt>
<trkpt lat="49.3308061" lon="1.3544079">
<ele>123.0</ele>
<time>2026-08-11T13:47:09.338Z</time>
</trkpt>
<trkpt lat="49.330803" lon="1.3543117">
<ele>123.0</ele>
<time>2026-08-11T13:47:14.075Z</time>
</trkpt>
<trkpt lat="49.3307903" lon="1.3542353">
<ele>121.0</ele>
<time>2026-08-11T13:47:18.217Z</time>
</trkpt>
<trkpt lat="49.3307721" lon="1.3541601">
<ele>121.0</ele>
<time>2026-08-11T13:47:22.458Z</time>
</trkpt>
<trkpt lat="49.3307505" lon="1.3540878">
<ele>121.0</ele>
<time>2026-08-11T13:47:26.599Z</time>
</trkpt>
<trkpt lat="49.330734" lon="1.3540153">
<ele>120.0</ele>
<time>2026-08-11T13:47:30.801Z</time>
</trkpt>
<trkpt lat="49.3307293" lon="1.3539285">
<ele>120.0</ele>
<time>2026-08-11T13:47:35.320Z</time>
</trkpt>
<trkpt lat="49.3307776" lon="1.3538984">
<ele>120.0</ele>
<time>2026-08-11T13:47:40.349Z</time>
</trkpt>
<trkpt lat="49.3307961" lon="1.3538605">
<ele>120.0</ele>
<time>2026-08-11T13:47:45.344Z</time>
</trkpt>
<trkpt lat="49.330782" lon="1.3538665">
<ele>120.0</ele>
<time>2026-08-11T13:48:09.348Z</time>
</trkpt>
<trkpt lat="49.3307666" lon="1.3537877">
<ele>120.0</ele>
<time>2026-08-11T13:48:14.333Z</time>
</trkpt>
<trkpt lat="49.3307546" lon="1.35371">
<ele>120.0</ele>
<time>2026-08-11T13:48:18.347Z</time>
</trkpt>
<trkpt lat="49.3307488" lon="1.353631">
<ele>120.0</ele>
<time>2026-08-11T13:48:23.339Z</time>
</trkpt>
<trkpt lat="49.3307441" lon="1.3535619">
<ele>120.0</ele>
<time>2026-08-11T13:48:28.352Z</time>
</trkpt>
<trkpt lat="49.3307362" lon="1.3534788">
<ele>120.0</ele>
<time>2026-08-11T13:48:33.343Z</time>
</trkpt>
<trkpt lat="49.330726" lon="1.353414">
<ele>119.0</ele>
<time>2026-08-11T13:48:37.350Z</time>
</trkpt>
<trkpt lat="49.3307104" lon="1.353342">
<ele>119.0</ele>
<time>2026-08-11T13:48:42.344Z</time>
</trkpt>
<trkpt lat="49.3306863" lon="1.3532682">
<ele>123.0</ele>
<time>2026-08-11T13:48:47.342Z</time>
</trkpt>
<trkpt lat="49.330658" lon="1.3531174">
<ele>123.0</ele>
<time>2026-08-11T13:49:14.341Z</time>
</trkpt>
<trkpt lat="49.3306318" lon="1.3530729">
<ele>123.0</ele>
<time>2026-08-11T13:49:18.338Z</time>
</trkpt>
<trkpt lat="49.3305962" lon="1.353002">
<ele>123.0</ele>
<time>2026-08-11T13:49:23.262Z</time>
</trkpt>
<trkpt lat="49.3305604" lon="1.3530225">
<ele>123.0</ele>
<time>2026-08-11T13:49:27.343Z</time>
</trkpt>
<trkpt lat="49.3305545" lon="1.3530003">
<ele>123.0</ele>
<time>2026-08-11T13:49:31.343Z</time>
</trkpt>
<trkpt lat="49.3305554" lon="1.3529875">
<ele>123.0</ele>
<time>2026-08-11T13:49:35.956Z</time>
</trkpt>
<trkpt lat="49.3305832" lon="1.3529551">
<ele>123.0</ele>
<time>2026-08-11T13:49:40.347Z</time>
</trkpt>
<trkpt lat="49.3306235" lon="1.3529566">
<ele>123.0</ele>
<time>2026-08-11T13:49:44.736Z</time>
</trkpt>
<trkpt lat="49.3306616" lon="1.3529279">
<ele>123.0</ele>
<time>2026-08-11T13:49:49.335Z</time>
</trkpt>
<trkpt lat="49.3307729" lon="1.3529706">
<ele>119.0</ele>
<time>2026-08-11T13:50:02.342Z</time>
</trkpt>
<trkpt lat="49.3307779" lon="1.3529991">
<ele>119.0</ele>
<time>2026-08-11T13:50:07.357Z</time>
</trkpt>
<trkpt lat="49.3307826" lon="1.3530206">
<ele>119.0</ele>
<time>2026-08-11T13:50:12.333Z</time>
</trkpt>
<trkpt lat="49.3307862" lon="1.3530363">
<ele>119.0</ele>
<time>2026-08-11T13:50:17.343Z</time>
</trkpt>
<trkpt lat="49.330788" lon="1.3530392">
<ele>119.0</ele>
<time>2026-08-11T13:50:22.339Z</time>
</trkpt>
<trkpt lat="49.3307818" lon="1.3530564">
<ele>119.0</ele>
<time>2026-08-11T13:50:41.658Z</time>
</trkpt>
<trkpt lat="49.3307434" lon="1.3530819">
<ele>119.0</ele>
<time>2026-08-11T13:50:46.338Z</time>
</trkpt>
<trkpt lat="49.3307086" lon="1.3530823">
<ele>119.0</ele>
<time>2026-08-11T13:50:51.342Z</time>
</trkpt>
<trkpt lat="49.3306866" lon="1.3530808">
<ele>123.0</ele>
<time>2026-08-11T13:50:55.742Z</time>
</trkpt>
<trkpt lat="49.3306422" lon="1.3530944">
<ele>123.0</ele>
<time>2026-08-11T13:51:00.345Z</time>
</trkpt>
<trkpt lat="49.3306093" lon="1.353113">
<ele>123.0</ele>
<time>2026-08-11T13:51:04.340Z</time>
</trkpt>
<trkpt lat="49.33061" lon="1.3531477">
<ele>123.0</ele>
<time>2026-08-11T13:51:08.350Z</time>
</trkpt>
<trkpt lat="49.3306438" lon="1.3532122">
<ele>123.0</ele>
<time>2026-08-11T13:51:13.154Z</time>
</trkpt>
<trkpt lat="49.3306702" lon="1.3532443">
<ele>123.0</ele>
<time>2026-08-11T13:51:17.584Z</time>
</trkpt>
<trkpt lat="49.330673" lon="1.3533382">
<ele>123.0</ele>
<time>2026-08-11T13:51:21.775Z</time>
</trkpt>
<trkpt lat="49.3306954" lon="1.3534111">
<ele>119.0</ele>
<time>2026-08-11T13:51:26.343Z</time>
</trkpt>
<trkpt lat="49.3307014" lon="1.3534995">
<ele>120.0</ele>
<time>2026-08-11T13:51:31.023Z</time>
</trkpt>
<trkpt lat="49.3307053" lon="1.3535816">
<ele>120.0</ele>
<time>2026-08-11T13:51:35.035Z</time>
</trkpt>
<trkpt lat="49.3306713" lon="1.353672">
<ele>123.0</ele>
<time>2026-08-11T13:51:53.352Z</time>
</trkpt>
<trkpt lat="49.3306589" lon="1.3536152">
<ele>123.0</ele>
<time>2026-08-11T13:51:57.339Z</time>
</trkpt>
<trkpt lat="49.3306473" lon="1.3535256">
<ele>123.0</ele>
<time>2026-08-11T13:52:01.714Z</time>
</trkpt>
<trkpt lat="49.3306261" lon="1.35345">
<ele>123.0</ele>
<time>2026-08-11T13:52:05.916Z</time>
</trkpt>
<trkpt lat="49.3306081" lon="1.3533738">
<ele>123.0</ele>
<time>2026-08-11T13:52:10.342Z</time>
</trkpt>
<trkpt lat="49.3305876" lon="1.3533203">
<ele>123.0</ele>
<time>2026-08-11T13:52:14.696Z</time>
</trkpt>
<trkpt lat="49.330554" lon="1.3532545">
<ele>123.0</ele>
<time>2026-08-11T13:52:18.937Z</time>
</trkpt>
<trkpt lat="49.3305222" lon="1.3532089">
<ele>123.0</ele>
<time>2026-08-11T13:52:22.960Z</time>
</trkpt>
<trkpt lat="49.3304813" lon="1.353166">
<ele>123.0</ele>
<time>2026-08-11T13:52:27.201Z</time>
</trkpt>
<trkpt lat="49.3304365" lon="1.3531197">
<ele>123.0</ele>
<time>2026-08-11T13:52:31.336Z</time>
</trkpt>
<trkpt lat="49.3303932" lon="1.353095">
<ele>125.0</ele>
<time>2026-08-11T13:52:35.339Z</time>
</trkpt>
<trkpt lat="49.3303433" lon="1.3530558">
<ele>125.0</ele>
<time>2026-08-11T13:52:39.696Z</time>
</trkpt>
<trkpt lat="49.3303017" lon="1.3530335">
<ele>125.0</ele>
<time>2026-08-11T13:52:43.878Z</time>
</trkpt>
<trkpt lat="49.3302656" lon="1.3529797">
<ele>125.0</ele>
<time>2026-08-11T13:52:47.881Z</time>
</trkpt>
<trkpt lat="49.330222" lon="1.3529398">
<ele>125.0</ele>
<time>2026-08-11T13:52:52.182Z</time>
</trkpt>
<trkpt lat="49.3301794" lon="1.3529053">
<ele>125.0</ele>
<time>2026-08-11T13:52:56.304Z</time>
</trkpt>
<trkpt lat="49.3301378" lon="1.3528766">
<ele>126.0</ele>
<time>2026-08-11T13:53:00.614Z</time>
</trkpt>
<trkpt lat="49.3300904" lon="1.3528388">
<ele>126.0</ele>
<time>2026-08-11T13:53:04.915Z</time>
</trkpt>
<trkpt lat="49.3300476" lon="1.3528187">
<ele>126.0</ele>
<time>2026-08-11T13:53:09.156Z</time>
</trkpt>
<trkpt lat="49.3300134" lon="1.3527708">
<ele>126.0</ele>
<time>2026-08-11T13:53:13.318Z</time>
</trkpt>
<trkpt lat="49.3299732" lon="1.352719">
<ele>126.0</ele>
<time>2026-08-11T13:53:17.877Z</time>
</trkpt>
<trkpt lat="49.3299326" lon="1.3526827">
<ele>126.0</ele>
<time>2026-08-11T13:53:22.178Z</time>
</trkpt>
<trkpt lat="49.3298977" lon="1.3526465">
<ele>126.0</ele>
<time>2026-08-11T13:53:26.339Z</time>
</trkpt>
<trkpt lat="49.329855" lon="1.3526127">
<ele>129.0</ele>
<time>2026-08-11T13:53:30.760Z</time>
</trkpt>
<trkpt lat="49.3298112" lon="1.352575">
<ele>129.0</ele>
<time>2026-08-11T13:53:35.160Z</time>
</trkpt>
<trkpt lat="49.3297665" lon="1.3525436">
<ele>129.0</ele>
<time>2026-08-11T13:53:39.282Z</time>
</trkpt>
<trkpt lat="49.3297232" lon="1.3525126">
<ele>129.0</ele>
<time>2026-08-11T13:53:43.880Z</time>
</trkpt>
<trkpt lat="49.3296905" lon="1.3524681">
<ele>129.0</ele>
<time>2026-08-11T13:53:48.022Z</time>
</trkpt>
<trkpt lat="49.3296497" lon="1.3524266">
<ele>129.0</ele>
<time>2026-08-11T13:53:52.340Z</time>
</trkpt>
<trkpt lat="49.3296093" lon="1.3523818">
<ele>129.0</ele>
<time>2026-08-11T13:53:56.842Z</time>
</trkpt>
<trkpt lat="49.329588" lon="1.3523169">
<ele>130.0</ele>
<time>2026-08-11T13:54:01.342Z</time>
</trkpt>
<trkpt lat="49.3295965" lon="1.3522457">
<ele>130.0</ele>
<time>2026-08-11T13:54:05.921Z</time>
</trkpt>
<trkpt lat="49.3296083" lon="1.3521759">
<ele>130.0</ele>
<time>2026-08-11T13:54:10.241Z</time>
</trkpt>
<trkpt lat="49.3296141" lon="1.3521057">
<ele>130.0</ele>
<time>2026-08-11T13:54:14.324Z</time>
</trkpt>
<trkpt lat="49.3296345" lon="1.3520133">
<ele>131.0</ele>
<time>2026-08-11T13:54:18.684Z</time>
</trkpt>
<trkpt lat="49.329658" lon="1.3519644">
<ele>131.0</ele>
<time>2026-08-11T13:54:22.875Z</time>
</trkpt>
<trkpt lat="49.3296804" lon="1.3519054">
<ele>131.0</ele>
<time>2026-08-11T13:54:27.196Z</time>
</trkpt>
<trkpt lat="49.3297021" lon="1.3518283">
<ele>131.0</ele>
<time>2026-08-11T13:54:31.278Z</time>
</trkpt>
<trkpt lat="49.3297161" lon="1.3517532">
<ele>131.0</ele>
<time>2026-08-11T13:54:35.339Z</time>
</trkpt>
<trkpt lat="49.3297322" lon="1.3516697">
<ele>131.0</ele>
<time>2026-08-11T13:54:39.999Z</time>
</trkpt>
<trkpt lat="49.3297478" lon="1.3515993">
<ele>131.0</ele>
<time>2026-08-11T13:54:44.340Z</time>
</trkpt>
<trkpt lat="49.3297458" lon="1.3515252">
<ele>131.0</ele>
<time>2026-08-11T13:54:48.561Z</time>
</trkpt>
<trkpt lat="49.3297559" lon="1.351455">
<ele>131.0</ele>
<time>2026-08-11T13:54:52.742Z</time>
</trkpt>
<trkpt lat="49.3297705" lon="1.3513775">
<ele>131.0</ele>
<time>2026-08-11T13:54:56.944Z</time>
</trkpt>
<trkpt lat="49.3297917" lon="1.3513008">
<ele>131.0</ele>
<time>2026-08-11T13:55:01.056Z</time>
</trkpt>
<trkpt lat="49.3298106" lon="1.3512273">
<ele>132.0</ele>
<time>2026-08-11T13:55:05.237Z</time>
</trkpt>
<trkpt lat="49.329827" lon="1.351149">
<ele>132.0</ele>
<time>2026-08-11T13:55:09.334Z</time>
</trkpt>
<trkpt lat="49.3298329" lon="1.3510585">
<ele>132.0</ele>
<time>2026-08-11T13:55:14.058Z</time>
</trkpt>
<trkpt lat="49.329835" lon="1.35098">
<ele>132.0</ele>
<time>2026-08-11T13:55:18.348Z</time>
</trkpt>
<trkpt lat="49.3298365" lon="1.3509055">
<ele>134.0</ele>
<time>2026-08-11T13:55:22.619Z</time>
</trkpt>
<trkpt lat="49.32982" lon="1.3508376">
<ele>134.0</ele>
<time>2026-08-11T13:55:26.880Z</time>
</trkpt>
<trkpt lat="49.3297934" lon="1.3507741">
<ele>134.0</ele>
<time>2026-08-11T13:55:31.062Z</time>
</trkpt>
<trkpt lat="49.3297583" lon="1.3507146">
<ele>134.0</ele>
<time>2026-08-11T13:55:35.303Z</time>
</trkpt>
<trkpt lat="49.3297387" lon="1.350654">
<ele>136.0</ele>
<time>2026-08-11T13:55:39.435Z</time>
</trkpt>
<trkpt lat="49.3297222" lon="1.3505877">
<ele>136.0</ele>
<time>2026-08-11T13:55:43.676Z</time>
</trkpt>
<trkpt lat="49.3297167" lon="1.3505096">
<ele>136.0</ele>
<time>2026-08-11T13:55:47.957Z</time>
</trkpt>
<trkpt lat="49.3297013" lon="1.3504429">
<ele>136.0</ele>
<time>2026-08-11T13:55:52.258Z</time>
</trkpt>
<trkpt lat="49.3296827" lon="1.3503793">
<ele>139.0</ele>
<time>2026-08-11T13:55:56.499Z</time>
</trkpt>
<trkpt lat="49.3296634" lon="1.350297">
<ele>139.0</ele>
<time>2026-08-11T13:56:00.919Z</time>
</trkpt>
<trkpt lat="49.3296406" lon="1.3502282">
<ele>139.0</ele>
<time>2026-08-11T13:56:05.101Z</time>
</trkpt>
<trkpt lat="49.3296061" lon="1.3501389">
<ele>139.0</ele>
<time>2026-08-11T13:56:09.334Z</time>
</trkpt>
<trkpt lat="49.329572" lon="1.3500579">
<ele>138.0</ele>
<time>2026-08-11T13:56:13.662Z</time>
</trkpt>
<trkpt lat="49.3295368" lon="1.3499925">
<ele>138.0</ele>
<time>2026-08-11T13:56:17.943Z</time>
</trkpt>
<trkpt lat="49.3295091" lon="1.3499322">
<ele>138.0</ele>
<time>2026-08-11T13:56:22.175Z</time>
</trkpt>
<trkpt lat="49.3294847" lon="1.3498688">
<ele>138.0</ele>
<time>2026-08-11T13:56:26.337Z</time>
</trkpt>
<trkpt lat="49.3294692" lon="1.3497996">
<ele>139.0</ele>
<time>2026-08-11T13:56:30.776Z</time>
</trkpt>
<trkpt lat="49.3294499" lon="1.3497463">
<ele>139.0</ele>
<time>2026-08-11T13:56:35.236Z</time>
</trkpt>
<trkpt lat="49.3294439" lon="1.3496757">
<ele>139.0</ele>
<time>2026-08-11T13:56:39.636Z</time>
</trkpt>
<trkpt lat="49.3294383" lon="1.3496051">
<ele>139.0</ele>
<time>2026-08-11T13:56:44.076Z</time>
</trkpt>
<trkpt lat="49.3294307" lon="1.3495332">
<ele>140.0</ele>
<time>2026-08-11T13:56:48.277Z</time>
</trkpt>
<trkpt lat="49.3294266" lon="1.3494574">
<ele>140.0</ele>
<time>2026-08-11T13:56:52.657Z</time>
</trkpt>
<trkpt lat="49.3294185" lon="1.3493886">
<ele>140.0</ele>
<time>2026-08-11T13:56:56.918Z</time>
</trkpt>
<trkpt lat="49.3294331" lon="1.3493248">
<ele>140.0</ele>
<time>2026-08-11T13:57:01.179Z</time>
</trkpt>
<trkpt lat="49.3294582" lon="1.3492688">
<ele>141.0</ele>
<time>2026-08-11T13:57:05.342Z</time>
</trkpt>
<trkpt lat="49.3294807" lon="1.3492017">
<ele>141.0</ele>
<time>2026-08-11T13:57:09.682Z</time>
</trkpt>
<trkpt lat="49.3294949" lon="1.3491314">
<ele>141.0</ele>
<time>2026-08-11T13:57:13.724Z</time>
</trkpt>
<trkpt lat="49.3295117" lon="1.3490605">
<ele>141.0</ele>
<time>2026-08-11T13:57:18.114Z</time>
</trkpt>
<trkpt lat="49.3295266" lon="1.348991">
<ele>141.0</ele>
<time>2026-08-11T13:57:22.604Z</time>
</trkpt>
<trkpt lat="49.3295326" lon="1.3489228">
<ele>141.0</ele>
<time>2026-08-11T13:57:26.855Z</time>
</trkpt>
<trkpt lat="49.3295349" lon="1.348854">
<ele>141.0</ele>
<time>2026-08-11T13:57:30.997Z</time>
</trkpt>
<trkpt lat="49.3295377" lon="1.3487666">
<ele>141.0</ele>
<time>2026-08-11T13:57:35.099Z</time>
</trkpt>
<trkpt lat="49.3295385" lon="1.348681">
<ele>142.0</ele>
<time>2026-08-11T13:57:39.221Z</time>
</trkpt>
<trkpt lat="49.3295463" lon="1.3486003">
<ele>142.0</ele>
<time>2026-08-11T13:57:43.340Z</time>
</trkpt>
<trkpt lat="49.3295459" lon="1.3485262">
<ele>142.0</ele>
<time>2026-08-11T13:57:47.664Z</time>
</trkpt>
<trkpt lat="49.3295244" lon="1.3484494">
<ele>143.0</ele>
<time>2026-08-11T13:57:51.895Z</time>
</trkpt>
<trkpt lat="49.3294985" lon="1.3483876">
<ele>143.0</ele>
<time>2026-08-11T13:57:55.937Z</time>
</trkpt>
<trkpt lat="49.3294699" lon="1.3483247">
<ele>143.0</ele>
<time>2026-08-11T13:58:00.198Z</time>
</trkpt>
<trkpt lat="49.3294404" lon="1.3482769">
<ele>143.0</ele>
<time>2026-08-11T13:58:04.300Z</time>
</trkpt>
<trkpt lat="49.3293942" lon="1.3482288">
<ele>143.0</ele>
<time>2026-08-11T13:58:08.889Z</time>
</trkpt>
<trkpt lat="49.3293539" lon="1.348182">
<ele>143.0</ele>
<time>2026-08-11T13:58:13.348Z</time>
</trkpt>
<trkpt lat="49.3293117" lon="1.3481259">
<ele>143.0</ele>
<time>2026-08-11T13:58:17.759Z</time>
</trkpt>
<trkpt lat="49.3292643" lon="1.3480751">
<ele>141.0</ele>
<time>2026-08-11T13:58:22.357Z</time>
</trkpt>
<trkpt lat="49.3292535" lon="1.3480747">
<ele>141.0</ele>
<time>2026-08-11T13:58:27.056Z</time>
</trkpt>
<trkpt lat="49.3292633" lon="1.3480765">
<ele>141.0</ele>
<time>2026-08-11T13:58:52.331Z</time>
</trkpt>
<trkpt lat="49.3292619" lon="1.3480671">
<ele>141.0</ele>
<time>2026-08-11T13:58:57.343Z</time>
</trkpt>
<trkpt lat="49.3292412" lon="1.3480454">
<ele>141.0</ele>
<time>2026-08-11T13:59:01.860Z</time>
</trkpt>
<trkpt lat="49.329225" lon="1.3480266">
<ele>141.0</ele>
<time>2026-08-11T13:59:06.346Z</time>
</trkpt>
<trkpt lat="49.3291823" lon="1.3479892">
<ele>141.0</ele>
<time>2026-08-11T13:59:11.017Z</time>
</trkpt>
<trkpt lat="49.3291458" lon="1.3479482">
<ele>141.0</ele>
<time>2026-08-11T13:59:15.060Z</time>
</trkpt>
<trkpt lat="49.3291045" lon="1.3479387">
<ele>141.0</ele>
<time>2026-08-11T13:59:19.338Z</time>
</trkpt>
<trkpt lat="49.3290608" lon="1.3479342">
<ele>141.0</ele>
<time>2026-08-11T13:59:23.582Z</time>
</trkpt>
<trkpt lat="49.3290139" lon="1.3479226">
<ele>140.0</ele>
<time>2026-08-11T13:59:27.843Z</time>
</trkpt>
<trkpt lat="49.3289585" lon="1.34791">
<ele>143.0</ele>
<time>2026-08-11T13:59:31.935Z</time>
</trkpt>
<trkpt lat="49.3289113" lon="1.347903">
<ele>143.0</ele>
<time>2026-08-11T13:59:36.117Z</time>
</trkpt>
<trkpt lat="49.3288586" lon="1.3478875">
<ele>143.0</ele>
<time>2026-08-11T13:59:40.278Z</time>
</trkpt>
<trkpt lat="49.3288019" lon="1.3478685">
<ele>143.0</ele>
<time>2026-08-11T13:59:44.639Z</time>
</trkpt>
<trkpt lat="49.3287481" lon="1.3478611">
<ele>142.0</ele>
<time>2026-08-11T13:59:48.979Z</time>
</trkpt>
<trkpt lat="49.328696" lon="1.3478604">
<ele>142.0</ele>
<time>2026-08-11T13:59:53.342Z</time>
</trkpt>
<trkpt lat="49.3286393" lon="1.3478668">
<ele>142.0</ele>
<time>2026-08-11T13:59:57.680Z</time>
</trkpt>
<trkpt lat="49.3285842" lon="1.3478812">
<ele>142.0</ele>
<time>2026-08-11T14:00:01.861Z</time>
</trkpt>
<trkpt lat="49.3285308" lon="1.3479012">
<ele>142.0</ele>
<time>2026-08-11T14:00:05.963Z</time>
</trkpt>
<trkpt lat="49.3284773" lon="1.3479405">
<ele>139.0</ele>
<time>2026-08-11T14:00:10.244Z</time>
</trkpt>
<trkpt lat="49.3284244" lon="1.347961">
<ele>140.0</ele>
<time>2026-08-11T14:00:14.515Z</time>
</trkpt>
<trkpt lat="49.3283683" lon="1.3479835">
<ele>140.0</ele>
<time>2026-08-11T14:00:18.955Z</time>
</trkpt>
<trkpt lat="49.3283312" lon="1.3479881">
<ele>140.0</ele>
<time>2026-08-11T14:00:23.339Z</time>
</trkpt>
<trkpt lat="49.3282799" lon="1.3479828">
<ele>140.0</ele>
<time>2026-08-11T14:00:27.864Z</time>
</trkpt>
<trkpt lat="49.328233" lon="1.3479912">
<ele>140.0</ele>
<time>2026-08-11T14:00:32.284Z</time>
</trkpt>
<trkpt lat="49.3281875" lon="1.3480015">
<ele>141.0</ele>
<time>2026-08-11T14:00:36.575Z</time>
</trkpt>
<trkpt lat="49.3281408" lon="1.3479948">
<ele>141.0</ele>
<time>2026-08-11T14:00:40.796Z</time>
</trkpt>
<trkpt lat="49.3280953" lon="1.3479969">
<ele>141.0</ele>
<time>2026-08-11T14:00:45.037Z</time>
</trkpt>
<trkpt lat="49.3280484" lon="1.3479965">
<ele>141.0</ele>
<time>2026-08-11T14:00:49.341Z</time>
</trkpt>
<trkpt lat="49.3280017" lon="1.3479979">
<ele>141.0</ele>
<time>2026-08-11T14:00:53.837Z</time>
</trkpt>
<trkpt lat="49.3279552" lon="1.3480041">
<ele>141.0</ele>
<time>2026-08-11T14:00:58.158Z</time>
</trkpt>
<trkpt lat="49.3279097" lon="1.3479988">
<ele>141.0</ele>
<time>2026-08-11T14:01:02.617Z</time>
</trkpt>
<trkpt lat="49.3278642" lon="1.3479836">
<ele>141.0</ele>
<time>2026-08-11T14:01:07.341Z</time>
</trkpt>
<trkpt lat="49.3278231" lon="1.3479463">
<ele>141.0</ele>
<time>2026-08-11T14:01:12.202Z</time>
</trkpt>
<trkpt lat="49.327795" lon="1.3479199">
<ele>141.0</ele>
<time>2026-08-11T14:01:16.721Z</time>
</trkpt>
<trkpt lat="49.3277541" lon="1.3479176">
<ele>141.0</ele>
<time>2026-08-11T14:01:21.141Z</time>
</trkpt>
<trkpt lat="49.3277085" lon="1.3479065">
<ele>142.0</ele>
<time>2026-08-11T14:01:25.263Z</time>
</trkpt>
<trkpt lat="49.3276659" lon="1.3478932">
<ele>142.0</ele>
<time>2026-08-11T14:01:29.921Z</time>
</trkpt>
<trkpt lat="49.3276257" lon="1.3478629">
<ele>141.0</ele>
<time>2026-08-11T14:01:34.342Z</time>
</trkpt>
<trkpt lat="49.3275814" lon="1.3478386">
<ele>141.0</ele>
<time>2026-08-11T14:01:38.880Z</time>
</trkpt>
<trkpt lat="49.3275375" lon="1.3477993">
<ele>141.0</ele>
<time>2026-08-11T14:01:43.220Z</time>
</trkpt>
<trkpt lat="49.3274966" lon="1.3477674">
<ele>141.0</ele>
<time>2026-08-11T14:01:47.779Z</time>
</trkpt>
<trkpt lat="49.3274563" lon="1.3477409">
<ele>141.0</ele>
<time>2026-08-11T14:01:52.338Z</time>
</trkpt>
<trkpt lat="49.3274064" lon="1.347706">
<ele>141.0</ele>
<time>2026-08-11T14:01:56.678Z</time>
</trkpt>
<trkpt lat="49.3273557" lon="1.3476726">
<ele>142.0</ele>
<time>2026-08-11T14:02:00.840Z</time>
</trkpt>
<trkpt lat="49.3273195" lon="1.3476273">
<ele>142.0</ele>
<time>2026-08-11T14:02:05.335Z</time>
</trkpt>
<trkpt lat="49.3272574" lon="1.3475745">
<ele>142.0</ele>
<time>2026-08-11T14:02:46.161Z</time>
</trkpt>
<trkpt lat="49.3272597" lon="1.3475302">
<ele>142.0</ele>
<time>2026-08-11T14:02:50.203Z</time>
</trkpt>
<trkpt lat="49.327252" lon="1.3474629">
<ele>142.0</ele>
<time>2026-08-11T14:02:54.722Z</time>
</trkpt>
<trkpt lat="49.3272425" lon="1.3473953">
<ele>142.0</ele>
<time>2026-08-11T14:02:59.182Z</time>
</trkpt>
<trkpt lat="49.3272336" lon="1.3473278">
<ele>142.0</ele>
<time>2026-08-11T14:03:03.721Z</time>
</trkpt>
<trkpt lat="49.3272095" lon="1.3473166">
<ele>142.0</ele>
<time>2026-08-11T14:03:12.330Z</time>
</trkpt>
<trkpt lat="49.327208" lon="1.3473288">
<ele>142.0</ele>
<time>2026-08-11T14:03:16.703Z</time>
</trkpt>
<trkpt lat="49.3271999" lon="1.3473559">
<ele>142.0</ele>
<time>2026-08-11T14:03:21.339Z</time>
</trkpt>
<trkpt lat="49.3272054" lon="1.3473965">
<ele>142.0</ele>
<time>2026-08-11T14:03:25.841Z</time>
</trkpt>
<trkpt lat="49.3272093" lon="1.3474434">
<ele>142.0</ele>
<time>2026-08-11T14:03:30.339Z</time>
</trkpt>
<trkpt lat="49.3272377" lon="1.3474104">
<ele>142.0</ele>
<time>2026-08-11T14:04:29.343Z</time>
</trkpt>
<trkpt lat="49.32724" lon="1.347413">
<ele>142.0</ele>
<time>2026-08-11T14:04:34.329Z</time>
</trkpt>
<trkpt lat="49.327246" lon="1.3474171">
<ele>142.0</ele>
<time>2026-08-11T14:04:39.329Z</time>
</trkpt>
<trkpt lat="49.3272612" lon="1.3473734">
<ele>142.0</ele>
<time>2026-08-11T14:04:43.333Z</time>
</trkpt>
<trkpt lat="49.3272645" lon="1.3472947">
<ele>142.0</ele>
<time>2026-08-11T14:04:47.515Z</time>
</trkpt>
<trkpt lat="49.3272299" lon="1.3472029">
<ele>142.0</ele>
<time>2026-08-11T14:12:13.333Z</time>
</trkpt>
<trkpt lat="49.3271713" lon="1.3472176">
<ele>142.0</ele>
<time>2026-08-11T14:12:18.329Z</time>
</trkpt>
<trkpt lat="49.327128" lon="1.3472004">
<ele>142.0</ele>
<time>2026-08-11T14:12:22.334Z</time>
</trkpt>
<trkpt lat="49.3270829" lon="1.3471897">
<ele>141.0</ele>
<time>2026-08-11T14:12:26.680Z</time>
</trkpt>
<trkpt lat="49.3270431" lon="1.3472011">
<ele>141.0</ele>
<time>2026-08-11T14:12:30.901Z</time>
</trkpt>
<trkpt lat="49.3269957" lon="1.3472149">
<ele>141.0</ele>
<time>2026-08-11T14:12:35.222Z</time>
</trkpt>
<trkpt lat="49.326949" lon="1.3472247">
<ele>141.0</ele>
<time>2026-08-11T14:12:39.304Z</time>
</trkpt>
<trkpt lat="49.3269051" lon="1.3472404">
<ele>141.0</ele>
<time>2026-08-11T14:12:43.316Z</time>
</trkpt>
<trkpt lat="49.3268599" lon="1.3472434">
<ele>141.0</ele>
<time>2026-08-11T14:12:47.340Z</time>
</trkpt>
<trkpt lat="49.3268081" lon="1.3472542">
<ele>141.0</ele>
<time>2026-08-11T14:12:51.679Z</time>
</trkpt>
<trkpt lat="49.3267583" lon="1.3472722">
<ele>141.0</ele>
<time>2026-08-11T14:12:55.841Z</time>
</trkpt>
<trkpt lat="49.3267101" lon="1.3472917">
<ele>141.0</ele>
<time>2026-08-11T14:12:59.903Z</time>
</trkpt>
<trkpt lat="49.3266571" lon="1.3473174">
<ele>141.0</ele>
<time>2026-08-11T14:13:04.094Z</time>
</trkpt>
<trkpt lat="49.3266146" lon="1.3473354">
<ele>141.0</ele>
<time>2026-08-11T14:13:08.157Z</time>
</trkpt>
<trkpt lat="49.3265628" lon="1.3473694">
<ele>142.0</ele>
<time>2026-08-11T14:13:12.636Z</time>
</trkpt>
<trkpt lat="49.3265157" lon="1.3473957">
<ele>141.0</ele>
<time>2026-08-11T14:13:16.698Z</time>
</trkpt>
<trkpt lat="49.3264603" lon="1.3474229">
<ele>141.0</ele>
<time>2026-08-11T14:13:21.198Z</time>
</trkpt>
<trkpt lat="49.3264023" lon="1.3474374">
<ele>141.0</ele>
<time>2026-08-11T14:13:25.796Z</time>
</trkpt>
<trkpt lat="49.3263475" lon="1.3474331">
<ele>141.0</ele>
<time>2026-08-11T14:13:30.329Z</time>
</trkpt>
<trkpt lat="49.3263035" lon="1.3474101">
<ele>141.0</ele>
<time>2026-08-11T14:13:34.398Z</time>
</trkpt>
<trkpt lat="49.3262634" lon="1.347378">
<ele>141.0</ele>
<time>2026-08-11T14:13:38.619Z</time>
</trkpt>
<trkpt lat="49.3262219" lon="1.3473521">
<ele>141.0</ele>
<time>2026-08-11T14:13:42.621Z</time>
</trkpt>
<trkpt lat="49.3261788" lon="1.3473111">
<ele>141.0</ele>
<time>2026-08-11T14:13:46.803Z</time>
</trkpt>
<trkpt lat="49.3261401" lon="1.3472807">
<ele>141.0</ele>
<time>2026-08-11T14:13:50.875Z</time>
</trkpt>
<trkpt lat="49.3260964" lon="1.3472555">
<ele>141.0</ele>
<time>2026-08-11T14:13:55.096Z</time>
</trkpt>
<trkpt lat="49.32605" lon="1.3472225">
<ele>141.0</ele>
<time>2026-08-11T14:13:59.258Z</time>
</trkpt>
<trkpt lat="49.3260011" lon="1.3471832">
<ele>141.0</ele>
<time>2026-08-11T14:14:03.341Z</time>
</trkpt>
<trkpt lat="49.3259489" lon="1.3471404">
<ele>141.0</ele>
<time>2026-08-11T14:14:07.502Z</time>
</trkpt>
<trkpt lat="49.3259032" lon="1.3471295">
<ele>141.0</ele>
<time>2026-08-11T14:14:11.623Z</time>
</trkpt>
<trkpt lat="49.3258575" lon="1.3471162">
<ele>141.0</ele>
<time>2026-08-11T14:14:15.696Z</time>
</trkpt>
<trkpt lat="49.3258138" lon="1.3470952">
<ele>141.0</ele>
<time>2026-08-11T14:14:19.957Z</time>
</trkpt>
<trkpt lat="49.3257703" lon="1.3470809">
<ele>141.0</ele>
<time>2026-08-11T14:14:24.158Z</time>
</trkpt>
<trkpt lat="49.3257324" lon="1.3470707">
<ele>141.0</ele>
<time>2026-08-11T14:14:28.329Z</time>
</trkpt>
<trkpt lat="49.3256842" lon="1.3470537">
<ele>142.0</ele>
<time>2026-08-11T14:14:32.541Z</time>
</trkpt>
<trkpt lat="49.3256392" lon="1.3470363">
<ele>142.0</ele>
<time>2026-08-11T14:14:36.762Z</time>
</trkpt>
<trkpt lat="49.3255991" lon="1.3470296">
<ele>142.0</ele>
<time>2026-08-11T14:14:40.904Z</time>
</trkpt>
<trkpt lat="49.3255586" lon="1.3470475">
<ele>142.0</ele>
<time>2026-08-11T14:14:45.336Z</time>
</trkpt>
<trkpt lat="49.3255146" lon="1.3470488">
<ele>142.0</ele>
<time>2026-08-11T14:14:49.723Z</time>
</trkpt>
<trkpt lat="49.3254591" lon="1.3470233">
<ele>142.0</ele>
<time>2026-08-11T14:14:54.024Z</time>
</trkpt>
<trkpt lat="49.3253996" lon="1.3469947">
<ele>142.0</ele>
<time>2026-08-11T14:14:58.623Z</time>
</trkpt>
<trkpt lat="49.325348" lon="1.3469687">
<ele>142.0</ele>
<time>2026-08-11T14:15:02.715Z</time>
</trkpt>
<trkpt lat="49.3252992" lon="1.3469347">
<ele>142.0</ele>
<time>2026-08-11T14:15:06.757Z</time>
</trkpt>
<trkpt lat="49.3252545" lon="1.346915">
<ele>142.0</ele>
<time>2026-08-11T14:15:10.899Z</time>
</trkpt>
<trkpt lat="49.3252105" lon="1.3468997">
<ele>142.0</ele>
<time>2026-08-11T14:15:15.160Z</time>
</trkpt>
<trkpt lat="49.3251696" lon="1.3468965">
<ele>142.0</ele>
<time>2026-08-11T14:15:19.337Z</time>
</trkpt>
<trkpt lat="49.3251273" lon="1.3468929">
<ele>144.0</ele>
<time>2026-08-11T14:15:23.622Z</time>
</trkpt>
<trkpt lat="49.325071" lon="1.34689">
<ele>144.0</ele>
<time>2026-08-11T14:15:28.320Z</time>
</trkpt>
<trkpt lat="49.3250286" lon="1.3468786">
<ele>144.0</ele>
<time>2026-08-11T14:15:32.336Z</time>
</trkpt>
<trkpt lat="49.3249794" lon="1.3468723">
<ele>144.0</ele>
<time>2026-08-11T14:15:36.822Z</time>
</trkpt>
<trkpt lat="49.3249338" lon="1.3468602">
<ele>144.0</ele>
<time>2026-08-11T14:15:40.944Z</time>
</trkpt>
<trkpt lat="49.3248877" lon="1.3468346">
<ele>144.0</ele>
<time>2026-08-11T14:15:44.996Z</time>
</trkpt>
<trkpt lat="49.3248363" lon="1.3467871">
<ele>144.0</ele>
<time>2026-08-11T14:15:49.277Z</time>
</trkpt>
<trkpt lat="49.3247857" lon="1.3467561">
<ele>144.0</ele>
<time>2026-08-11T14:15:53.598Z</time>
</trkpt>
<trkpt lat="49.3247196" lon="1.3467056">
<ele>144.0</ele>
<time>2026-08-11T14:16:12.324Z</time>
</trkpt>
<trkpt lat="49.3247078" lon="1.3466863">
<ele>144.0</ele>
<time>2026-08-11T14:16:16.337Z</time>
</trkpt>
<trkpt lat="49.3246454" lon="1.3466351">
<ele>144.0</ele>
<time>2026-08-11T14:16:20.683Z</time>
</trkpt>
<trkpt lat="49.3245901" lon="1.3466798">
<ele>144.0</ele>
<time>2026-08-11T14:16:24.775Z</time>
</trkpt>
<trkpt lat="49.3245536" lon="1.3466838">
<ele>144.0</ele>
<time>2026-08-11T14:16:28.957Z</time>
</trkpt>
<trkpt lat="49.3245185" lon="1.346684">
<ele>144.0</ele>
<time>2026-08-11T14:16:33.297Z</time>
</trkpt>
<trkpt lat="49.3245069" lon="1.3467253">
<ele>144.0</ele>
<time>2026-08-11T14:16:37.335Z</time>
</trkpt>
<trkpt lat="49.3244867" lon="1.3467508">
<ele>144.0</ele>
<time>2026-08-11T14:16:41.700Z</time>
</trkpt>
<trkpt lat="49.3244372" lon="1.3467821">
<ele>144.0</ele>
<time>2026-08-11T14:16:46.080Z</time>
</trkpt>
<trkpt lat="49.3243856" lon="1.3467884">
<ele>144.0</ele>
<time>2026-08-11T14:16:50.142Z</time>
</trkpt>
<trkpt lat="49.3243094" lon="1.3465381">
<ele>144.0</ele>
<time>2026-08-11T14:16:54.335Z</time>
</trkpt>
<trkpt lat="49.3242572" lon="1.3464857">
<ele>145.0</ele>
<time>2026-08-11T14:16:58.455Z</time>
</trkpt>
<trkpt lat="49.3242132" lon="1.3464576">
<ele>145.0</ele>
<time>2026-08-11T14:17:02.676Z</time>
</trkpt>
<trkpt lat="49.3241661" lon="1.3464452">
<ele>145.0</ele>
<time>2026-08-11T14:17:07.295Z</time>
</trkpt>
<trkpt lat="49.3241222" lon="1.3464414">
<ele>145.0</ele>
<time>2026-08-11T14:17:11.377Z</time>
</trkpt>
<trkpt lat="49.3240729" lon="1.3464119">
<ele>145.0</ele>
<time>2026-08-11T14:17:16.015Z</time>
</trkpt>
<trkpt lat="49.3240301" lon="1.3463826">
<ele>145.0</ele>
<time>2026-08-11T14:17:20.296Z</time>
</trkpt>
<trkpt lat="49.3239858" lon="1.3463605">
<ele>146.0</ele>
<time>2026-08-11T14:17:24.347Z</time>
</trkpt>
<trkpt lat="49.3239654" lon="1.3463678">
<ele>146.0</ele>
<time>2026-08-11T14:17:29.331Z</time>
</trkpt>
<trkpt lat="49.3239497" lon="1.3463579">
<ele>146.0</ele>
<time>2026-08-11T14:17:33.516Z</time>
</trkpt>
<trkpt lat="49.3238998" lon="1.3463224">
<ele>146.0</ele>
<time>2026-08-11T14:17:37.558Z</time>
</trkpt>
<trkpt lat="49.3238501" lon="1.3462829">
<ele>146.0</ele>
<time>2026-08-11T14:17:41.919Z</time>
</trkpt>
<trkpt lat="49.3237736" lon="1.3461192">
<ele>148.0</ele>
<time>2026-08-11T14:18:26.327Z</time>
</trkpt>
<trkpt lat="49.3237722" lon="1.3461168">
<ele>148.0</ele>
<time>2026-08-11T14:18:30.855Z</time>
</trkpt>
<trkpt lat="49.3237612" lon="1.346123">
<ele>148.0</ele>
<time>2026-08-11T14:18:35.175Z</time>
</trkpt>
<trkpt lat="49.323751" lon="1.3461189">
<ele>148.0</ele>
<time>2026-08-11T14:18:39.326Z</time>
</trkpt>
<trkpt lat="49.3237483" lon="1.3461188">
<ele>150.0</ele>
<time>2026-08-11T14:18:43.330Z</time>
</trkpt>
<trkpt lat="49.3237398" lon="1.3461115">
<ele>150.0</ele>
<time>2026-08-11T14:19:14.656Z</time>
</trkpt>
<trkpt lat="49.3237311" lon="1.3461135">
<ele>150.0</ele>
<time>2026-08-11T14:19:19.332Z</time>
</trkpt>
<trkpt lat="49.3237253" lon="1.3461103">
<ele>150.0</ele>
<time>2026-08-11T14:19:24.334Z</time>
</trkpt>
<trkpt lat="49.323707" lon="1.3461008">
<ele>150.0</ele>
<time>2026-08-11T14:19:28.541Z</time>
</trkpt>
<trkpt lat="49.3236623" lon="1.3460519">
<ele>150.0</ele>
<time>2026-08-11T14:19:32.662Z</time>
</trkpt>
<trkpt lat="49.32362" lon="1.3460512">
<ele>150.0</ele>
<time>2026-08-11T14:19:37.324Z</time>
</trkpt>
<trkpt lat="49.3235551" lon="1.3460642">
<ele>150.0</ele>
<time>2026-08-11T14:19:41.780Z</time>
</trkpt>
<trkpt lat="49.3235029" lon="1.3460772">
<ele>150.0</ele>
<time>2026-08-11T14:19:45.902Z</time>
</trkpt>
<trkpt lat="49.3234523" lon="1.3460794">
<ele>152.0</ele>
<time>2026-08-11T14:19:50.143Z</time>
</trkpt>
<trkpt lat="49.3233285" lon="1.3460718">
<ele>152.0</ele>
<time>2026-08-11T14:20:06.660Z</time>
</trkpt>
<trkpt lat="49.323279" lon="1.3460638">
<ele>152.0</ele>
<time>2026-08-11T14:20:10.901Z</time>
</trkpt>
<trkpt lat="49.3232608" lon="1.3460891">
<ele>152.0</ele>
<time>2026-08-11T14:20:15.182Z</time>
</trkpt>
<trkpt lat="49.3232214" lon="1.3460879">
<ele>152.0</ele>
<time>2026-08-11T14:20:19.327Z</time>
</trkpt>
<trkpt lat="49.3231577" lon="1.3460771">
<ele>152.0</ele>
<time>2026-08-11T14:20:23.555Z</time>
</trkpt>
<trkpt lat="49.3230936" lon="1.3460508">
<ele>152.0</ele>
<time>2026-08-11T14:20:27.776Z</time>
</trkpt>
<trkpt lat="49.323033" lon="1.3460107">
<ele>152.0</ele>
<time>2026-08-11T14:20:31.858Z</time>
</trkpt>
<trkpt lat="49.3229773" lon="1.3459831">
<ele>152.0</ele>
<time>2026-08-11T14:20:36.139Z</time>
</trkpt>
<trkpt lat="49.3229289" lon="1.3459709">
<ele>154.0</ele>
<time>2026-08-11T14:20:40.260Z</time>
</trkpt>
<trkpt lat="49.3228766" lon="1.3459537">
<ele>154.0</ele>
<time>2026-08-11T14:20:44.329Z</time>
</trkpt>
<trkpt lat="49.3228288" lon="1.3459426">
<ele>154.0</ele>
<time>2026-08-11T14:20:48.563Z</time>
</trkpt>
<trkpt lat="49.3227851" lon="1.3459351">
<ele>154.0</ele>
<time>2026-08-11T14:20:52.755Z</time>
</trkpt>
<trkpt lat="49.3227429" lon="1.3459303">
<ele>154.0</ele>
<time>2026-08-11T14:20:56.956Z</time>
</trkpt>
<trkpt lat="49.3226778" lon="1.3459343">
<ele>154.0</ele>
<time>2026-08-11T14:21:01.157Z</time>
</trkpt>
<trkpt lat="49.3226247" lon="1.345944">
<ele>154.0</ele>
<time>2026-08-11T14:21:05.895Z</time>
</trkpt>
<trkpt lat="49.3225852" lon="1.3459434">
<ele>154.0</ele>
<time>2026-08-11T14:21:09.937Z</time>
</trkpt>
<trkpt lat="49.3225363" lon="1.3459469">
<ele>154.0</ele>
<time>2026-08-11T14:21:14.198Z</time>
</trkpt>
<trkpt lat="49.3224764" lon="1.3459599">
<ele>154.0</ele>
<time>2026-08-11T14:21:18.876Z</time>
</trkpt>
<trkpt lat="49.3224202" lon="1.3459601">
<ele>154.0</ele>
<time>2026-08-11T14:21:22.958Z</time>
</trkpt>
<trkpt lat="49.3223656" lon="1.345967">
<ele>154.0</ele>
<time>2026-08-11T14:21:27.060Z</time>
</trkpt>
<trkpt lat="49.3223212" lon="1.3459617">
<ele>154.0</ele>
<time>2026-08-11T14:21:31.261Z</time>
</trkpt>
<trkpt lat="49.3222832" lon="1.3459643">
<ele>154.0</ele>
<time>2026-08-11T14:21:35.330Z</time>
</trkpt>
<trkpt lat="49.3222336" lon="1.3460021">
<ele>153.0</ele>
<time>2026-08-11T14:21:39.564Z</time>
</trkpt>
<trkpt lat="49.3221994" lon="1.3460572">
<ele>153.0</ele>
<time>2026-08-11T14:21:43.855Z</time>
</trkpt>
<trkpt lat="49.3221424" lon="1.346066">
<ele>153.0</ele>
<time>2026-08-11T14:21:47.996Z</time>
</trkpt>
<trkpt lat="49.3220902" lon="1.3460852">
<ele>153.0</ele>
<time>2026-08-11T14:21:52.317Z</time>
</trkpt>
<trkpt lat="49.3220459" lon="1.3460945">
<ele>153.0</ele>
<time>2026-08-11T14:21:56.716Z</time>
</trkpt>
<trkpt lat="49.3220214" lon="1.3460774">
<ele>153.0</ele>
<time>2026-08-11T14:22:00.838Z</time>
</trkpt>
<trkpt lat="49.3219907" lon="1.3459992">
<ele>153.0</ele>
<time>2026-08-11T14:22:05.198Z</time>
</trkpt>
<trkpt lat="49.3220059" lon="1.3459175">
<ele>154.0</ele>
<time>2026-08-11T14:22:09.618Z</time>
</trkpt>
<trkpt lat="49.3220462" lon="1.3458609">
<ele>154.0</ele>
<time>2026-08-11T14:22:13.740Z</time>
</trkpt>
<trkpt lat="49.3220794" lon="1.3458028">
<ele>154.0</ele>
<time>2026-08-11T14:22:17.881Z</time>
</trkpt>
<trkpt lat="49.3221001" lon="1.3457329">
<ele>154.0</ele>
<time>2026-08-11T14:22:22.063Z</time>
</trkpt>
<trkpt lat="49.3221273" lon="1.3456741">
<ele>155.0</ele>
<time>2026-08-11T14:22:26.244Z</time>
</trkpt>
<trkpt lat="49.3221671" lon="1.3456186">
<ele>155.0</ele>
<time>2026-08-11T14:22:30.324Z</time>
</trkpt>
<trkpt lat="49.3222005" lon="1.3455582">
<ele>155.0</ele>
<time>2026-08-11T14:22:34.756Z</time>
</trkpt>
<trkpt lat="49.3222108" lon="1.3454889">
<ele>155.0</ele>
<time>2026-08-11T14:22:39.036Z</time>
</trkpt>
<trkpt lat="49.3222095" lon="1.3454153">
<ele>155.0</ele>
<time>2026-08-11T14:22:43.138Z</time>
</trkpt>
<trkpt lat="49.3222401" lon="1.3453382">
<ele>155.0</ele>
<time>2026-08-11T14:22:47.337Z</time>
</trkpt>
<trkpt lat="49.3222689" lon="1.3452627">
<ele>155.0</ele>
<time>2026-08-11T14:22:51.719Z</time>
</trkpt>
<trkpt lat="49.322303" lon="1.3451911">
<ele>155.0</ele>
<time>2026-08-11T14:22:56.040Z</time>
</trkpt>
<trkpt lat="49.3223307" lon="1.3451298">
<ele>155.0</ele>
<time>2026-08-11T14:23:00.323Z</time>
</trkpt>
<trkpt lat="49.3223504" lon="1.3450585">
<ele>155.0</ele>
<time>2026-08-11T14:23:04.581Z</time>
</trkpt>
<trkpt lat="49.322357" lon="1.3449934">
<ele>155.0</ele>
<time>2026-08-11T14:23:08.723Z</time>
</trkpt>
<trkpt lat="49.3223426" lon="1.344924">
<ele>155.0</ele>
<time>2026-08-11T14:23:12.963Z</time>
</trkpt>
<trkpt lat="49.3223176" lon="1.3448589">
<ele>154.0</ele>
<time>2026-08-11T14:23:17.214Z</time>
</trkpt>
<trkpt lat="49.3223045" lon="1.3447969">
<ele>154.0</ele>
<time>2026-08-11T14:23:21.237Z</time>
</trkpt>
<trkpt lat="49.3223117" lon="1.3447336">
<ele>154.0</ele>
<time>2026-08-11T14:23:25.330Z</time>
</trkpt>
<trkpt lat="49.3223682" lon="1.3446676">
<ele>156.0</ele>
<time>2026-08-11T14:23:29.480Z</time>
</trkpt>
<trkpt lat="49.3224317" lon="1.3446138">
<ele>156.0</ele>
<time>2026-08-11T14:23:33.721Z</time>
</trkpt>
<trkpt lat="49.3224979" lon="1.3445794">
<ele>155.0</ele>
<time>2026-08-11T14:23:37.902Z</time>
</trkpt>
<trkpt lat="49.3225519" lon="1.3445332">
<ele>155.0</ele>
<time>2026-08-11T14:23:42.143Z</time>
</trkpt>
<trkpt lat="49.3225893" lon="1.3444762">
<ele>155.0</ele>
<time>2026-08-11T14:23:46.324Z</time>
</trkpt>
<trkpt lat="49.322632" lon="1.3444118">
<ele>155.0</ele>
<time>2026-08-11T14:23:50.824Z</time>
</trkpt>
<trkpt lat="49.3226587" lon="1.3443505">
<ele>156.0</ele>
<time>2026-08-11T14:23:55.035Z</time>
</trkpt>
<trkpt lat="49.3226841" lon="1.3442858">
<ele>155.0</ele>
<time>2026-08-11T14:23:59.037Z</time>
</trkpt>
<trkpt lat="49.3227112" lon="1.3442233">
<ele>155.0</ele>
<time>2026-08-11T14:24:03.258Z</time>
</trkpt>
<trkpt lat="49.3227454" lon="1.344167">
<ele>155.0</ele>
<time>2026-08-11T14:24:07.459Z</time>
</trkpt>
<trkpt lat="49.3227766" lon="1.3441057">
<ele>155.0</ele>
<time>2026-08-11T14:24:11.740Z</time>
</trkpt>
<trkpt lat="49.3228145" lon="1.3440521">
<ele>155.0</ele>
<time>2026-08-11T14:24:15.862Z</time>
</trkpt>
<trkpt lat="49.3228645" lon="1.3440007">
<ele>154.0</ele>
<time>2026-08-11T14:24:20.103Z</time>
</trkpt>
<trkpt lat="49.3229047" lon="1.3439466">
<ele>154.0</ele>
<time>2026-08-11T14:24:24.175Z</time>
</trkpt>
<trkpt lat="49.3229327" lon="1.3438846">
<ele>154.0</ele>
<time>2026-08-11T14:24:28.296Z</time>
</trkpt>
<trkpt lat="49.3229569" lon="1.3438241">
<ele>154.0</ele>
<time>2026-08-11T14:24:32.458Z</time>
</trkpt>
<trkpt lat="49.3229992" lon="1.3437698">
<ele>154.0</ele>
<time>2026-08-11T14:24:36.559Z</time>
</trkpt>
<trkpt lat="49.3230391" lon="1.3437149">
<ele>154.0</ele>
<time>2026-08-11T14:24:40.741Z</time>
</trkpt>
<trkpt lat="49.3230653" lon="1.3436578">
<ele>154.0</ele>
<time>2026-08-11T14:24:45.001Z</time>
</trkpt>
<trkpt lat="49.3230919" lon="1.3436006">
<ele>154.0</ele>
<time>2026-08-11T14:24:49.183Z</time>
</trkpt>
<trkpt lat="49.3231216" lon="1.343548">
<ele>154.0</ele>
<time>2026-08-11T14:24:53.295Z</time>
</trkpt>
<trkpt lat="49.3231442" lon="1.343497">
<ele>154.0</ele>
<time>2026-08-11T14:24:57.396Z</time>
</trkpt>
<trkpt lat="49.3231759" lon="1.3434467">
<ele>154.0</ele>
<time>2026-08-11T14:25:01.657Z</time>
</trkpt>
<trkpt lat="49.3232084" lon="1.3434022">
<ele>152.0</ele>
<time>2026-08-11T14:25:05.779Z</time>
</trkpt>
<trkpt lat="49.3232431" lon="1.3433533">
<ele>152.0</ele>
<time>2026-08-11T14:25:09.841Z</time>
</trkpt>
<trkpt lat="49.3232842" lon="1.3433076">
<ele>152.0</ele>
<time>2026-08-11T14:25:13.923Z</time>
</trkpt>
<trkpt lat="49.3233237" lon="1.3432507">
<ele>152.0</ele>
<time>2026-08-11T14:25:18.074Z</time>
</trkpt>
<trkpt lat="49.3233748" lon="1.343184">
<ele>152.0</ele>
<time>2026-08-11T14:25:22.216Z</time>
</trkpt>
<trkpt lat="49.3234125" lon="1.3431256">
<ele>152.0</ele>
<time>2026-08-11T14:25:26.331Z</time>
</trkpt>
<trkpt lat="49.3234344" lon="1.343059">
<ele>152.0</ele>
<time>2026-08-11T14:25:30.420Z</time>
</trkpt>
<trkpt lat="49.3234621" lon="1.3429878">
<ele>152.0</ele>
<time>2026-08-11T14:25:34.839Z</time>
</trkpt>
<trkpt lat="49.3234854" lon="1.3429224">
<ele>150.0</ele>
<time>2026-08-11T14:25:38.881Z</time>
</trkpt>
<trkpt lat="49.3234975" lon="1.3428479">
<ele>150.0</ele>
<time>2026-08-11T14:25:43.142Z</time>
</trkpt>
<trkpt lat="49.3234917" lon="1.3427711">
<ele>150.0</ele>
<time>2026-08-11T14:25:47.194Z</time>
</trkpt>
<trkpt lat="49.3234819" lon="1.3426942">
<ele>150.0</ele>
<time>2026-08-11T14:25:51.329Z</time>
</trkpt>
<trkpt lat="49.3234779" lon="1.3426267">
<ele>149.0</ele>
<time>2026-08-11T14:25:55.537Z</time>
</trkpt>
<trkpt lat="49.323476" lon="1.3425572">
<ele>149.0</ele>
<time>2026-08-11T14:25:59.877Z</time>
</trkpt>
<trkpt lat="49.3235111" lon="1.3424936">
<ele>149.0</ele>
<time>2026-08-11T14:26:03.999Z</time>
</trkpt>
<trkpt lat="49.3235652" lon="1.3424497">
<ele>149.0</ele>
<time>2026-08-11T14:26:08.299Z</time>
</trkpt>
<trkpt lat="49.3236074" lon="1.3424038">
<ele>149.0</ele>
<time>2026-08-11T14:26:12.938Z</time>
</trkpt>
<trkpt lat="49.3236318" lon="1.3423505">
<ele>148.0</ele>
<time>2026-08-11T14:26:17.039Z</time>
</trkpt>
<trkpt lat="49.323641" lon="1.3422923">
<ele>148.0</ele>
<time>2026-08-11T14:26:21.221Z</time>
</trkpt>
<trkpt lat="49.3236559" lon="1.3422333">
<ele>148.0</ele>
<time>2026-08-11T14:26:25.332Z</time>
</trkpt>
<trkpt lat="49.3236974" lon="1.3421676">
<ele>148.0</ele>
<time>2026-08-11T14:26:29.722Z</time>
</trkpt>
<trkpt lat="49.32374" lon="1.3421117">
<ele>148.0</ele>
<time>2026-08-11T14:26:33.735Z</time>
</trkpt>
<trkpt lat="49.3237801" lon="1.342065">
<ele>147.0</ele>
<time>2026-08-11T14:26:37.995Z</time>
</trkpt>
<trkpt lat="49.3238234" lon="1.3420186">
<ele>147.0</ele>
<time>2026-08-11T14:26:42.038Z</time>
</trkpt>
<trkpt lat="49.3238305" lon="1.3419606">
<ele>147.0</ele>
<time>2026-08-11T14:26:46.219Z</time>
</trkpt>
<trkpt lat="49.3238602" lon="1.3419269">
<ele>147.0</ele>
<time>2026-08-11T14:26:50.324Z</time>
</trkpt>
<trkpt lat="49.3238967" lon="1.341881">
<ele>147.0</ele>
<time>2026-08-11T14:26:54.330Z</time>
</trkpt>
<trkpt lat="49.3239437" lon="1.3418261">
<ele>147.0</ele>
<time>2026-08-11T14:26:58.663Z</time>
</trkpt>
<trkpt lat="49.3239969" lon="1.3417822">
<ele>148.0</ele>
<time>2026-08-11T14:27:02.894Z</time>
</trkpt>
<trkpt lat="49.3240563" lon="1.3417531">
<ele>146.0</ele>
<time>2026-08-11T14:27:07.036Z</time>
</trkpt>
<trkpt lat="49.3241152" lon="1.3417218">
<ele>146.0</ele>
<time>2026-08-11T14:27:11.217Z</time>
</trkpt>
<trkpt lat="49.324157" lon="1.3416872">
<ele>146.0</ele>
<time>2026-08-11T14:27:15.326Z</time>
</trkpt>
<trkpt lat="49.3241799" lon="1.3416282">
<ele>146.0</ele>
<time>2026-08-11T14:27:19.619Z</time>
</trkpt>
<trkpt lat="49.3242116" lon="1.3415801">
<ele>146.0</ele>
<time>2026-08-11T14:27:23.979Z</time>
</trkpt>
<trkpt lat="49.3242613" lon="1.3415572">
<ele>146.0</ele>
<time>2026-08-11T14:27:28.200Z</time>
</trkpt>
<trkpt lat="49.3242791" lon="1.3415002">
<ele>144.0</ele>
<time>2026-08-11T14:27:32.223Z</time>
</trkpt>
<trkpt lat="49.3243046" lon="1.3414551">
<ele>144.0</ele>
<time>2026-08-11T14:27:36.331Z</time>
</trkpt>
<trkpt lat="49.3243498" lon="1.3414104">
<ele>144.0</ele>
<time>2026-08-11T14:27:40.595Z</time>
</trkpt>
<trkpt lat="49.3243938" lon="1.3413654">
<ele>144.0</ele>
<time>2026-08-11T14:27:45.329Z</time>
</trkpt>
<trkpt lat="49.3244022" lon="1.3413165">
<ele>144.0</ele>
<time>2026-08-11T14:27:49.842Z</time>
</trkpt>
<trkpt lat="49.3244394" lon="1.3412681">
<ele>144.0</ele>
<time>2026-08-11T14:27:54.182Z</time>
</trkpt>
<trkpt lat="49.3244686" lon="1.3412173">
<ele>143.0</ele>
<time>2026-08-11T14:27:58.264Z</time>
</trkpt>
<trkpt lat="49.3245222" lon="1.3411621">
<ele>143.0</ele>
<time>2026-08-11T14:28:02.296Z</time>
</trkpt>
<trkpt lat="49.3245982" lon="1.3411339">
<ele>143.0</ele>
<time>2026-08-11T14:28:06.517Z</time>
</trkpt>
<trkpt lat="49.3246607" lon="1.3411452">
<ele>143.0</ele>
<time>2026-08-11T14:28:10.718Z</time>
</trkpt>
<trkpt lat="49.3247274" lon="1.3411598">
<ele>143.0</ele>
<time>2026-08-11T14:28:14.900Z</time>
</trkpt>
<trkpt lat="49.3247704" lon="1.3411319">
<ele>143.0</ele>
<time>2026-08-11T14:28:19.101Z</time>
</trkpt>
<trkpt lat="49.3248092" lon="1.3410815">
<ele>143.0</ele>
<time>2026-08-11T14:28:23.242Z</time>
</trkpt>
<trkpt lat="49.3248533" lon="1.3410528">
<ele>143.0</ele>
<time>2026-08-11T14:28:27.563Z</time>
</trkpt>
<trkpt lat="49.3249032" lon="1.3410202">
<ele>144.0</ele>
<time>2026-08-11T14:28:31.694Z</time>
</trkpt>
<trkpt lat="49.3249501" lon="1.340989">
<ele>144.0</ele>
<time>2026-08-11T14:28:35.836Z</time>
</trkpt>
<trkpt lat="49.3249983" lon="1.3409536">
<ele>143.0</ele>
<time>2026-08-11T14:28:40.116Z</time>
</trkpt>
<trkpt lat="49.3250311" lon="1.3409089">
<ele>143.0</ele>
<time>2026-08-11T14:28:44.330Z</time>
</trkpt>
<trkpt lat="49.3250702" lon="1.3408708">
<ele>143.0</ele>
<time>2026-08-11T14:28:48.499Z</time>
</trkpt>
<trkpt lat="49.3251098" lon="1.3408336">
<ele>143.0</ele>
<time>2026-08-11T14:28:52.760Z</time>
</trkpt>
<trkpt lat="49.3251494" lon="1.3407975">
<ele>144.0</ele>
<time>2026-08-11T14:28:56.921Z</time>
</trkpt>
<trkpt lat="49.3251957" lon="1.3407694">
<ele>144.0</ele>
<time>2026-08-11T14:29:01.023Z</time>
</trkpt>
<trkpt lat="49.3252397" lon="1.3407297">
<ele>144.0</ele>
<time>2026-08-11T14:29:05.284Z</time>
</trkpt>
<trkpt lat="49.325273" lon="1.3406748">
<ele>144.0</ele>
<time>2026-08-11T14:29:09.415Z</time>
</trkpt>
<trkpt lat="49.3252974" lon="1.3406107">
<ele>144.0</ele>
<time>2026-08-11T14:29:13.676Z</time>
</trkpt>
<trkpt lat="49.3253179" lon="1.3405309">
<ele>144.0</ele>
<time>2026-08-11T14:29:17.758Z</time>
</trkpt>
<trkpt lat="49.3253428" lon="1.3404679">
<ele>144.0</ele>
<time>2026-08-11T14:29:22.038Z</time>
</trkpt>
<trkpt lat="49.3253788" lon="1.3403912">
<ele>144.0</ele>
<time>2026-08-11T14:29:26.120Z</time>
</trkpt>
<trkpt lat="49.3253998" lon="1.3403033">
<ele>144.0</ele>
<time>2026-08-11T14:29:30.328Z</time>
</trkpt>
<trkpt lat="49.3254199" lon="1.340216">
<ele>144.0</ele>
<time>2026-08-11T14:29:34.761Z</time>
</trkpt>
<trkpt lat="49.3254426" lon="1.3401418">
<ele>144.0</ele>
<time>2026-08-11T14:29:39.161Z</time>
</trkpt>
<trkpt lat="49.325473" lon="1.3400773">
<ele>144.0</ele>
<time>2026-08-11T14:29:43.336Z</time>
</trkpt>
<trkpt lat="49.3254959" lon="1.3400042">
<ele>144.0</ele>
<time>2026-08-11T14:29:47.841Z</time>
</trkpt>
<trkpt lat="49.3255173" lon="1.3399466">
<ele>144.0</ele>
<time>2026-08-11T14:29:52.161Z</time>
</trkpt>
<trkpt lat="49.325543" lon="1.3399003">
<ele>144.0</ele>
<time>2026-08-11T14:29:56.330Z</time>
</trkpt>
<trkpt lat="49.3255717" lon="1.3398468">
<ele>145.0</ele>
<time>2026-08-11T14:30:00.703Z</time>
</trkpt>
<trkpt lat="49.3256059" lon="1.3398025">
<ele>145.0</ele>
<time>2026-08-11T14:30:05.003Z</time>
</trkpt>
<trkpt lat="49.3256319" lon="1.339743">
<ele>145.0</ele>
<time>2026-08-11T14:30:09.284Z</time>
</trkpt>
<trkpt lat="49.325653" lon="1.3396824">
<ele>145.0</ele>
<time>2026-08-11T14:30:13.330Z</time>
</trkpt>
<trkpt lat="49.3256956" lon="1.3396214">
<ele>147.0</ele>
<time>2026-08-11T14:30:17.736Z</time>
</trkpt>
<trkpt lat="49.3257334" lon="1.3395387">
<ele>148.0</ele>
<time>2026-08-11T14:30:22.036Z</time>
</trkpt>
<trkpt lat="49.3257417" lon="1.3394713">
<ele>148.0</ele>
<time>2026-08-11T14:30:26.158Z</time>
</trkpt>
<trkpt lat="49.3257465" lon="1.3393987">
<ele>148.0</ele>
<time>2026-08-11T14:30:30.322Z</time>
</trkpt>
<trkpt lat="49.3257626" lon="1.339331">
<ele>148.0</ele>
<time>2026-08-11T14:30:34.659Z</time>
</trkpt>
<trkpt lat="49.3257912" lon="1.3392798">
<ele>150.0</ele>
<time>2026-08-11T14:30:39Z</time>
</trkpt>
<trkpt lat="49.3258031" lon="1.3392155">
<ele>150.0</ele>
<time>2026-08-11T14:30:43.330Z</time>
</trkpt>
<trkpt lat="49.3258285" lon="1.3391683">
<ele>150.0</ele>
<time>2026-08-11T14:30:47.720Z</time>
</trkpt>
<trkpt lat="49.3258359" lon="1.3391063">
<ele>150.0</ele>
<time>2026-08-11T14:30:51.861Z</time>
</trkpt>
<trkpt lat="49.3258389" lon="1.3390285">
<ele>150.0</ele>
<time>2026-08-11T14:30:56.102Z</time>
</trkpt>
<trkpt lat="49.32584" lon="1.3389465">
<ele>152.0</ele>
<time>2026-08-11T14:31:00.322Z</time>
</trkpt>
<trkpt lat="49.3258423" lon="1.3388707">
<ele>152.0</ele>
<time>2026-08-11T14:31:04.643Z</time>
</trkpt>
<trkpt lat="49.325848" lon="1.3387979">
<ele>152.0</ele>
<time>2026-08-11T14:31:08.924Z</time>
</trkpt>
<trkpt lat="49.3258397" lon="1.3387296">
<ele>154.0</ele>
<time>2026-08-11T14:31:13.075Z</time>
</trkpt>
<trkpt lat="49.3258323" lon="1.338661">
<ele>154.0</ele>
<time>2026-08-11T14:31:17.237Z</time>
</trkpt>
<trkpt lat="49.3258229" lon="1.3385842">
<ele>154.0</ele>
<time>2026-08-11T14:31:21.696Z</time>
</trkpt>
<trkpt lat="49.3258134" lon="1.338494">
<ele>154.0</ele>
<time>2026-08-11T14:31:25.838Z</time>
</trkpt>
<trkpt lat="49.3258091" lon="1.3384185">
<ele>155.0</ele>
<time>2026-08-11T14:31:30.118Z</time>
</trkpt>
<trkpt lat="49.3258267" lon="1.338339">
<ele>155.0</ele>
<time>2026-08-11T14:31:34.518Z</time>
</trkpt>
<trkpt lat="49.3258614" lon="1.3382685">
<ele>155.0</ele>
<time>2026-08-11T14:31:38.997Z</time>
</trkpt>
<trkpt lat="49.3258985" lon="1.3381621">
<ele>156.0</ele>
<time>2026-08-11T14:32:22.326Z</time>
</trkpt>
<trkpt lat="49.3259021" lon="1.3381584">
<ele>156.0</ele>
<time>2026-08-11T14:32:27.327Z</time>
</trkpt>
<trkpt lat="49.3259049" lon="1.3381514">
<ele>156.0</ele>
<time>2026-08-11T14:32:32.324Z</time>
</trkpt>
<trkpt lat="49.325918" lon="1.3381446">
<ele>156.0</ele>
<time>2026-08-11T14:32:36.661Z</time>
</trkpt>
<trkpt lat="49.3259372" lon="1.3380651">
<ele>156.0</ele>
<time>2026-08-11T14:32:41.081Z</time>
</trkpt>
<trkpt lat="49.3259596" lon="1.3379912">
<ele>156.0</ele>
<time>2026-08-11T14:32:45.327Z</time>
</trkpt>
<trkpt lat="49.3259803" lon="1.3379078">
<ele>155.0</ele>
<time>2026-08-11T14:32:49.721Z</time>
</trkpt>
<trkpt lat="49.3259959" lon="1.3378302">
<ele>155.0</ele>
<time>2026-08-11T14:32:53.982Z</time>
</trkpt>
<trkpt lat="49.32602" lon="1.3377602">
<ele>155.0</ele>
<time>2026-08-11T14:32:58.330Z</time>
</trkpt>
<trkpt lat="49.3260482" lon="1.3377019">
<ele>155.0</ele>
<time>2026-08-11T14:33:02.702Z</time>
</trkpt>
<trkpt lat="49.3260664" lon="1.3376328">
<ele>154.0</ele>
<time>2026-08-11T14:33:06.774Z</time>
</trkpt>
<trkpt lat="49.3260847" lon="1.3375702">
<ele>154.0</ele>
<time>2026-08-11T14:33:11.124Z</time>
</trkpt>
<trkpt lat="49.3261021" lon="1.3375061">
<ele>154.0</ele>
<time>2026-08-11T14:33:15.325Z</time>
</trkpt>
<trkpt lat="49.3261363" lon="1.3374414">
<ele>154.0</ele>
<time>2026-08-11T14:33:19.576Z</time>
</trkpt>
<trkpt lat="49.3261812" lon="1.3373788">
<ele>154.0</ele>
<time>2026-08-11T14:33:23.717Z</time>
</trkpt>
<trkpt lat="49.3262174" lon="1.3373228">
<ele>153.0</ele>
<time>2026-08-11T14:33:27.859Z</time>
</trkpt>
<trkpt lat="49.3262314" lon="1.3372564">
<ele>153.0</ele>
<time>2026-08-11T14:33:32.120Z</time>
</trkpt>
<trkpt lat="49.3262392" lon="1.3371914">
<ele>153.0</ele>
<time>2026-08-11T14:33:36.182Z</time>
</trkpt>
<trkpt lat="49.3262591" lon="1.3371382">
<ele>155.0</ele>
<time>2026-08-11T14:33:40.327Z</time>
</trkpt>
<trkpt lat="49.3263043" lon="1.3370836">
<ele>155.0</ele>
<time>2026-08-11T14:33:44.334Z</time>
</trkpt>
<trkpt lat="49.3263439" lon="1.3370401">
<ele>154.0</ele>
<time>2026-08-11T14:33:48.636Z</time>
</trkpt>
<trkpt lat="49.3263712" lon="1.3369907">
<ele>154.0</ele>
<time>2026-08-11T14:33:52.718Z</time>
</trkpt>
<trkpt lat="49.3264032" lon="1.3369385">
<ele>154.0</ele>
<time>2026-08-11T14:33:56.859Z</time>
</trkpt>
<trkpt lat="49.3264438" lon="1.3368943">
<ele>154.0</ele>
<time>2026-08-11T14:34:00.941Z</time>
</trkpt>
<trkpt lat="49.3264879" lon="1.3368544">
<ele>154.0</ele>
<time>2026-08-11T14:34:05.142Z</time>
</trkpt>
<trkpt lat="49.326514" lon="1.3368039">
<ele>154.0</ele>
<time>2026-08-11T14:34:09.224Z</time>
</trkpt>
<trkpt lat="49.3265288" lon="1.3367453">
<ele>154.0</ele>
<time>2026-08-11T14:34:13.330Z</time>
</trkpt>
<trkpt lat="49.3265539" lon="1.3366911">
<ele>154.0</ele>
<time>2026-08-11T14:34:17.924Z</time>
</trkpt>
<trkpt lat="49.326584" lon="1.33664">
<ele>154.0</ele>
<time>2026-08-11T14:34:22.542Z</time>
</trkpt>
<trkpt lat="49.3266305" lon="1.336581">
<ele>154.0</ele>
<time>2026-08-11T14:34:27.220Z</time>
</trkpt>
<trkpt lat="49.3266781" lon="1.3365339">
<ele>154.0</ele>
<time>2026-08-11T14:34:31.302Z</time>
</trkpt>
<trkpt lat="49.3267003" lon="1.3364737">
<ele>153.0</ele>
<time>2026-08-11T14:34:35.920Z</time>
</trkpt>
<trkpt lat="49.3267252" lon="1.3364121">
<ele>153.0</ele>
<time>2026-08-11T14:34:40.002Z</time>
</trkpt>
<trkpt lat="49.3267526" lon="1.336351">
<ele>153.0</ele>
<time>2026-08-11T14:34:44.123Z</time>
</trkpt>
<trkpt lat="49.3267932" lon="1.3362756">
<ele>153.0</ele>
<time>2026-08-11T14:34:48.195Z</time>
</trkpt>
<trkpt lat="49.3268216" lon="1.3362002">
<ele>152.0</ele>
<time>2026-08-11T14:34:52.257Z</time>
</trkpt>
<trkpt lat="49.3268452" lon="1.3361343">
<ele>152.0</ele>
<time>2026-08-11T14:34:56.327Z</time>
</trkpt>
<trkpt lat="49.3268636" lon="1.3360727">
<ele>152.0</ele>
<time>2026-08-11T14:35:00.481Z</time>
</trkpt>
<trkpt lat="49.3268931" lon="1.3359979">
<ele>152.0</ele>
<time>2026-08-11T14:35:04.642Z</time>
</trkpt>
<trkpt lat="49.3269305" lon="1.335937">
<ele>153.0</ele>
<time>2026-08-11T14:35:08.784Z</time>
</trkpt>
<trkpt lat="49.326945" lon="1.3358645">
<ele>153.0</ele>
<time>2026-08-11T14:35:12.895Z</time>
</trkpt>
<trkpt lat="49.3269462" lon="1.3357862">
<ele>153.0</ele>
<time>2026-08-11T14:35:17.331Z</time>
</trkpt>
<trkpt lat="49.3269511" lon="1.3357269">
<ele>153.0</ele>
<time>2026-08-11T14:35:21.476Z</time>
</trkpt>
<trkpt lat="49.3269779" lon="1.3356618">
<ele>153.0</ele>
<time>2026-08-11T14:35:25.637Z</time>
</trkpt>
<trkpt lat="49.3270046" lon="1.3355941">
<ele>153.0</ele>
<time>2026-08-11T14:35:29.699Z</time>
</trkpt>
<trkpt lat="49.327035" lon="1.3355321">
<ele>153.0</ele>
<time>2026-08-11T14:35:33.861Z</time>
</trkpt>
<trkpt lat="49.3270542" lon="1.3354679">
<ele>153.0</ele>
<time>2026-08-11T14:35:38.062Z</time>
</trkpt>
<trkpt lat="49.327071" lon="1.3354004">
<ele>152.0</ele>
<time>2026-08-11T14:35:42.263Z</time>
</trkpt>
<trkpt lat="49.3270845" lon="1.3353173">
<ele>152.0</ele>
<time>2026-08-11T14:35:46.861Z</time>
</trkpt>
<trkpt lat="49.327123" lon="1.3352483">
<ele>152.0</ele>
<time>2026-08-11T14:35:50.983Z</time>
</trkpt>
<trkpt lat="49.3271758" lon="1.3351898">
<ele>152.0</ele>
<time>2026-08-11T14:35:55.114Z</time>
</trkpt>
<trkpt lat="49.3272126" lon="1.3351276">
<ele>151.0</ele>
<time>2026-08-11T14:35:59.295Z</time>
</trkpt>
<trkpt lat="49.3272365" lon="1.3350463">
<ele>151.0</ele>
<time>2026-08-11T14:36:03.324Z</time>
</trkpt>
<trkpt lat="49.3272543" lon="1.3349801">
<ele>151.0</ele>
<time>2026-08-11T14:36:07.326Z</time>
</trkpt>
<trkpt lat="49.3272746" lon="1.3349128">
<ele>151.0</ele>
<time>2026-08-11T14:36:12.097Z</time>
</trkpt>
<trkpt lat="49.3273005" lon="1.3348528">
<ele>150.0</ele>
<time>2026-08-11T14:36:16.179Z</time>
</trkpt>
<trkpt lat="49.3273255" lon="1.3347864">
<ele>150.0</ele>
<time>2026-08-11T14:36:20.837Z</time>
</trkpt>
<trkpt lat="49.3273509" lon="1.3347296">
<ele>150.0</ele>
<time>2026-08-11T14:36:24.959Z</time>
</trkpt>
<trkpt lat="49.3273775" lon="1.3346669">
<ele>151.0</ele>
<time>2026-08-11T14:36:29.021Z</time>
</trkpt>
<trkpt lat="49.3274112" lon="1.3346007">
<ele>151.0</ele>
<time>2026-08-11T14:36:33.619Z</time>
</trkpt>
<trkpt lat="49.3274469" lon="1.3345334">
<ele>150.0</ele>
<time>2026-08-11T14:36:37.701Z</time>
</trkpt>
<trkpt lat="49.3274826" lon="1.3344707">
<ele>150.0</ele>
<time>2026-08-11T14:36:41.803Z</time>
</trkpt>
<trkpt lat="49.3275178" lon="1.3344026">
<ele>150.0</ele>
<time>2026-08-11T14:36:46.328Z</time>
</trkpt>
<trkpt lat="49.3275547" lon="1.3343433">
<ele>150.0</ele>
<time>2026-08-11T14:36:50.721Z</time>
</trkpt>
<trkpt lat="49.3275771" lon="1.3342887">
<ele>150.0</ele>
<time>2026-08-11T14:36:54.902Z</time>
</trkpt>
<trkpt lat="49.3275866" lon="1.3342156">
<ele>150.0</ele>
<time>2026-08-11T14:36:58.954Z</time>
</trkpt>
<trkpt lat="49.3275889" lon="1.3341389">
<ele>150.0</ele>
<time>2026-08-11T14:37:03.155Z</time>
</trkpt>
<trkpt lat="49.3276115" lon="1.3340645">
<ele>150.0</ele>
<time>2026-08-11T14:37:07.198Z</time>
</trkpt>
<trkpt lat="49.327648" lon="1.3340139">
<ele>152.0</ele>
<time>2026-08-11T14:37:11.327Z</time>
</trkpt>
<trkpt lat="49.3276951" lon="1.3339528">
<ele>152.0</ele>
<time>2026-08-11T14:37:16.037Z</time>
</trkpt>
<trkpt lat="49.3277345" lon="1.3339119">
<ele>152.0</ele>
<time>2026-08-11T14:37:20.119Z</time>
</trkpt>
<trkpt lat="49.3277766" lon="1.3338561">
<ele>152.0</ele>
<time>2026-08-11T14:37:24.300Z</time>
</trkpt>
<trkpt lat="49.3278104" lon="1.3337933">
<ele>152.0</ele>
<time>2026-08-11T14:37:28.330Z</time>
</trkpt>
<trkpt lat="49.3278349" lon="1.3337312">
<ele>150.0</ele>
<time>2026-08-11T14:37:33.059Z</time>
</trkpt>
<trkpt lat="49.3278659" lon="1.3336928">
<ele>150.0</ele>
<time>2026-08-11T14:37:37.241Z</time>
</trkpt>
<trkpt lat="49.3279079" lon="1.333659">
<ele>150.0</ele>
<time>2026-08-11T14:37:41.323Z</time>
</trkpt>
<trkpt lat="49.3279402" lon="1.3336162">
<ele>151.0</ele>
<time>2026-08-11T14:37:45.329Z</time>
</trkpt>
<trkpt lat="49.3279686" lon="1.3336014">
<ele>151.0</ele>
<time>2026-08-11T14:37:49.476Z</time>
</trkpt>
<trkpt lat="49.3280124" lon="1.333573">
<ele>151.0</ele>
<time>2026-08-11T14:37:53.777Z</time>
</trkpt>
<trkpt lat="49.3280569" lon="1.3335204">
<ele>151.0</ele>
<time>2026-08-11T14:37:57.958Z</time>
</trkpt>
<trkpt lat="49.3281075" lon="1.3334712">
<ele>149.0</ele>
<time>2026-08-11T14:38:02.060Z</time>
</trkpt>
<trkpt lat="49.3281556" lon="1.333423">
<ele>149.0</ele>
<time>2026-08-11T14:38:06.102Z</time>
</trkpt>
<trkpt lat="49.3281873" lon="1.3333715">
<ele>149.0</ele>
<time>2026-08-11T14:38:10.223Z</time>
</trkpt>
<trkpt lat="49.3282151" lon="1.333321">
<ele>148.0</ele>
<time>2026-08-11T14:38:14.338Z</time>
</trkpt>
<trkpt lat="49.3282526" lon="1.333298">
<ele>148.0</ele>
<time>2026-08-11T14:38:19.003Z</time>
</trkpt>
<trkpt lat="49.3282838" lon="1.3332202">
<ele>148.0</ele>
<time>2026-08-11T14:38:23.075Z</time>
</trkpt>
<trkpt lat="49.3283131" lon="1.3331576">
<ele>147.0</ele>
<time>2026-08-11T14:38:27.584Z</time>
</trkpt>
<trkpt lat="49.3283375" lon="1.3330986">
<ele>147.0</ele>
<time>2026-08-11T14:38:31.884Z</time>
</trkpt>
<trkpt lat="49.3283702" lon="1.3330334">
<ele>147.0</ele>
<time>2026-08-11T14:38:36.502Z</time>
</trkpt>
<trkpt lat="49.3283985" lon="1.3329776">
<ele>147.0</ele>
<time>2026-08-11T14:38:40.495Z</time>
</trkpt>
<trkpt lat="49.3284121" lon="1.3329235">
<ele>147.0</ele>
<time>2026-08-11T14:38:44.616Z</time>
</trkpt>
<trkpt lat="49.3284104" lon="1.3328828">
<ele>148.0</ele>
<time>2026-08-11T14:38:48.698Z</time>
</trkpt>
<trkpt lat="49.3284044" lon="1.3328281">
<ele>148.0</ele>
<time>2026-08-11T14:38:52.780Z</time>
</trkpt>
<trkpt lat="49.3283806" lon="1.3327705">
<ele>148.0</ele>
<time>2026-08-11T14:38:57.080Z</time>
</trkpt>
<trkpt lat="49.3283867" lon="1.3327093">
<ele>148.0</ele>
<time>2026-08-11T14:39:01.222Z</time>
</trkpt>
<trkpt lat="49.3283766" lon="1.3326503">
<ele>148.0</ele>
<time>2026-08-11T14:39:05.622Z</time>
</trkpt>
<trkpt lat="49.3283437" lon="1.332589">
<ele>149.0</ele>
<time>2026-08-11T14:39:09.922Z</time>
</trkpt>
<trkpt lat="49.3283046" lon="1.3325349">
<ele>149.0</ele>
<time>2026-08-11T14:39:14.123Z</time>
</trkpt>
<trkpt lat="49.328545" lon="1.3323784">
<ele>151.0</ele>
<time>2026-08-11T14:39:18.326Z</time>
</trkpt>
<trkpt lat="49.3285562" lon="1.3322761">
<ele>152.0</ele>
<time>2026-08-11T14:39:22.823Z</time>
</trkpt>
<trkpt lat="49.328576" lon="1.332181">
<ele>152.0</ele>
<time>2026-08-11T14:39:27.044Z</time>
</trkpt>
<trkpt lat="49.3285825" lon="1.3321258">
<ele>152.0</ele>
<time>2026-08-11T14:39:31.156Z</time>
</trkpt>
<trkpt lat="49.3285934" lon="1.3320636">
<ele>152.0</ele>
<time>2026-08-11T14:39:35.198Z</time>
</trkpt>
<trkpt lat="49.3285794" lon="1.3320131">
<ele>152.0</ele>
<time>2026-08-11T14:39:39.657Z</time>
</trkpt>
<trkpt lat="49.328576" lon="1.3319607">
<ele>152.0</ele>
<time>2026-08-11T14:39:44.328Z</time>
</trkpt>
<trkpt lat="49.3286108" lon="1.3319506">
<ele>152.0</ele>
<time>2026-08-11T14:39:59.331Z</time>
</trkpt>
<trkpt lat="49.32864" lon="1.3319512">
<ele>152.0</ele>
<time>2026-08-11T14:40:03.331Z</time>
</trkpt>
<trkpt lat="49.3286876" lon="1.3319608">
<ele>152.0</ele>
<time>2026-08-11T14:40:07.644Z</time>
</trkpt>
<trkpt lat="49.3287157" lon="1.3319653">
<ele>152.0</ele>
<time>2026-08-11T14:40:11.696Z</time>
</trkpt>
<trkpt lat="49.3287375" lon="1.3319563">
<ele>152.0</ele>
<time>2026-08-11T14:40:16.294Z</time>
</trkpt>
<trkpt lat="49.3287532" lon="1.331953">
<ele>154.0</ele>
<time>2026-08-11T14:40:20.863Z</time>
</trkpt>
<trkpt lat="49.3287797" lon="1.3319807">
<ele>154.0</ele>
<time>2026-08-11T14:40:25.323Z</time>
</trkpt>
<trkpt lat="49.3288091" lon="1.3320023">
<ele>154.0</ele>
<time>2026-08-11T14:40:29.323Z</time>
</trkpt>
<trkpt lat="49.3288468" lon="1.3320294">
<ele>154.0</ele>
<time>2026-08-11T14:40:33.714Z</time>
</trkpt>
<trkpt lat="49.3288852" lon="1.3320773">
<ele>154.0</ele>
<time>2026-08-11T14:40:38.104Z</time>
</trkpt>
<trkpt lat="49.3289207" lon="1.3321524">
<ele>154.0</ele>
<time>2026-08-11T14:40:42.330Z</time>
</trkpt>
<trkpt lat="49.3289593" lon="1.3322287">
<ele>154.0</ele>
<time>2026-08-11T14:40:46.963Z</time>
</trkpt>
<trkpt lat="49.3289926" lon="1.3322849">
<ele>154.0</ele>
<time>2026-08-11T14:40:51.332Z</time>
</trkpt>
<trkpt lat="49.3290259" lon="1.3323296">
<ele>154.0</ele>
<time>2026-08-11T14:40:55.782Z</time>
</trkpt>
<trkpt lat="49.3290674" lon="1.3323699">
<ele>155.0</ele>
<time>2026-08-11T14:41:00.142Z</time>
</trkpt>
<trkpt lat="49.3291124" lon="1.3324105">
<ele>155.0</ele>
<time>2026-08-11T14:41:04.780Z</time>
</trkpt>
<trkpt lat="49.3291544" lon="1.3324715">
<ele>155.0</ele>
<time>2026-08-11T14:41:09.081Z</time>
</trkpt>
<trkpt lat="49.3291849" lon="1.3325612">
<ele>155.0</ele>
<time>2026-08-11T14:41:13.599Z</time>
</trkpt>
<trkpt lat="49.3292147" lon="1.3326373">
<ele>155.0</ele>
<time>2026-08-11T14:41:18.118Z</time>
</trkpt>
<trkpt lat="49.3292506" lon="1.3326922">
<ele>154.0</ele>
<time>2026-08-11T14:41:22.637Z</time>
</trkpt>
<trkpt lat="49.3292923" lon="1.3327359">
<ele>154.0</ele>
<time>2026-08-11T14:41:27.077Z</time>
</trkpt>
<trkpt lat="49.329337" lon="1.3327931">
<ele>156.0</ele>
<time>2026-08-11T14:41:31.754Z</time>
</trkpt>
<trkpt lat="49.3293785" lon="1.3328314">
<ele>156.0</ele>
<time>2026-08-11T14:41:36.114Z</time>
</trkpt>
<trkpt lat="49.3294219" lon="1.3328739">
<ele>156.0</ele>
<time>2026-08-11T14:41:40.643Z</time>
</trkpt>
<trkpt lat="49.3294617" lon="1.3329099">
<ele>156.0</ele>
<time>2026-08-11T14:41:45.063Z</time>
</trkpt>
<trkpt lat="49.3295034" lon="1.3329481">
<ele>154.0</ele>
<time>2026-08-11T14:41:49.323Z</time>
</trkpt>
<trkpt lat="49.3295475" lon="1.332977">
<ele>154.0</ele>
<time>2026-08-11T14:41:53.723Z</time>
</trkpt>
<trkpt lat="49.3295937" lon="1.3329964">
<ele>153.0</ele>
<time>2026-08-11T14:41:58.262Z</time>
</trkpt>
<trkpt lat="49.3296412" lon="1.3330163">
<ele>153.0</ele>
<time>2026-08-11T14:42:02.661Z</time>
</trkpt>
<trkpt lat="49.3296867" lon="1.3330523">
<ele>153.0</ele>
<time>2026-08-11T14:42:07.041Z</time>
</trkpt>
<trkpt lat="49.3297185" lon="1.3330891">
<ele>153.0</ele>
<time>2026-08-11T14:42:11.327Z</time>
</trkpt>
<trkpt lat="49.3297656" lon="1.3330917">
<ele>153.0</ele>
<time>2026-08-11T14:42:15.880Z</time>
</trkpt>
<trkpt lat="49.3298103" lon="1.3330995">
<ele>153.0</ele>
<time>2026-08-11T14:42:20.320Z</time>
</trkpt>
<trkpt lat="49.3298503" lon="1.3330956">
<ele>153.0</ele>
<time>2026-08-11T14:42:24.759Z</time>
</trkpt>
<trkpt lat="49.3298925" lon="1.3331159">
<ele>150.0</ele>
<time>2026-08-11T14:42:29.060Z</time>
</trkpt>
<trkpt lat="49.3299325" lon="1.3331447">
<ele>150.0</ele>
<time>2026-08-11T14:42:33.658Z</time>
</trkpt>
<trkpt lat="49.3299728" lon="1.3331661">
<ele>150.0</ele>
<time>2026-08-11T14:42:37.939Z</time>
</trkpt>
<trkpt lat="49.3300141" lon="1.3332035">
<ele>146.0</ele>
<time>2026-08-11T14:42:42.279Z</time>
</trkpt>
<trkpt lat="49.3300517" lon="1.333219">
<ele>146.0</ele>
<time>2026-08-11T14:42:46.301Z</time>
</trkpt>
<trkpt lat="49.3300899" lon="1.3332319">
<ele>146.0</ele>
<time>2026-08-11T14:42:50.621Z</time>
</trkpt>
<trkpt lat="49.3301335" lon="1.3332589">
<ele>146.0</ele>
<time>2026-08-11T14:42:54.802Z</time>
</trkpt>
<trkpt lat="49.3301775" lon="1.3332993">
<ele>143.0</ele>
<time>2026-08-11T14:42:59.103Z</time>
</trkpt>
<trkpt lat="49.3302156" lon="1.3333353">
<ele>143.0</ele>
<time>2026-08-11T14:43:03.331Z</time>
</trkpt>
<trkpt lat="49.330252" lon="1.3333582">
<ele>143.0</ele>
<time>2026-08-11T14:43:07.594Z</time>
</trkpt>
<trkpt lat="49.3302918" lon="1.3333777">
<ele>143.0</ele>
<time>2026-08-11T14:43:11.895Z</time>
</trkpt>
<trkpt lat="49.3303292" lon="1.3334142">
<ele>143.0</ele>
<time>2026-08-11T14:43:15.897Z</time>
</trkpt>
<trkpt lat="49.3303639" lon="1.3334478">
<ele>143.0</ele>
<time>2026-08-11T14:43:20.118Z</time>
</trkpt>
<trkpt lat="49.3304062" lon="1.3334668">
<ele>143.0</ele>
<time>2026-08-11T14:43:24.220Z</time>
</trkpt>
<trkpt lat="49.33044" lon="1.3334615">
<ele>142.0</ele>
<time>2026-08-11T14:43:28.262Z</time>
</trkpt>
<trkpt lat="49.3304681" lon="1.333518">
<ele>141.0</ele>
<time>2026-08-11T14:43:32.423Z</time>
</trkpt>
<trkpt lat="49.3305115" lon="1.3335673">
<ele>141.0</ele>
<time>2026-08-11T14:43:36.903Z</time>
</trkpt>
<trkpt lat="49.3305556" lon="1.3336164">
<ele>141.0</ele>
<time>2026-08-11T14:43:41.322Z</time>
</trkpt>
<trkpt lat="49.3305912" lon="1.3336491">
<ele>141.0</ele>
<time>2026-08-11T14:43:45.315Z</time>
</trkpt>
<trkpt lat="49.3306226" lon="1.3337051">
<ele>141.0</ele>
<time>2026-08-11T14:43:49.595Z</time>
</trkpt>
<trkpt lat="49.3306538" lon="1.3337636">
<ele>140.0</ele>
<time>2026-08-11T14:43:53.796Z</time>
</trkpt>
<trkpt lat="49.3306965" lon="1.3338158">
<ele>141.0</ele>
<time>2026-08-11T14:43:58.057Z</time>
</trkpt>
<trkpt lat="49.3307432" lon="1.3338491">
<ele>141.0</ele>
<time>2026-08-11T14:44:02.318Z</time>
</trkpt>
<trkpt lat="49.3307929" lon="1.3338724">
<ele>141.0</ele>
<time>2026-08-11T14:44:06.499Z</time>
</trkpt>
<trkpt lat="49.3308409" lon="1.3339081">
<ele>141.0</ele>
<time>2026-08-11T14:44:10.819Z</time>
</trkpt>
<trkpt lat="49.3308786" lon="1.3339404">
<ele>141.0</ele>
<time>2026-08-11T14:44:15.080Z</time>
</trkpt>
<trkpt lat="49.3309242" lon="1.3339482">
<ele>141.0</ele>
<time>2026-08-11T14:44:19.324Z</time>
</trkpt>
<trkpt lat="49.3309662" lon="1.3339356">
<ele>141.0</ele>
<time>2026-08-11T14:44:23.740Z</time>
</trkpt>
<trkpt lat="49.3310132" lon="1.3339565">
<ele>142.0</ele>
<time>2026-08-11T14:44:28.100Z</time>
</trkpt>
<trkpt lat="49.3310605" lon="1.3339915">
<ele>142.0</ele>
<time>2026-08-11T14:44:32.242Z</time>
</trkpt>
<trkpt lat="49.3311063" lon="1.3340376">
<ele>141.0</ele>
<time>2026-08-11T14:44:36.324Z</time>
</trkpt>
<trkpt lat="49.3311514" lon="1.3340644">
<ele>141.0</ele>
<time>2026-08-11T14:44:40.683Z</time>
</trkpt>
<trkpt lat="49.3311943" lon="1.3340782">
<ele>141.0</ele>
<time>2026-08-11T14:44:44.944Z</time>
</trkpt>
<trkpt lat="49.3312356" lon="1.3340939">
<ele>141.0</ele>
<time>2026-08-11T14:44:49.175Z</time>
</trkpt>
<trkpt lat="49.3312793" lon="1.334111">
<ele>140.0</ele>
<time>2026-08-11T14:44:53.664Z</time>
</trkpt>
<trkpt lat="49.3313207" lon="1.3341141">
<ele>140.0</ele>
<time>2026-08-11T14:44:58.223Z</time>
</trkpt>
<trkpt lat="49.331319" lon="1.3341048">
<ele>140.0</ele>
<time>2026-08-11T14:45:02.322Z</time>
</trkpt>
<trkpt lat="49.3313215" lon="1.3341028">
<ele>140.0</ele>
<time>2026-08-11T14:45:06.330Z</time>
</trkpt>
<trkpt lat="49.3313702" lon="1.3341092">
<ele>140.0</ele>
<time>2026-08-11T14:45:10.737Z</time>
</trkpt>
<trkpt lat="49.3314146" lon="1.3341163">
<ele>140.0</ele>
<time>2026-08-11T14:45:15.077Z</time>
</trkpt>
<trkpt lat="49.331454" lon="1.3341293">
<ele>140.0</ele>
<time>2026-08-11T14:45:19.199Z</time>
</trkpt>
<trkpt lat="49.3314888" lon="1.3341603">
<ele>140.0</ele>
<time>2026-08-11T14:45:23.678Z</time>
</trkpt>
<trkpt lat="49.3315234" lon="1.3341999">
<ele>140.0</ele>
<time>2026-08-11T14:45:28.256Z</time>
</trkpt>
<trkpt lat="49.3315514" lon="1.3342423">
<ele>138.0</ele>
<time>2026-08-11T14:45:32.795Z</time>
</trkpt>
<trkpt lat="49.3315811" lon="1.3342863">
<ele>138.0</ele>
<time>2026-08-11T14:45:37.339Z</time>
</trkpt>
<trkpt lat="49.3316058" lon="1.3343199">
<ele>137.0</ele>
<time>2026-08-11T14:45:42.220Z</time>
</trkpt>
<trkpt lat="49.3316297" lon="1.3343393">
<ele>137.0</ele>
<time>2026-08-11T14:45:46.326Z</time>
</trkpt>
<trkpt lat="49.3316168" lon="1.3344109">
<ele>137.0</ele>
<time>2026-08-11T14:45:50.821Z</time>
</trkpt>
<trkpt lat="49.3316108" lon="1.3344675">
<ele>137.0</ele>
<time>2026-08-11T14:45:55.002Z</time>
</trkpt>
<trkpt lat="49.3316042" lon="1.3346355">
<ele>138.0</ele>
<time>2026-08-11T14:46:15.320Z</time>
</trkpt>
<trkpt lat="49.3316057" lon="1.3346428">
<ele>138.0</ele>
<time>2026-08-11T14:46:19.332Z</time>
</trkpt>
<trkpt lat="49.3316048" lon="1.3346551">
<ele>138.0</ele>
<time>2026-08-11T14:46:23.556Z</time>
</trkpt>
<trkpt lat="49.3316046" lon="1.3346672">
<ele>138.0</ele>
<time>2026-08-11T14:46:29.328Z</time>
</trkpt>
<trkpt lat="49.3316077" lon="1.3346827">
<ele>138.0</ele>
<time>2026-08-11T14:46:35.318Z</time>
</trkpt>
</trkseg>
</trk>
</gpx>
